<?xml version="1.0" encoding="UTF-8" standalone="no" ?>
<gpx xmlns="http://www.topografix.com/GPX/1/1" xmlns:xsi="http://www.w3.org/2001/XMLSchema-instance" xsi:schemaLocation="http://www.topografix.com/GPX/1/1 http://www.topografix.com/GPX/1/1/gpx.xsd" version="1.1" creator="VisuGPX - https://www.visugpx.com">
  <metadata>
    <name>54- Liézey</name>
    <desc><![CDATA[Rando sous le soleil au départ de Liézey direction le pré Rouan, la Roche Morand puis les hauts de Gérardmer en passant par la chapelle de la Trinité. Casse croute à la  Pépinière des Xettes et retour vers Liézey.]]></desc>
  </metadata>
  <trk>
    <name><![CDATA[54-Liézey]]></name>
    <trkseg>
      <trkpt lat="48.09449" lon="6.80388">
        <ele>739.39</ele>
        <time>2018-08-22T07:38:53Z</time>
      </trkpt>
      <trkpt lat="48.09451" lon="6.80384">
        <ele>739.39</ele>
        <time>2018-08-22T07:39:34Z</time>
      </trkpt>
      <trkpt lat="48.0945" lon="6.80386">
        <ele>739.87</ele>
        <time>2018-08-22T07:39:56Z</time>
      </trkpt>
      <trkpt lat="48.09451" lon="6.80385">
        <ele>738.43</ele>
        <time>2018-08-22T07:40:11Z</time>
      </trkpt>
      <trkpt lat="48.09451" lon="6.80385">
        <ele>739.39</ele>
        <time>2018-08-22T07:40:14Z</time>
      </trkpt>
      <trkpt lat="48.09452" lon="6.80386">
        <ele>738.43</ele>
        <time>2018-08-22T07:40:34Z</time>
      </trkpt>
      <trkpt lat="48.09452" lon="6.80385">
        <ele>741.31</ele>
        <time>2018-08-22T07:40:38Z</time>
      </trkpt>
      <trkpt lat="48.09452" lon="6.80385">
        <ele>739.39</ele>
        <time>2018-08-22T07:40:39Z</time>
      </trkpt>
      <trkpt lat="48.09454" lon="6.80386">
        <ele>739.87</ele>
        <time>2018-08-22T07:41:13Z</time>
      </trkpt>
      <trkpt lat="48.09456" lon="6.80384">
        <ele>739.87</ele>
        <time>2018-08-22T07:41:32Z</time>
      </trkpt>
      <trkpt lat="48.09458" lon="6.80383">
        <ele>739.87</ele>
        <time>2018-08-22T07:41:49Z</time>
      </trkpt>
      <trkpt lat="48.09459" lon="6.80384">
        <ele>740.35</ele>
        <time>2018-08-22T07:42:08Z</time>
      </trkpt>
      <trkpt lat="48.09459" lon="6.8038">
        <ele>740.35</ele>
        <time>2018-08-22T07:42:33Z</time>
      </trkpt>
      <trkpt lat="48.09457" lon="6.80382">
        <ele>740.83</ele>
        <time>2018-08-22T07:42:59Z</time>
      </trkpt>
      <trkpt lat="48.0945" lon="6.80391">
        <ele>740.83</ele>
        <time>2018-08-22T07:43:10Z</time>
      </trkpt>
      <trkpt lat="48.09451" lon="6.80392">
        <ele>741.31</ele>
        <time>2018-08-22T07:43:26Z</time>
      </trkpt>
      <trkpt lat="48.09455" lon="6.80385">
        <ele>741.31</ele>
        <time>2018-08-22T07:43:39Z</time>
      </trkpt>
      <trkpt lat="48.09457" lon="6.80385">
        <ele>741.31</ele>
        <time>2018-08-22T07:44:00Z</time>
      </trkpt>
      <trkpt lat="48.09456" lon="6.80383">
        <ele>740.35</ele>
        <time>2018-08-22T07:44:24Z</time>
      </trkpt>
      <trkpt lat="48.09456" lon="6.80384">
        <ele>740.35</ele>
        <time>2018-08-22T07:44:47Z</time>
      </trkpt>
      <trkpt lat="48.09454" lon="6.80384">
        <ele>740.35</ele>
        <time>2018-08-22T07:45:07Z</time>
      </trkpt>
      <trkpt lat="48.09453" lon="6.80388">
        <ele>740.35</ele>
        <time>2018-08-22T07:45:23Z</time>
      </trkpt>
      <trkpt lat="48.09456" lon="6.80389">
        <ele>740.83</ele>
        <time>2018-08-22T07:45:43Z</time>
      </trkpt>
      <trkpt lat="48.09454" lon="6.8039">
        <ele>741.79</ele>
        <time>2018-08-22T07:45:47Z</time>
      </trkpt>
      <trkpt lat="48.09446" lon="6.80401">
        <ele>741.79</ele>
        <time>2018-08-22T07:45:59Z</time>
      </trkpt>
      <trkpt lat="48.09438" lon="6.80417">
        <ele>742.28</ele>
        <time>2018-08-22T07:46:15Z</time>
      </trkpt>
      <trkpt lat="48.09438" lon="6.80423">
        <ele>742.76</ele>
        <time>2018-08-22T07:46:36Z</time>
      </trkpt>
      <trkpt lat="48.0944" lon="6.8042">
        <ele>742.76</ele>
        <time>2018-08-22T07:47:06Z</time>
      </trkpt>
      <trkpt lat="48.0943" lon="6.8042">
        <ele>741.31</ele>
        <time>2018-08-22T07:47:22Z</time>
      </trkpt>
      <trkpt lat="48.09429" lon="6.80421">
        <ele>741.31</ele>
        <time>2018-08-22T07:47:23Z</time>
      </trkpt>
      <trkpt lat="48.09428" lon="6.80421">
        <ele>741.31</ele>
        <time>2018-08-22T07:47:24Z</time>
      </trkpt>
      <trkpt lat="48.09412" lon="6.80423">
        <ele>741.31</ele>
        <time>2018-08-22T07:47:37Z</time>
      </trkpt>
      <trkpt lat="48.09409" lon="6.80424">
        <ele>741.31</ele>
        <time>2018-08-22T07:47:41Z</time>
      </trkpt>
      <trkpt lat="48.09392" lon="6.80433">
        <ele>739.87</ele>
        <time>2018-08-22T07:47:57Z</time>
      </trkpt>
      <trkpt lat="48.09387" lon="6.80435">
        <ele>740.35</ele>
        <time>2018-08-22T07:48:03Z</time>
      </trkpt>
      <trkpt lat="48.09378" lon="6.80439">
        <ele>739.39</ele>
        <time>2018-08-22T07:48:09Z</time>
      </trkpt>
      <trkpt lat="48.09359" lon="6.8045">
        <ele>738.43</ele>
        <time>2018-08-22T07:48:25Z</time>
      </trkpt>
      <trkpt lat="48.09347" lon="6.80469">
        <ele>736.99</ele>
        <time>2018-08-22T07:48:41Z</time>
      </trkpt>
      <trkpt lat="48.09338" lon="6.80489">
        <ele>736.51</ele>
        <time>2018-08-22T07:48:56Z</time>
      </trkpt>
      <trkpt lat="48.09333" lon="6.80502">
        <ele>736.03</ele>
        <time>2018-08-22T07:49:09Z</time>
      </trkpt>
      <trkpt lat="48.09323" lon="6.80529">
        <ele>735.07</ele>
        <time>2018-08-22T07:49:25Z</time>
      </trkpt>
      <trkpt lat="48.09312" lon="6.80555">
        <ele>734.1</ele>
        <time>2018-08-22T07:49:42Z</time>
      </trkpt>
      <trkpt lat="48.09302" lon="6.80585">
        <ele>732.66</ele>
        <time>2018-08-22T07:50:00Z</time>
      </trkpt>
      <trkpt lat="48.09297" lon="6.80616">
        <ele>731.7</ele>
        <time>2018-08-22T07:50:18Z</time>
      </trkpt>
      <trkpt lat="48.09296" lon="6.8062">
        <ele>731.7</ele>
        <time>2018-08-22T07:50:20Z</time>
      </trkpt>
      <trkpt lat="48.09294" lon="6.80654">
        <ele>731.22</ele>
        <time>2018-08-22T07:50:37Z</time>
      </trkpt>
      <trkpt lat="48.09295" lon="6.80663">
        <ele>730.26</ele>
        <time>2018-08-22T07:50:43Z</time>
      </trkpt>
      <trkpt lat="48.09295" lon="6.8068">
        <ele>730.26</ele>
        <time>2018-08-22T07:50:55Z</time>
      </trkpt>
      <trkpt lat="48.09296" lon="6.80704">
        <ele>728.82</ele>
        <time>2018-08-22T07:51:09Z</time>
      </trkpt>
      <trkpt lat="48.09299" lon="6.80728">
        <ele>727.86</ele>
        <time>2018-08-22T07:51:23Z</time>
      </trkpt>
      <trkpt lat="48.09301" lon="6.80758">
        <ele>726.89</ele>
        <time>2018-08-22T07:51:39Z</time>
      </trkpt>
      <trkpt lat="48.09298" lon="6.8078">
        <ele>725.45</ele>
        <time>2018-08-22T07:51:51Z</time>
      </trkpt>
      <trkpt lat="48.09291" lon="6.80783">
        <ele>724.01</ele>
        <time>2018-08-22T07:51:56Z</time>
      </trkpt>
      <trkpt lat="48.09275" lon="6.80772">
        <ele>723.53</ele>
        <time>2018-08-22T07:52:11Z</time>
      </trkpt>
      <trkpt lat="48.09264" lon="6.80755">
        <ele>722.57</ele>
        <time>2018-08-22T07:52:24Z</time>
      </trkpt>
      <trkpt lat="48.09251" lon="6.80735">
        <ele>721.13</ele>
        <time>2018-08-22T07:52:40Z</time>
      </trkpt>
      <trkpt lat="48.09237" lon="6.80718">
        <ele>719.2</ele>
        <time>2018-08-22T07:52:55Z</time>
      </trkpt>
      <trkpt lat="48.09235" lon="6.80715">
        <ele>719.2</ele>
        <time>2018-08-22T07:52:57Z</time>
      </trkpt>
      <trkpt lat="48.09228" lon="6.80712">
        <ele>719.2</ele>
        <time>2018-08-22T07:53:03Z</time>
      </trkpt>
      <trkpt lat="48.09225" lon="6.80711">
        <ele>717.76</ele>
        <time>2018-08-22T07:53:05Z</time>
      </trkpt>
      <trkpt lat="48.09222" lon="6.80709">
        <ele>717.76</ele>
        <time>2018-08-22T07:53:09Z</time>
      </trkpt>
      <trkpt lat="48.09208" lon="6.80702">
        <ele>716.8</ele>
        <time>2018-08-22T07:53:21Z</time>
      </trkpt>
      <trkpt lat="48.09191" lon="6.80688">
        <ele>715.36</ele>
        <time>2018-08-22T07:53:36Z</time>
      </trkpt>
      <trkpt lat="48.09178" lon="6.80679">
        <ele>714.88</ele>
        <time>2018-08-22T07:53:48Z</time>
      </trkpt>
      <trkpt lat="48.09163" lon="6.80681">
        <ele>711.99</ele>
        <time>2018-08-22T07:54:02Z</time>
      </trkpt>
      <trkpt lat="48.09158" lon="6.80682">
        <ele>711.99</ele>
        <time>2018-08-22T07:54:06Z</time>
      </trkpt>
      <trkpt lat="48.09146" lon="6.80687">
        <ele>711.03</ele>
        <time>2018-08-22T07:54:16Z</time>
      </trkpt>
      <trkpt lat="48.09137" lon="6.80688">
        <ele>710.55</ele>
        <time>2018-08-22T07:54:24Z</time>
      </trkpt>
      <trkpt lat="48.09134" lon="6.80687">
        <ele>710.55</ele>
        <time>2018-08-22T07:54:27Z</time>
      </trkpt>
      <trkpt lat="48.0913" lon="6.80685">
        <ele>710.07</ele>
        <time>2018-08-22T07:54:31Z</time>
      </trkpt>
      <trkpt lat="48.09118" lon="6.8068">
        <ele>709.59</ele>
        <time>2018-08-22T07:54:44Z</time>
      </trkpt>
      <trkpt lat="48.09112" lon="6.80676">
        <ele>710.07</ele>
        <time>2018-08-22T07:54:51Z</time>
      </trkpt>
      <trkpt lat="48.09091" lon="6.80675">
        <ele>711.51</ele>
        <time>2018-08-22T07:55:12Z</time>
      </trkpt>
      <trkpt lat="48.09085" lon="6.80679">
        <ele>711.99</ele>
        <time>2018-08-22T07:55:17Z</time>
      </trkpt>
      <trkpt lat="48.09077" lon="6.80683">
        <ele>713.92</ele>
        <time>2018-08-22T07:55:25Z</time>
      </trkpt>
      <trkpt lat="48.09071" lon="6.80688">
        <ele>713.92</ele>
        <time>2018-08-22T07:55:31Z</time>
      </trkpt>
      <trkpt lat="48.09051" lon="6.80705">
        <ele>715.84</ele>
        <time>2018-08-22T07:55:52Z</time>
      </trkpt>
      <trkpt lat="48.09045" lon="6.80709">
        <ele>716.32</ele>
        <time>2018-08-22T07:55:57Z</time>
      </trkpt>
      <trkpt lat="48.09024" lon="6.8072">
        <ele>716.8</ele>
        <time>2018-08-22T07:56:15Z</time>
      </trkpt>
      <trkpt lat="48.09022" lon="6.80721">
        <ele>718.24</ele>
        <time>2018-08-22T07:56:17Z</time>
      </trkpt>
      <trkpt lat="48.09007" lon="6.80736">
        <ele>720.16</ele>
        <time>2018-08-22T07:56:33Z</time>
      </trkpt>
      <trkpt lat="48.08992" lon="6.80753">
        <ele>721.13</ele>
        <time>2018-08-22T07:56:48Z</time>
      </trkpt>
      <trkpt lat="48.08979" lon="6.80769">
        <ele>722.57</ele>
        <time>2018-08-22T07:57:05Z</time>
      </trkpt>
      <trkpt lat="48.08976" lon="6.80771">
        <ele>724.01</ele>
        <time>2018-08-22T07:57:09Z</time>
      </trkpt>
      <trkpt lat="48.08958" lon="6.80785">
        <ele>726.41</ele>
        <time>2018-08-22T07:57:29Z</time>
      </trkpt>
      <trkpt lat="48.08942" lon="6.80801">
        <ele>730.26</ele>
        <time>2018-08-22T07:57:48Z</time>
      </trkpt>
      <trkpt lat="48.08939" lon="6.80806">
        <ele>730.26</ele>
        <time>2018-08-22T07:57:53Z</time>
      </trkpt>
      <trkpt lat="48.08936" lon="6.8081">
        <ele>731.22</ele>
        <time>2018-08-22T07:57:57Z</time>
      </trkpt>
      <trkpt lat="48.08928" lon="6.80819">
        <ele>733.62</ele>
        <time>2018-08-22T07:58:11Z</time>
      </trkpt>
      <trkpt lat="48.08911" lon="6.80836">
        <ele>735.55</ele>
        <time>2018-08-22T07:58:31Z</time>
      </trkpt>
      <trkpt lat="48.08909" lon="6.80839">
        <ele>736.99</ele>
        <time>2018-08-22T07:58:34Z</time>
      </trkpt>
      <trkpt lat="48.08895" lon="6.80853">
        <ele>738.43</ele>
        <time>2018-08-22T07:58:51Z</time>
      </trkpt>
      <trkpt lat="48.08883" lon="6.80875">
        <ele>740.35</ele>
        <time>2018-08-22T07:59:11Z</time>
      </trkpt>
      <trkpt lat="48.08865" lon="6.80907">
        <ele>742.76</ele>
        <time>2018-08-22T07:59:31Z</time>
      </trkpt>
      <trkpt lat="48.08852" lon="6.80933">
        <ele>744.2</ele>
        <time>2018-08-22T07:59:50Z</time>
      </trkpt>
      <trkpt lat="48.08844" lon="6.80941">
        <ele>745.16</ele>
        <time>2018-08-22T07:59:57Z</time>
      </trkpt>
      <trkpt lat="48.0884" lon="6.8095">
        <ele>744.2</ele>
        <time>2018-08-22T08:00:04Z</time>
      </trkpt>
      <trkpt lat="48.08827" lon="6.80975">
        <ele>747.08</ele>
        <time>2018-08-22T08:00:23Z</time>
      </trkpt>
      <trkpt lat="48.08813" lon="6.81006">
        <ele>748.52</ele>
        <time>2018-08-22T08:00:43Z</time>
      </trkpt>
      <trkpt lat="48.08804" lon="6.81032">
        <ele>749.97</ele>
        <time>2018-08-22T08:00:56Z</time>
      </trkpt>
      <trkpt lat="48.08795" lon="6.81043">
        <ele>750.93</ele>
        <time>2018-08-22T08:01:07Z</time>
      </trkpt>
      <trkpt lat="48.08792" lon="6.8105">
        <ele>751.41</ele>
        <time>2018-08-22T08:01:13Z</time>
      </trkpt>
      <trkpt lat="48.0878" lon="6.81067">
        <ele>752.85</ele>
        <time>2018-08-22T08:01:28Z</time>
      </trkpt>
      <trkpt lat="48.08778" lon="6.81069">
        <ele>754.29</ele>
        <time>2018-08-22T08:01:30Z</time>
      </trkpt>
      <trkpt lat="48.08777" lon="6.81071">
        <ele>752.85</ele>
        <time>2018-08-22T08:01:32Z</time>
      </trkpt>
      <trkpt lat="48.08768" lon="6.81088">
        <ele>754.29</ele>
        <time>2018-08-22T08:01:45Z</time>
      </trkpt>
      <trkpt lat="48.08764" lon="6.81095">
        <ele>754.77</ele>
        <time>2018-08-22T08:01:51Z</time>
      </trkpt>
      <trkpt lat="48.08763" lon="6.81097">
        <ele>754.77</ele>
        <time>2018-08-22T08:01:53Z</time>
      </trkpt>
      <trkpt lat="48.08757" lon="6.81115">
        <ele>755.25</ele>
        <time>2018-08-22T08:02:05Z</time>
      </trkpt>
      <trkpt lat="48.08756" lon="6.81118">
        <ele>755.73</ele>
        <time>2018-08-22T08:02:07Z</time>
      </trkpt>
      <trkpt lat="48.08748" lon="6.81143">
        <ele>757.66</ele>
        <time>2018-08-22T08:02:25Z</time>
      </trkpt>
      <trkpt lat="48.08739" lon="6.81178">
        <ele>759.58</ele>
        <time>2018-08-22T08:02:46Z</time>
      </trkpt>
      <trkpt lat="48.08731" lon="6.812">
        <ele>760.54</ele>
        <time>2018-08-22T08:03:01Z</time>
      </trkpt>
      <trkpt lat="48.08727" lon="6.81211">
        <ele>760.06</ele>
        <time>2018-08-22T08:03:08Z</time>
      </trkpt>
      <trkpt lat="48.08726" lon="6.81225">
        <ele>761.98</ele>
        <time>2018-08-22T08:03:15Z</time>
      </trkpt>
      <trkpt lat="48.08724" lon="6.81236">
        <ele>761.98</ele>
        <time>2018-08-22T08:03:21Z</time>
      </trkpt>
      <trkpt lat="48.08724" lon="6.81248">
        <ele>762.46</ele>
        <time>2018-08-22T08:03:29Z</time>
      </trkpt>
      <trkpt lat="48.0872" lon="6.81276">
        <ele>763.42</ele>
        <time>2018-08-22T08:03:46Z</time>
      </trkpt>
      <trkpt lat="48.08717" lon="6.81309">
        <ele>765.35</ele>
        <time>2018-08-22T08:04:06Z</time>
      </trkpt>
      <trkpt lat="48.08718" lon="6.81322">
        <ele>766.79</ele>
        <time>2018-08-22T08:04:14Z</time>
      </trkpt>
      <trkpt lat="48.08714" lon="6.81353">
        <ele>768.23</ele>
        <time>2018-08-22T08:04:31Z</time>
      </trkpt>
      <trkpt lat="48.08711" lon="6.81379">
        <ele>769.67</ele>
        <time>2018-08-22T08:04:47Z</time>
      </trkpt>
      <trkpt lat="48.08713" lon="6.81408">
        <ele>770.63</ele>
        <time>2018-08-22T08:05:02Z</time>
      </trkpt>
      <trkpt lat="48.08713" lon="6.81443">
        <ele>771.6</ele>
        <time>2018-08-22T08:05:21Z</time>
      </trkpt>
      <trkpt lat="48.08717" lon="6.8147">
        <ele>772.08</ele>
        <time>2018-08-22T08:05:37Z</time>
      </trkpt>
      <trkpt lat="48.08719" lon="6.81476">
        <ele>771.11</ele>
        <time>2018-08-22T08:05:42Z</time>
      </trkpt>
      <trkpt lat="48.08722" lon="6.81498">
        <ele>771.11</ele>
        <time>2018-08-22T08:05:57Z</time>
      </trkpt>
      <trkpt lat="48.08722" lon="6.81506">
        <ele>772.56</ele>
        <time>2018-08-22T08:06:02Z</time>
      </trkpt>
      <trkpt lat="48.08724" lon="6.81539">
        <ele>772.56</ele>
        <time>2018-08-22T08:06:19Z</time>
      </trkpt>
      <trkpt lat="48.0872" lon="6.81567">
        <ele>773.04</ele>
        <time>2018-08-22T08:06:39Z</time>
      </trkpt>
      <trkpt lat="48.08711" lon="6.81594">
        <ele>773.52</ele>
        <time>2018-08-22T08:06:57Z</time>
      </trkpt>
      <trkpt lat="48.0871" lon="6.816">
        <ele>773.52</ele>
        <time>2018-08-22T08:07:01Z</time>
      </trkpt>
      <trkpt lat="48.08699" lon="6.81624">
        <ele>774</ele>
        <time>2018-08-22T08:07:18Z</time>
      </trkpt>
      <trkpt lat="48.08695" lon="6.81658">
        <ele>774</ele>
        <time>2018-08-22T08:07:37Z</time>
      </trkpt>
      <trkpt lat="48.08688" lon="6.81685">
        <ele>774</ele>
        <time>2018-08-22T08:07:55Z</time>
      </trkpt>
      <trkpt lat="48.08686" lon="6.8169">
        <ele>774</ele>
        <time>2018-08-22T08:07:58Z</time>
      </trkpt>
      <trkpt lat="48.08674" lon="6.81726">
        <ele>774.48</ele>
        <time>2018-08-22T08:08:19Z</time>
      </trkpt>
      <trkpt lat="48.08667" lon="6.81748">
        <ele>774.48</ele>
        <time>2018-08-22T08:08:32Z</time>
      </trkpt>
      <trkpt lat="48.08666" lon="6.8175">
        <ele>774.48</ele>
        <time>2018-08-22T08:08:34Z</time>
      </trkpt>
      <trkpt lat="48.08651" lon="6.81764">
        <ele>776.88</ele>
        <time>2018-08-22T08:08:48Z</time>
      </trkpt>
      <trkpt lat="48.08644" lon="6.81774">
        <ele>778.32</ele>
        <time>2018-08-22T08:08:57Z</time>
      </trkpt>
      <trkpt lat="48.08634" lon="6.81794">
        <ele>780.25</ele>
        <time>2018-08-22T08:09:12Z</time>
      </trkpt>
      <trkpt lat="48.08619" lon="6.81816">
        <ele>783.61</ele>
        <time>2018-08-22T08:09:34Z</time>
      </trkpt>
      <trkpt lat="48.08609" lon="6.8183">
        <ele>786.5</ele>
        <time>2018-08-22T08:09:49Z</time>
      </trkpt>
      <trkpt lat="48.08608" lon="6.8183">
        <ele>786.5</ele>
        <time>2018-08-22T08:09:50Z</time>
      </trkpt>
      <trkpt lat="48.08604" lon="6.81835">
        <ele>786.98</ele>
        <time>2018-08-22T08:09:55Z</time>
      </trkpt>
      <trkpt lat="48.08598" lon="6.81845">
        <ele>787.46</ele>
        <time>2018-08-22T08:10:04Z</time>
      </trkpt>
      <trkpt lat="48.08595" lon="6.81849">
        <ele>789.38</ele>
        <time>2018-08-22T08:10:08Z</time>
      </trkpt>
      <trkpt lat="48.08591" lon="6.81852">
        <ele>790.34</ele>
        <time>2018-08-22T08:10:13Z</time>
      </trkpt>
      <trkpt lat="48.08589" lon="6.81854">
        <ele>788.9</ele>
        <time>2018-08-22T08:10:15Z</time>
      </trkpt>
      <trkpt lat="48.08588" lon="6.81854">
        <ele>790.34</ele>
        <time>2018-08-22T08:10:20Z</time>
      </trkpt>
      <trkpt lat="48.08591" lon="6.81851">
        <ele>790.82</ele>
        <time>2018-08-22T08:10:43Z</time>
      </trkpt>
      <trkpt lat="48.08594" lon="6.81854">
        <ele>790.82</ele>
        <time>2018-08-22T08:11:08Z</time>
      </trkpt>
      <trkpt lat="48.08593" lon="6.81853">
        <ele>791.3</ele>
        <time>2018-08-22T08:11:29Z</time>
      </trkpt>
      <trkpt lat="48.08592" lon="6.81851">
        <ele>791.78</ele>
        <time>2018-08-22T08:11:54Z</time>
      </trkpt>
      <trkpt lat="48.08591" lon="6.81859">
        <ele>792.74</ele>
        <time>2018-08-22T08:12:20Z</time>
      </trkpt>
      <trkpt lat="48.08595" lon="6.81857">
        <ele>792.26</ele>
        <time>2018-08-22T08:12:37Z</time>
      </trkpt>
      <trkpt lat="48.08592" lon="6.81861">
        <ele>792.26</ele>
        <time>2018-08-22T08:13:03Z</time>
      </trkpt>
      <trkpt lat="48.08579" lon="6.81875">
        <ele>792.26</ele>
        <time>2018-08-22T08:13:18Z</time>
      </trkpt>
      <trkpt lat="48.08578" lon="6.81877">
        <ele>793.71</ele>
        <time>2018-08-22T08:13:20Z</time>
      </trkpt>
      <trkpt lat="48.08565" lon="6.81889">
        <ele>796.11</ele>
        <time>2018-08-22T08:13:37Z</time>
      </trkpt>
      <trkpt lat="48.08562" lon="6.8189">
        <ele>796.59</ele>
        <time>2018-08-22T08:13:40Z</time>
      </trkpt>
      <trkpt lat="48.08551" lon="6.81897">
        <ele>797.55</ele>
        <time>2018-08-22T08:13:49Z</time>
      </trkpt>
      <trkpt lat="48.08549" lon="6.81899">
        <ele>798.99</ele>
        <time>2018-08-22T08:13:51Z</time>
      </trkpt>
      <trkpt lat="48.08535" lon="6.81908">
        <ele>800.92</ele>
        <time>2018-08-22T08:14:06Z</time>
      </trkpt>
      <trkpt lat="48.08529" lon="6.81918">
        <ele>803.8</ele>
        <time>2018-08-22T08:14:18Z</time>
      </trkpt>
      <trkpt lat="48.08523" lon="6.81921">
        <ele>805.24</ele>
        <time>2018-08-22T08:14:26Z</time>
      </trkpt>
      <trkpt lat="48.08511" lon="6.81936">
        <ele>808.13</ele>
        <time>2018-08-22T08:14:43Z</time>
      </trkpt>
      <trkpt lat="48.08505" lon="6.81953">
        <ele>808.61</ele>
        <time>2018-08-22T08:14:51Z</time>
      </trkpt>
      <trkpt lat="48.08489" lon="6.81976">
        <ele>811.01</ele>
        <time>2018-08-22T08:15:10Z</time>
      </trkpt>
      <trkpt lat="48.08478" lon="6.8199">
        <ele>813.41</ele>
        <time>2018-08-22T08:15:27Z</time>
      </trkpt>
      <trkpt lat="48.08471" lon="6.81997">
        <ele>814.37</ele>
        <time>2018-08-22T08:15:34Z</time>
      </trkpt>
      <trkpt lat="48.08463" lon="6.82019">
        <ele>815.82</ele>
        <time>2018-08-22T08:15:50Z</time>
      </trkpt>
      <trkpt lat="48.08452" lon="6.82029">
        <ele>818.7</ele>
        <time>2018-08-22T08:16:06Z</time>
      </trkpt>
      <trkpt lat="48.08442" lon="6.82034">
        <ele>819.66</ele>
        <time>2018-08-22T08:16:14Z</time>
      </trkpt>
      <trkpt lat="48.08428" lon="6.82045">
        <ele>823.03</ele>
        <time>2018-08-22T08:16:31Z</time>
      </trkpt>
      <trkpt lat="48.08409" lon="6.82046">
        <ele>826.39</ele>
        <time>2018-08-22T08:16:47Z</time>
      </trkpt>
      <trkpt lat="48.08401" lon="6.82069">
        <ele>829.76</ele>
        <time>2018-08-22T08:17:05Z</time>
      </trkpt>
      <trkpt lat="48.08401" lon="6.8207">
        <ele>829.76</ele>
        <time>2018-08-22T08:17:06Z</time>
      </trkpt>
      <trkpt lat="48.08394" lon="6.82077">
        <ele>833.6</ele>
        <time>2018-08-22T08:17:21Z</time>
      </trkpt>
      <trkpt lat="48.0839" lon="6.8208">
        <ele>835.04</ele>
        <time>2018-08-22T08:17:27Z</time>
      </trkpt>
      <trkpt lat="48.08389" lon="6.82081">
        <ele>834.08</ele>
        <time>2018-08-22T08:17:29Z</time>
      </trkpt>
      <trkpt lat="48.08378" lon="6.82088">
        <ele>837.93</ele>
        <time>2018-08-22T08:17:42Z</time>
      </trkpt>
      <trkpt lat="48.08374" lon="6.82092">
        <ele>836.96</ele>
        <time>2018-08-22T08:17:47Z</time>
      </trkpt>
      <trkpt lat="48.08362" lon="6.82098">
        <ele>840.81</ele>
        <time>2018-08-22T08:17:57Z</time>
      </trkpt>
      <trkpt lat="48.08361" lon="6.82099">
        <ele>840.81</ele>
        <time>2018-08-22T08:17:58Z</time>
      </trkpt>
      <trkpt lat="48.08347" lon="6.82109">
        <ele>843.69</ele>
        <time>2018-08-22T08:18:17Z</time>
      </trkpt>
      <trkpt lat="48.08342" lon="6.82114">
        <ele>847.06</ele>
        <time>2018-08-22T08:18:28Z</time>
      </trkpt>
      <trkpt lat="48.08342" lon="6.82115">
        <ele>847.06</ele>
        <time>2018-08-22T08:18:29Z</time>
      </trkpt>
      <trkpt lat="48.08328" lon="6.82126">
        <ele>849.94</ele>
        <time>2018-08-22T08:18:47Z</time>
      </trkpt>
      <trkpt lat="48.08314" lon="6.8214">
        <ele>851.87</ele>
        <time>2018-08-22T08:19:07Z</time>
      </trkpt>
      <trkpt lat="48.08306" lon="6.82145">
        <ele>855.23</ele>
        <time>2018-08-22T08:19:17Z</time>
      </trkpt>
      <trkpt lat="48.083" lon="6.8215">
        <ele>856.67</ele>
        <time>2018-08-22T08:19:23Z</time>
      </trkpt>
      <trkpt lat="48.08296" lon="6.82156">
        <ele>857.63</ele>
        <time>2018-08-22T08:19:29Z</time>
      </trkpt>
      <trkpt lat="48.08286" lon="6.82164">
        <ele>861.48</ele>
        <time>2018-08-22T08:19:43Z</time>
      </trkpt>
      <trkpt lat="48.0828" lon="6.82169">
        <ele>864.36</ele>
        <time>2018-08-22T08:19:52Z</time>
      </trkpt>
      <trkpt lat="48.0828" lon="6.82169">
        <ele>861.96</ele>
        <time>2018-08-22T08:19:53Z</time>
      </trkpt>
      <trkpt lat="48.08277" lon="6.82172">
        <ele>863.88</ele>
        <time>2018-08-22T08:19:55Z</time>
      </trkpt>
      <trkpt lat="48.08263" lon="6.82179">
        <ele>864.84</ele>
        <time>2018-08-22T08:20:09Z</time>
      </trkpt>
      <trkpt lat="48.08249" lon="6.8218">
        <ele>868.69</ele>
        <time>2018-08-22T08:20:27Z</time>
      </trkpt>
      <trkpt lat="48.08243" lon="6.82181">
        <ele>868.69</ele>
        <time>2018-08-22T08:20:35Z</time>
      </trkpt>
      <trkpt lat="48.08241" lon="6.82181">
        <ele>868.21</ele>
        <time>2018-08-22T08:20:38Z</time>
      </trkpt>
      <trkpt lat="48.08231" lon="6.82182">
        <ele>870.13</ele>
        <time>2018-08-22T08:20:54Z</time>
      </trkpt>
      <trkpt lat="48.08231" lon="6.82182">
        <ele>870.13</ele>
        <time>2018-08-22T08:21:10Z</time>
      </trkpt>
      <trkpt lat="48.08229" lon="6.82181">
        <ele>870.13</ele>
        <time>2018-08-22T08:21:26Z</time>
      </trkpt>
      <trkpt lat="48.08231" lon="6.82175">
        <ele>870.61</ele>
        <time>2018-08-22T08:21:39Z</time>
      </trkpt>
      <trkpt lat="48.08231" lon="6.82179">
        <ele>870.61</ele>
        <time>2018-08-22T08:22:09Z</time>
      </trkpt>
      <trkpt lat="48.08232" lon="6.82182">
        <ele>871.09</ele>
        <time>2018-08-22T08:22:31Z</time>
      </trkpt>
      <trkpt lat="48.08232" lon="6.82179">
        <ele>871.09</ele>
        <time>2018-08-22T08:22:40Z</time>
      </trkpt>
      <trkpt lat="48.0823" lon="6.8218">
        <ele>871.09</ele>
        <time>2018-08-22T08:22:45Z</time>
      </trkpt>
      <trkpt lat="48.08229" lon="6.82182">
        <ele>871.09</ele>
        <time>2018-08-22T08:23:01Z</time>
      </trkpt>
      <trkpt lat="48.08227" lon="6.82184">
        <ele>871.09</ele>
        <time>2018-08-22T08:23:26Z</time>
      </trkpt>
      <trkpt lat="48.08231" lon="6.82181">
        <ele>871.09</ele>
        <time>2018-08-22T08:23:56Z</time>
      </trkpt>
      <trkpt lat="48.08231" lon="6.82183">
        <ele>871.09</ele>
        <time>2018-08-22T08:24:27Z</time>
      </trkpt>
      <trkpt lat="48.0823" lon="6.82183">
        <ele>870.13</ele>
        <time>2018-08-22T08:24:56Z</time>
      </trkpt>
      <trkpt lat="48.08225" lon="6.82168">
        <ele>873.98</ele>
        <time>2018-08-22T08:25:10Z</time>
      </trkpt>
      <trkpt lat="48.08223" lon="6.82159">
        <ele>874.94</ele>
        <time>2018-08-22T08:25:19Z</time>
      </trkpt>
      <trkpt lat="48.08224" lon="6.82156">
        <ele>875.42</ele>
        <time>2018-08-22T08:25:21Z</time>
      </trkpt>
      <trkpt lat="48.08224" lon="6.82154">
        <ele>875.42</ele>
        <time>2018-08-22T08:25:22Z</time>
      </trkpt>
      <trkpt lat="48.08223" lon="6.82148">
        <ele>876.38</ele>
        <time>2018-08-22T08:25:26Z</time>
      </trkpt>
      <trkpt lat="48.08222" lon="6.82145">
        <ele>877.34</ele>
        <time>2018-08-22T08:25:28Z</time>
      </trkpt>
      <trkpt lat="48.0822" lon="6.82143">
        <ele>876.86</ele>
        <time>2018-08-22T08:25:33Z</time>
      </trkpt>
      <trkpt lat="48.08218" lon="6.82137">
        <ele>878.3</ele>
        <time>2018-08-22T08:25:40Z</time>
      </trkpt>
      <trkpt lat="48.08209" lon="6.82123">
        <ele>879.74</ele>
        <time>2018-08-22T08:25:52Z</time>
      </trkpt>
      <trkpt lat="48.08208" lon="6.82116">
        <ele>879.74</ele>
        <time>2018-08-22T08:26:00Z</time>
      </trkpt>
      <trkpt lat="48.082" lon="6.82103">
        <ele>880.22</ele>
        <time>2018-08-22T08:26:10Z</time>
      </trkpt>
      <trkpt lat="48.08189" lon="6.82089">
        <ele>882.15</ele>
        <time>2018-08-22T08:26:28Z</time>
      </trkpt>
      <trkpt lat="48.08185" lon="6.82088">
        <ele>882.15</ele>
        <time>2018-08-22T08:26:32Z</time>
      </trkpt>
      <trkpt lat="48.08171" lon="6.82092">
        <ele>882.15</ele>
        <time>2018-08-22T08:26:48Z</time>
      </trkpt>
      <trkpt lat="48.0817" lon="6.82092">
        <ele>882.15</ele>
        <time>2018-08-22T08:26:50Z</time>
      </trkpt>
      <trkpt lat="48.0816" lon="6.82094">
        <ele>882.63</ele>
        <time>2018-08-22T08:27:00Z</time>
      </trkpt>
      <trkpt lat="48.08142" lon="6.82107">
        <ele>882.63</ele>
        <time>2018-08-22T08:27:18Z</time>
      </trkpt>
      <trkpt lat="48.0813" lon="6.82114">
        <ele>881.19</ele>
        <time>2018-08-22T08:27:29Z</time>
      </trkpt>
      <trkpt lat="48.08114" lon="6.8213">
        <ele>880.22</ele>
        <time>2018-08-22T08:27:45Z</time>
      </trkpt>
      <trkpt lat="48.08107" lon="6.82154">
        <ele>879.26</ele>
        <time>2018-08-22T08:27:59Z</time>
      </trkpt>
      <trkpt lat="48.08097" lon="6.82176">
        <ele>879.26</ele>
        <time>2018-08-22T08:28:16Z</time>
      </trkpt>
      <trkpt lat="48.08096" lon="6.82188">
        <ele>879.26</ele>
        <time>2018-08-22T08:28:24Z</time>
      </trkpt>
      <trkpt lat="48.08093" lon="6.82224">
        <ele>879.74</ele>
        <time>2018-08-22T08:28:41Z</time>
      </trkpt>
      <trkpt lat="48.08093" lon="6.82255">
        <ele>879.74</ele>
        <time>2018-08-22T08:28:58Z</time>
      </trkpt>
      <trkpt lat="48.08098" lon="6.8227">
        <ele>881.19</ele>
        <time>2018-08-22T08:29:08Z</time>
      </trkpt>
      <trkpt lat="48.08098" lon="6.82272">
        <ele>881.19</ele>
        <time>2018-08-22T08:29:09Z</time>
      </trkpt>
      <trkpt lat="48.08102" lon="6.8228">
        <ele>881.67</ele>
        <time>2018-08-22T08:29:14Z</time>
      </trkpt>
      <trkpt lat="48.08103" lon="6.82284">
        <ele>881.67</ele>
        <time>2018-08-22T08:29:17Z</time>
      </trkpt>
      <trkpt lat="48.08105" lon="6.82296">
        <ele>882.15</ele>
        <time>2018-08-22T08:29:24Z</time>
      </trkpt>
      <trkpt lat="48.08112" lon="6.82324">
        <ele>883.11</ele>
        <time>2018-08-22T08:29:39Z</time>
      </trkpt>
      <trkpt lat="48.08112" lon="6.82327">
        <ele>883.11</ele>
        <time>2018-08-22T08:29:42Z</time>
      </trkpt>
      <trkpt lat="48.08117" lon="6.82357">
        <ele>883.11</ele>
        <time>2018-08-22T08:29:59Z</time>
      </trkpt>
      <trkpt lat="48.0812" lon="6.8238">
        <ele>882.15</ele>
        <time>2018-08-22T08:30:12Z</time>
      </trkpt>
      <trkpt lat="48.08123" lon="6.82404">
        <ele>881.19</ele>
        <time>2018-08-22T08:30:26Z</time>
      </trkpt>
      <trkpt lat="48.08125" lon="6.82422">
        <ele>881.67</ele>
        <time>2018-08-22T08:30:37Z</time>
      </trkpt>
      <trkpt lat="48.08126" lon="6.82429">
        <ele>881.67</ele>
        <time>2018-08-22T08:30:42Z</time>
      </trkpt>
      <trkpt lat="48.08132" lon="6.82455">
        <ele>882.15</ele>
        <time>2018-08-22T08:30:57Z</time>
      </trkpt>
      <trkpt lat="48.08135" lon="6.82477">
        <ele>882.63</ele>
        <time>2018-08-22T08:31:10Z</time>
      </trkpt>
      <trkpt lat="48.08136" lon="6.82486">
        <ele>883.11</ele>
        <time>2018-08-22T08:31:15Z</time>
      </trkpt>
      <trkpt lat="48.08139" lon="6.82497">
        <ele>883.11</ele>
        <time>2018-08-22T08:31:21Z</time>
      </trkpt>
      <trkpt lat="48.08146" lon="6.82523">
        <ele>884.55</ele>
        <time>2018-08-22T08:31:36Z</time>
      </trkpt>
      <trkpt lat="48.08149" lon="6.82534">
        <ele>884.55</ele>
        <time>2018-08-22T08:31:47Z</time>
      </trkpt>
      <trkpt lat="48.08149" lon="6.82557">
        <ele>885.51</ele>
        <time>2018-08-22T08:32:02Z</time>
      </trkpt>
      <trkpt lat="48.08149" lon="6.82558">
        <ele>885.51</ele>
        <time>2018-08-22T08:32:03Z</time>
      </trkpt>
      <trkpt lat="48.08149" lon="6.82572">
        <ele>886.47</ele>
        <time>2018-08-22T08:32:14Z</time>
      </trkpt>
      <trkpt lat="48.08147" lon="6.82594">
        <ele>886.95</ele>
        <time>2018-08-22T08:32:27Z</time>
      </trkpt>
      <trkpt lat="48.08148" lon="6.82608">
        <ele>886.47</ele>
        <time>2018-08-22T08:32:33Z</time>
      </trkpt>
      <trkpt lat="48.08147" lon="6.8262">
        <ele>887.43</ele>
        <time>2018-08-22T08:32:38Z</time>
      </trkpt>
      <trkpt lat="48.08141" lon="6.82641">
        <ele>888.4</ele>
        <time>2018-08-22T08:32:52Z</time>
      </trkpt>
      <trkpt lat="48.08138" lon="6.82654">
        <ele>888.88</ele>
        <time>2018-08-22T08:32:59Z</time>
      </trkpt>
      <trkpt lat="48.08139" lon="6.82672">
        <ele>889.84</ele>
        <time>2018-08-22T08:33:09Z</time>
      </trkpt>
      <trkpt lat="48.08135" lon="6.82681">
        <ele>889.84</ele>
        <time>2018-08-22T08:33:17Z</time>
      </trkpt>
      <trkpt lat="48.08132" lon="6.82687">
        <ele>890.8</ele>
        <time>2018-08-22T08:33:22Z</time>
      </trkpt>
      <trkpt lat="48.08129" lon="6.82716">
        <ele>892.24</ele>
        <time>2018-08-22T08:33:41Z</time>
      </trkpt>
      <trkpt lat="48.0813" lon="6.82735">
        <ele>892.72</ele>
        <time>2018-08-22T08:33:51Z</time>
      </trkpt>
      <trkpt lat="48.08131" lon="6.82739">
        <ele>892.72</ele>
        <time>2018-08-22T08:33:53Z</time>
      </trkpt>
      <trkpt lat="48.08133" lon="6.82756">
        <ele>893.2</ele>
        <time>2018-08-22T08:34:00Z</time>
      </trkpt>
      <trkpt lat="48.08135" lon="6.82788">
        <ele>893.68</ele>
        <time>2018-08-22T08:34:14Z</time>
      </trkpt>
      <trkpt lat="48.08136" lon="6.82808">
        <ele>894.16</ele>
        <time>2018-08-22T08:34:24Z</time>
      </trkpt>
      <trkpt lat="48.08136" lon="6.82812">
        <ele>894.16</ele>
        <time>2018-08-22T08:34:26Z</time>
      </trkpt>
      <trkpt lat="48.08138" lon="6.82834">
        <ele>894.16</ele>
        <time>2018-08-22T08:34:38Z</time>
      </trkpt>
      <trkpt lat="48.0814" lon="6.82845">
        <ele>894.16</ele>
        <time>2018-08-22T08:34:44Z</time>
      </trkpt>
      <trkpt lat="48.08144" lon="6.82873">
        <ele>893.2</ele>
        <time>2018-08-22T08:35:00Z</time>
      </trkpt>
      <trkpt lat="48.08147" lon="6.82881">
        <ele>894.64</ele>
        <time>2018-08-22T08:35:05Z</time>
      </trkpt>
      <trkpt lat="48.08147" lon="6.82888">
        <ele>893.2</ele>
        <time>2018-08-22T08:35:09Z</time>
      </trkpt>
      <trkpt lat="48.08148" lon="6.82895">
        <ele>893.2</ele>
        <time>2018-08-22T08:35:14Z</time>
      </trkpt>
      <trkpt lat="48.08149" lon="6.82905">
        <ele>894.64</ele>
        <time>2018-08-22T08:35:22Z</time>
      </trkpt>
      <trkpt lat="48.08149" lon="6.82909">
        <ele>894.64</ele>
        <time>2018-08-22T08:35:25Z</time>
      </trkpt>
      <trkpt lat="48.08149" lon="6.82915">
        <ele>893.2</ele>
        <time>2018-08-22T08:35:29Z</time>
      </trkpt>
      <trkpt lat="48.0815" lon="6.82931">
        <ele>893.2</ele>
        <time>2018-08-22T08:35:42Z</time>
      </trkpt>
      <trkpt lat="48.08149" lon="6.82935">
        <ele>894.64</ele>
        <time>2018-08-22T08:35:44Z</time>
      </trkpt>
      <trkpt lat="48.08147" lon="6.82947">
        <ele>894.64</ele>
        <time>2018-08-22T08:35:51Z</time>
      </trkpt>
      <trkpt lat="48.08142" lon="6.8297">
        <ele>895.12</ele>
        <time>2018-08-22T08:36:05Z</time>
      </trkpt>
      <trkpt lat="48.08142" lon="6.82972">
        <ele>895.12</ele>
        <time>2018-08-22T08:36:06Z</time>
      </trkpt>
      <trkpt lat="48.0814" lon="6.82985">
        <ele>895.12</ele>
        <time>2018-08-22T08:36:12Z</time>
      </trkpt>
      <trkpt lat="48.08138" lon="6.82996">
        <ele>895.61</ele>
        <time>2018-08-22T08:36:18Z</time>
      </trkpt>
      <trkpt lat="48.08139" lon="6.8301">
        <ele>894.64</ele>
        <time>2018-08-22T08:36:27Z</time>
      </trkpt>
      <trkpt lat="48.08137" lon="6.83037">
        <ele>895.12</ele>
        <time>2018-08-22T08:36:41Z</time>
      </trkpt>
      <trkpt lat="48.08138" lon="6.83047">
        <ele>895.61</ele>
        <time>2018-08-22T08:36:48Z</time>
      </trkpt>
      <trkpt lat="48.08139" lon="6.83052">
        <ele>894.64</ele>
        <time>2018-08-22T08:36:50Z</time>
      </trkpt>
      <trkpt lat="48.08142" lon="6.83079">
        <ele>895.12</ele>
        <time>2018-08-22T08:37:07Z</time>
      </trkpt>
      <trkpt lat="48.08141" lon="6.83083">
        <ele>895.12</ele>
        <time>2018-08-22T08:37:09Z</time>
      </trkpt>
      <trkpt lat="48.0814" lon="6.83109">
        <ele>894.16</ele>
        <time>2018-08-22T08:37:25Z</time>
      </trkpt>
      <trkpt lat="48.0814" lon="6.83143">
        <ele>895.61</ele>
        <time>2018-08-22T08:37:43Z</time>
      </trkpt>
      <trkpt lat="48.0814" lon="6.83146">
        <ele>894.16</ele>
        <time>2018-08-22T08:37:45Z</time>
      </trkpt>
      <trkpt lat="48.0814" lon="6.83177">
        <ele>894.16</ele>
        <time>2018-08-22T08:38:00Z</time>
      </trkpt>
      <trkpt lat="48.08141" lon="6.83194">
        <ele>895.12</ele>
        <time>2018-08-22T08:38:09Z</time>
      </trkpt>
      <trkpt lat="48.0815" lon="6.83226">
        <ele>894.16</ele>
        <time>2018-08-22T08:38:27Z</time>
      </trkpt>
      <trkpt lat="48.08154" lon="6.83252">
        <ele>894.16</ele>
        <time>2018-08-22T08:38:45Z</time>
      </trkpt>
      <trkpt lat="48.0815" lon="6.83276">
        <ele>896.09</ele>
        <time>2018-08-22T08:39:02Z</time>
      </trkpt>
      <trkpt lat="48.08149" lon="6.83277">
        <ele>896.09</ele>
        <time>2018-08-22T08:39:03Z</time>
      </trkpt>
      <trkpt lat="48.08136" lon="6.8329">
        <ele>897.05</ele>
        <time>2018-08-22T08:39:17Z</time>
      </trkpt>
      <trkpt lat="48.08124" lon="6.83306">
        <ele>897.53</ele>
        <time>2018-08-22T08:39:30Z</time>
      </trkpt>
      <trkpt lat="48.08115" lon="6.83317">
        <ele>898.01</ele>
        <time>2018-08-22T08:39:41Z</time>
      </trkpt>
      <trkpt lat="48.0811" lon="6.83336">
        <ele>899.45</ele>
        <time>2018-08-22T08:39:56Z</time>
      </trkpt>
      <trkpt lat="48.08112" lon="6.83343">
        <ele>899.93</ele>
        <time>2018-08-22T08:40:16Z</time>
      </trkpt>
      <trkpt lat="48.08113" lon="6.83342">
        <ele>899.45</ele>
        <time>2018-08-22T08:40:34Z</time>
      </trkpt>
      <trkpt lat="48.08112" lon="6.83352">
        <ele>899.45</ele>
        <time>2018-08-22T08:40:55Z</time>
      </trkpt>
      <trkpt lat="48.08116" lon="6.83354">
        <ele>899.45</ele>
        <time>2018-08-22T08:41:21Z</time>
      </trkpt>
      <trkpt lat="48.08115" lon="6.83348">
        <ele>899.93</ele>
        <time>2018-08-22T08:41:51Z</time>
      </trkpt>
      <trkpt lat="48.08108" lon="6.8335">
        <ele>900.41</ele>
        <time>2018-08-22T08:42:12Z</time>
      </trkpt>
      <trkpt lat="48.08104" lon="6.8335">
        <ele>900.89</ele>
        <time>2018-08-22T08:42:44Z</time>
      </trkpt>
      <trkpt lat="48.08111" lon="6.83354">
        <ele>901.37</ele>
        <time>2018-08-22T08:43:06Z</time>
      </trkpt>
      <trkpt lat="48.08112" lon="6.83353">
        <ele>901.85</ele>
        <time>2018-08-22T08:43:34Z</time>
      </trkpt>
      <trkpt lat="48.08099" lon="6.83363">
        <ele>902.33</ele>
        <time>2018-08-22T08:44:02Z</time>
      </trkpt>
      <trkpt lat="48.08105" lon="6.83348">
        <ele>902.82</ele>
        <time>2018-08-22T08:44:30Z</time>
      </trkpt>
      <trkpt lat="48.08114" lon="6.83361">
        <ele>903.3</ele>
        <time>2018-08-22T08:45:05Z</time>
      </trkpt>
      <trkpt lat="48.08114" lon="6.83372">
        <ele>903.3</ele>
        <time>2018-08-22T08:45:25Z</time>
      </trkpt>
      <trkpt lat="48.08113" lon="6.83384">
        <ele>903.78</ele>
        <time>2018-08-22T08:45:34Z</time>
      </trkpt>
      <trkpt lat="48.08113" lon="6.83388">
        <ele>905.22</ele>
        <time>2018-08-22T08:45:36Z</time>
      </trkpt>
      <trkpt lat="48.0812" lon="6.83405">
        <ele>905.7</ele>
        <time>2018-08-22T08:45:51Z</time>
      </trkpt>
      <trkpt lat="48.08123" lon="6.83426">
        <ele>904.74</ele>
        <time>2018-08-22T08:46:06Z</time>
      </trkpt>
      <trkpt lat="48.08125" lon="6.83431">
        <ele>906.18</ele>
        <time>2018-08-22T08:46:11Z</time>
      </trkpt>
      <trkpt lat="48.0813" lon="6.8344">
        <ele>904.26</ele>
        <time>2018-08-22T08:46:16Z</time>
      </trkpt>
      <trkpt lat="48.08131" lon="6.83443">
        <ele>905.7</ele>
        <time>2018-08-22T08:46:18Z</time>
      </trkpt>
      <trkpt lat="48.08134" lon="6.83468">
        <ele>904.74</ele>
        <time>2018-08-22T08:46:32Z</time>
      </trkpt>
      <trkpt lat="48.08135" lon="6.83472">
        <ele>904.74</ele>
        <time>2018-08-22T08:46:34Z</time>
      </trkpt>
      <trkpt lat="48.08137" lon="6.83485">
        <ele>905.7</ele>
        <time>2018-08-22T08:46:41Z</time>
      </trkpt>
      <trkpt lat="48.08142" lon="6.83492">
        <ele>904.74</ele>
        <time>2018-08-22T08:46:45Z</time>
      </trkpt>
      <trkpt lat="48.08143" lon="6.83511">
        <ele>904.26</ele>
        <time>2018-08-22T08:46:56Z</time>
      </trkpt>
      <trkpt lat="48.08142" lon="6.83513">
        <ele>905.7</ele>
        <time>2018-08-22T08:46:58Z</time>
      </trkpt>
      <trkpt lat="48.08143" lon="6.83521">
        <ele>904.74</ele>
        <time>2018-08-22T08:47:03Z</time>
      </trkpt>
      <trkpt lat="48.08141" lon="6.83533">
        <ele>905.7</ele>
        <time>2018-08-22T08:47:12Z</time>
      </trkpt>
      <trkpt lat="48.08138" lon="6.83549">
        <ele>904.26</ele>
        <time>2018-08-22T08:47:23Z</time>
      </trkpt>
      <trkpt lat="48.08135" lon="6.83574">
        <ele>906.18</ele>
        <time>2018-08-22T08:47:39Z</time>
      </trkpt>
      <trkpt lat="48.08131" lon="6.83599">
        <ele>905.22</ele>
        <time>2018-08-22T08:47:55Z</time>
      </trkpt>
      <trkpt lat="48.08126" lon="6.83611">
        <ele>906.66</ele>
        <time>2018-08-22T08:48:04Z</time>
      </trkpt>
      <trkpt lat="48.08116" lon="6.83634">
        <ele>906.66</ele>
        <time>2018-08-22T08:48:22Z</time>
      </trkpt>
      <trkpt lat="48.08108" lon="6.83651">
        <ele>905.22</ele>
        <time>2018-08-22T08:48:32Z</time>
      </trkpt>
      <trkpt lat="48.08106" lon="6.83654">
        <ele>906.66</ele>
        <time>2018-08-22T08:48:34Z</time>
      </trkpt>
      <trkpt lat="48.08095" lon="6.83681">
        <ele>905.7</ele>
        <time>2018-08-22T08:48:51Z</time>
      </trkpt>
      <trkpt lat="48.08089" lon="6.83695">
        <ele>905.7</ele>
        <time>2018-08-22T08:49:01Z</time>
      </trkpt>
      <trkpt lat="48.08086" lon="6.83705">
        <ele>907.14</ele>
        <time>2018-08-22T08:49:07Z</time>
      </trkpt>
      <trkpt lat="48.08086" lon="6.83706">
        <ele>907.14</ele>
        <time>2018-08-22T08:49:08Z</time>
      </trkpt>
      <trkpt lat="48.0808" lon="6.83731">
        <ele>907.14</ele>
        <time>2018-08-22T08:49:26Z</time>
      </trkpt>
      <trkpt lat="48.08073" lon="6.83759">
        <ele>907.14</ele>
        <time>2018-08-22T08:49:41Z</time>
      </trkpt>
      <trkpt lat="48.08065" lon="6.83787">
        <ele>907.14</ele>
        <time>2018-08-22T08:49:59Z</time>
      </trkpt>
      <trkpt lat="48.08057" lon="6.83806">
        <ele>905.7</ele>
        <time>2018-08-22T08:50:10Z</time>
      </trkpt>
      <trkpt lat="48.08053" lon="6.83816">
        <ele>904.74</ele>
        <time>2018-08-22T08:50:15Z</time>
      </trkpt>
      <trkpt lat="48.08041" lon="6.83841">
        <ele>904.74</ele>
        <time>2018-08-22T08:50:30Z</time>
      </trkpt>
      <trkpt lat="48.08026" lon="6.83858">
        <ele>902.33</ele>
        <time>2018-08-22T08:50:46Z</time>
      </trkpt>
      <trkpt lat="48.08012" lon="6.8389">
        <ele>900.89</ele>
        <time>2018-08-22T08:51:03Z</time>
      </trkpt>
      <trkpt lat="48.07995" lon="6.83918">
        <ele>899.93</ele>
        <time>2018-08-22T08:51:21Z</time>
      </trkpt>
      <trkpt lat="48.07986" lon="6.83938">
        <ele>898.97</ele>
        <time>2018-08-22T08:51:36Z</time>
      </trkpt>
      <trkpt lat="48.07979" lon="6.83967">
        <ele>898.97</ele>
        <time>2018-08-22T08:51:54Z</time>
      </trkpt>
      <trkpt lat="48.07962" lon="6.83994">
        <ele>898.49</ele>
        <time>2018-08-22T08:52:09Z</time>
      </trkpt>
      <trkpt lat="48.07949" lon="6.84009">
        <ele>897.05</ele>
        <time>2018-08-22T08:52:23Z</time>
      </trkpt>
      <trkpt lat="48.07945" lon="6.84014">
        <ele>896.57</ele>
        <time>2018-08-22T08:52:28Z</time>
      </trkpt>
      <trkpt lat="48.0794" lon="6.8402">
        <ele>895.61</ele>
        <time>2018-08-22T08:52:44Z</time>
      </trkpt>
      <trkpt lat="48.07937" lon="6.84025">
        <ele>895.12</ele>
        <time>2018-08-22T08:53:02Z</time>
      </trkpt>
      <trkpt lat="48.07934" lon="6.84029">
        <ele>894.64</ele>
        <time>2018-08-22T08:53:06Z</time>
      </trkpt>
      <trkpt lat="48.07927" lon="6.84049">
        <ele>894.16</ele>
        <time>2018-08-22T08:53:18Z</time>
      </trkpt>
      <trkpt lat="48.0792" lon="6.84067">
        <ele>893.68</ele>
        <time>2018-08-22T08:53:30Z</time>
      </trkpt>
      <trkpt lat="48.07914" lon="6.84084">
        <ele>893.2</ele>
        <time>2018-08-22T08:53:41Z</time>
      </trkpt>
      <trkpt lat="48.07909" lon="6.84099">
        <ele>892.72</ele>
        <time>2018-08-22T08:53:53Z</time>
      </trkpt>
      <trkpt lat="48.07907" lon="6.84107">
        <ele>892.24</ele>
        <time>2018-08-22T08:53:59Z</time>
      </trkpt>
      <trkpt lat="48.07903" lon="6.84129">
        <ele>892.24</ele>
        <time>2018-08-22T08:54:13Z</time>
      </trkpt>
      <trkpt lat="48.07903" lon="6.8413">
        <ele>892.24</ele>
        <time>2018-08-22T08:54:14Z</time>
      </trkpt>
      <trkpt lat="48.07897" lon="6.84144">
        <ele>894.16</ele>
        <time>2018-08-22T08:54:26Z</time>
      </trkpt>
      <trkpt lat="48.07888" lon="6.84157">
        <ele>894.64</ele>
        <time>2018-08-22T08:54:36Z</time>
      </trkpt>
      <trkpt lat="48.07884" lon="6.84161">
        <ele>894.64</ele>
        <time>2018-08-22T08:54:40Z</time>
      </trkpt>
      <trkpt lat="48.07874" lon="6.84178">
        <ele>895.61</ele>
        <time>2018-08-22T08:54:53Z</time>
      </trkpt>
      <trkpt lat="48.07872" lon="6.84181">
        <ele>895.61</ele>
        <time>2018-08-22T08:54:56Z</time>
      </trkpt>
      <trkpt lat="48.07858" lon="6.84193">
        <ele>896.09</ele>
        <time>2018-08-22T08:55:10Z</time>
      </trkpt>
      <trkpt lat="48.07844" lon="6.84207">
        <ele>896.57</ele>
        <time>2018-08-22T08:55:26Z</time>
      </trkpt>
      <trkpt lat="48.07837" lon="6.84215">
        <ele>896.57</ele>
        <time>2018-08-22T08:55:33Z</time>
      </trkpt>
      <trkpt lat="48.07818" lon="6.84223">
        <ele>897.05</ele>
        <time>2018-08-22T08:55:49Z</time>
      </trkpt>
      <trkpt lat="48.0781" lon="6.8422">
        <ele>897.05</ele>
        <time>2018-08-22T08:56:00Z</time>
      </trkpt>
      <trkpt lat="48.07806" lon="6.84216">
        <ele>897.05</ele>
        <time>2018-08-22T08:56:06Z</time>
      </trkpt>
      <trkpt lat="48.07802" lon="6.84202">
        <ele>895.61</ele>
        <time>2018-08-22T08:56:19Z</time>
      </trkpt>
      <trkpt lat="48.07796" lon="6.84194">
        <ele>895.61</ele>
        <time>2018-08-22T08:56:28Z</time>
      </trkpt>
      <trkpt lat="48.07784" lon="6.84195">
        <ele>895.61</ele>
        <time>2018-08-22T08:56:42Z</time>
      </trkpt>
      <trkpt lat="48.07773" lon="6.84199">
        <ele>895.12</ele>
        <time>2018-08-22T08:56:56Z</time>
      </trkpt>
      <trkpt lat="48.07769" lon="6.84194">
        <ele>895.61</ele>
        <time>2018-08-22T08:57:07Z</time>
      </trkpt>
      <trkpt lat="48.07769" lon="6.84194">
        <ele>895.61</ele>
        <time>2018-08-22T08:57:08Z</time>
      </trkpt>
      <trkpt lat="48.07769" lon="6.84191">
        <ele>894.64</ele>
        <time>2018-08-22T08:57:19Z</time>
      </trkpt>
      <trkpt lat="48.07766" lon="6.84192">
        <ele>894.64</ele>
        <time>2018-08-22T08:57:34Z</time>
      </trkpt>
      <trkpt lat="48.07766" lon="6.84188">
        <ele>894.64</ele>
        <time>2018-08-22T08:57:49Z</time>
      </trkpt>
      <trkpt lat="48.07762" lon="6.84187">
        <ele>894.64</ele>
        <time>2018-08-22T08:58:11Z</time>
      </trkpt>
      <trkpt lat="48.07762" lon="6.8419">
        <ele>894.16</ele>
        <time>2018-08-22T08:58:36Z</time>
      </trkpt>
      <trkpt lat="48.07763" lon="6.84189">
        <ele>894.16</ele>
        <time>2018-08-22T08:58:50Z</time>
      </trkpt>
      <trkpt lat="48.07761" lon="6.8419">
        <ele>895.61</ele>
        <time>2018-08-22T08:59:18Z</time>
      </trkpt>
      <trkpt lat="48.07764" lon="6.84195">
        <ele>895.61</ele>
        <time>2018-08-22T08:59:39Z</time>
      </trkpt>
      <trkpt lat="48.07767" lon="6.84191">
        <ele>895.61</ele>
        <time>2018-08-22T08:59:57Z</time>
      </trkpt>
      <trkpt lat="48.07765" lon="6.84192">
        <ele>895.61</ele>
        <time>2018-08-22T09:00:25Z</time>
      </trkpt>
      <trkpt lat="48.07765" lon="6.84196">
        <ele>895.61</ele>
        <time>2018-08-22T09:00:40Z</time>
      </trkpt>
      <trkpt lat="48.07764" lon="6.84199">
        <ele>896.57</ele>
        <time>2018-08-22T09:00:54Z</time>
      </trkpt>
      <trkpt lat="48.07764" lon="6.842">
        <ele>896.57</ele>
        <time>2018-08-22T09:01:08Z</time>
      </trkpt>
      <trkpt lat="48.07767" lon="6.84201">
        <ele>896.57</ele>
        <time>2018-08-22T09:01:29Z</time>
      </trkpt>
      <trkpt lat="48.07768" lon="6.84202">
        <ele>896.57</ele>
        <time>2018-08-22T09:01:53Z</time>
      </trkpt>
      <trkpt lat="48.07768" lon="6.84202">
        <ele>896.57</ele>
        <time>2018-08-22T09:02:19Z</time>
      </trkpt>
      <trkpt lat="48.07766" lon="6.842">
        <ele>896.57</ele>
        <time>2018-08-22T09:02:45Z</time>
      </trkpt>
      <trkpt lat="48.07766" lon="6.84199">
        <ele>896.57</ele>
        <time>2018-08-22T09:03:17Z</time>
      </trkpt>
      <trkpt lat="48.07766" lon="6.84197">
        <ele>895.12</ele>
        <time>2018-08-22T09:03:34Z</time>
      </trkpt>
      <trkpt lat="48.07766" lon="6.84199">
        <ele>895.61</ele>
        <time>2018-08-22T09:03:58Z</time>
      </trkpt>
      <trkpt lat="48.07767" lon="6.84202">
        <ele>895.61</ele>
        <time>2018-08-22T09:04:32Z</time>
      </trkpt>
      <trkpt lat="48.07766" lon="6.84202">
        <ele>895.61</ele>
        <time>2018-08-22T09:04:56Z</time>
      </trkpt>
      <trkpt lat="48.07768" lon="6.84201">
        <ele>895.61</ele>
        <time>2018-08-22T09:05:23Z</time>
      </trkpt>
      <trkpt lat="48.0777" lon="6.84202">
        <ele>895.61</ele>
        <time>2018-08-22T09:05:53Z</time>
      </trkpt>
      <trkpt lat="48.07768" lon="6.84205">
        <ele>897.05</ele>
        <time>2018-08-22T09:06:10Z</time>
      </trkpt>
      <trkpt lat="48.07768" lon="6.84199">
        <ele>897.53</ele>
        <time>2018-08-22T09:06:14Z</time>
      </trkpt>
      <trkpt lat="48.07767" lon="6.84196">
        <ele>896.09</ele>
        <time>2018-08-22T09:06:25Z</time>
      </trkpt>
      <trkpt lat="48.07765" lon="6.84201">
        <ele>898.49</ele>
        <time>2018-08-22T09:06:37Z</time>
      </trkpt>
      <trkpt lat="48.07763" lon="6.842">
        <ele>896.09</ele>
        <time>2018-08-22T09:06:39Z</time>
      </trkpt>
      <trkpt lat="48.07761" lon="6.84211">
        <ele>894.64</ele>
        <time>2018-08-22T09:06:51Z</time>
      </trkpt>
      <trkpt lat="48.07758" lon="6.84217">
        <ele>893.68</ele>
        <time>2018-08-22T09:07:01Z</time>
      </trkpt>
      <trkpt lat="48.07759" lon="6.84225">
        <ele>894.16</ele>
        <time>2018-08-22T09:07:08Z</time>
      </trkpt>
      <trkpt lat="48.07759" lon="6.84228">
        <ele>894.64</ele>
        <time>2018-08-22T09:07:10Z</time>
      </trkpt>
      <trkpt lat="48.07764" lon="6.84243">
        <ele>898.01</ele>
        <time>2018-08-22T09:07:22Z</time>
      </trkpt>
      <trkpt lat="48.07764" lon="6.84244">
        <ele>898.01</ele>
        <time>2018-08-22T09:07:23Z</time>
      </trkpt>
      <trkpt lat="48.07775" lon="6.84258">
        <ele>899.93</ele>
        <time>2018-08-22T09:07:34Z</time>
      </trkpt>
      <trkpt lat="48.07773" lon="6.84275">
        <ele>899.93</ele>
        <time>2018-08-22T09:07:48Z</time>
      </trkpt>
      <trkpt lat="48.07772" lon="6.84275">
        <ele>899.93</ele>
        <time>2018-08-22T09:07:49Z</time>
      </trkpt>
      <trkpt lat="48.07769" lon="6.84277">
        <ele>898.49</ele>
        <time>2018-08-22T09:07:55Z</time>
      </trkpt>
      <trkpt lat="48.07762" lon="6.84285">
        <ele>895.61</ele>
        <time>2018-08-22T09:08:09Z</time>
      </trkpt>
      <trkpt lat="48.07748" lon="6.84298">
        <ele>895.61</ele>
        <time>2018-08-22T09:08:26Z</time>
      </trkpt>
      <trkpt lat="48.07739" lon="6.8431">
        <ele>894.16</ele>
        <time>2018-08-22T09:08:37Z</time>
      </trkpt>
      <trkpt lat="48.07737" lon="6.84312">
        <ele>892.24</ele>
        <time>2018-08-22T09:08:39Z</time>
      </trkpt>
      <trkpt lat="48.0773" lon="6.84324">
        <ele>890.8</ele>
        <time>2018-08-22T09:08:50Z</time>
      </trkpt>
      <trkpt lat="48.07723" lon="6.8434">
        <ele>886.95</ele>
        <time>2018-08-22T09:09:03Z</time>
      </trkpt>
      <trkpt lat="48.07722" lon="6.84342">
        <ele>886.95</ele>
        <time>2018-08-22T09:09:04Z</time>
      </trkpt>
      <trkpt lat="48.07718" lon="6.84351">
        <ele>885.03</ele>
        <time>2018-08-22T09:09:10Z</time>
      </trkpt>
      <trkpt lat="48.07714" lon="6.84362">
        <ele>882.15</ele>
        <time>2018-08-22T09:09:21Z</time>
      </trkpt>
      <trkpt lat="48.0771" lon="6.84375">
        <ele>880.71</ele>
        <time>2018-08-22T09:09:29Z</time>
      </trkpt>
      <trkpt lat="48.07706" lon="6.84387">
        <ele>880.22</ele>
        <time>2018-08-22T09:09:34Z</time>
      </trkpt>
      <trkpt lat="48.07706" lon="6.844">
        <ele>877.34</ele>
        <time>2018-08-22T09:09:43Z</time>
      </trkpt>
      <trkpt lat="48.07704" lon="6.84415">
        <ele>876.38</ele>
        <time>2018-08-22T09:09:51Z</time>
      </trkpt>
      <trkpt lat="48.07702" lon="6.84442">
        <ele>874.46</ele>
        <time>2018-08-22T09:10:08Z</time>
      </trkpt>
      <trkpt lat="48.07699" lon="6.84459">
        <ele>872.05</ele>
        <time>2018-08-22T09:10:17Z</time>
      </trkpt>
      <trkpt lat="48.07697" lon="6.84478">
        <ele>871.09</ele>
        <time>2018-08-22T09:10:27Z</time>
      </trkpt>
      <trkpt lat="48.07695" lon="6.84482">
        <ele>869.65</ele>
        <time>2018-08-22T09:10:32Z</time>
      </trkpt>
      <trkpt lat="48.07688" lon="6.84506">
        <ele>866.77</ele>
        <time>2018-08-22T09:10:45Z</time>
      </trkpt>
      <trkpt lat="48.07685" lon="6.84522">
        <ele>862.92</ele>
        <time>2018-08-22T09:10:59Z</time>
      </trkpt>
      <trkpt lat="48.07685" lon="6.84524">
        <ele>862.44</ele>
        <time>2018-08-22T09:11:01Z</time>
      </trkpt>
      <trkpt lat="48.0768" lon="6.84552">
        <ele>859.08</ele>
        <time>2018-08-22T09:11:17Z</time>
      </trkpt>
      <trkpt lat="48.07676" lon="6.84574">
        <ele>855.71</ele>
        <time>2018-08-22T09:11:31Z</time>
      </trkpt>
      <trkpt lat="48.07675" lon="6.84577">
        <ele>855.23</ele>
        <time>2018-08-22T09:11:33Z</time>
      </trkpt>
      <trkpt lat="48.07667" lon="6.84607">
        <ele>851.38</ele>
        <time>2018-08-22T09:11:49Z</time>
      </trkpt>
      <trkpt lat="48.07663" lon="6.84628">
        <ele>848.02</ele>
        <time>2018-08-22T09:12:04Z</time>
      </trkpt>
      <trkpt lat="48.07659" lon="6.84648">
        <ele>845.14</ele>
        <time>2018-08-22T09:12:19Z</time>
      </trkpt>
      <trkpt lat="48.07653" lon="6.8467">
        <ele>842.73</ele>
        <time>2018-08-22T09:12:36Z</time>
      </trkpt>
      <trkpt lat="48.0765" lon="6.84701">
        <ele>839.85</ele>
        <time>2018-08-22T09:12:55Z</time>
      </trkpt>
      <trkpt lat="48.0765" lon="6.84702">
        <ele>839.37</ele>
        <time>2018-08-22T09:12:56Z</time>
      </trkpt>
      <trkpt lat="48.07647" lon="6.84729">
        <ele>836.48</ele>
        <time>2018-08-22T09:13:12Z</time>
      </trkpt>
      <trkpt lat="48.07645" lon="6.84739">
        <ele>836</ele>
        <time>2018-08-22T09:13:19Z</time>
      </trkpt>
      <trkpt lat="48.07645" lon="6.84742">
        <ele>835.52</ele>
        <time>2018-08-22T09:13:21Z</time>
      </trkpt>
      <trkpt lat="48.07644" lon="6.84751">
        <ele>834.56</ele>
        <time>2018-08-22T09:13:27Z</time>
      </trkpt>
      <trkpt lat="48.0764" lon="6.84783">
        <ele>832.64</ele>
        <time>2018-08-22T09:13:45Z</time>
      </trkpt>
      <trkpt lat="48.07638" lon="6.84797">
        <ele>832.16</ele>
        <time>2018-08-22T09:13:54Z</time>
      </trkpt>
      <trkpt lat="48.07638" lon="6.84809">
        <ele>830.24</ele>
        <time>2018-08-22T09:14:02Z</time>
      </trkpt>
      <trkpt lat="48.07634" lon="6.84829">
        <ele>828.79</ele>
        <time>2018-08-22T09:14:15Z</time>
      </trkpt>
      <trkpt lat="48.07632" lon="6.84839">
        <ele>826.87</ele>
        <time>2018-08-22T09:14:22Z</time>
      </trkpt>
      <trkpt lat="48.07626" lon="6.84864">
        <ele>824.47</ele>
        <time>2018-08-22T09:14:38Z</time>
      </trkpt>
      <trkpt lat="48.07626" lon="6.84866">
        <ele>824.47</ele>
        <time>2018-08-22T09:14:39Z</time>
      </trkpt>
      <trkpt lat="48.07624" lon="6.84889">
        <ele>821.58</ele>
        <time>2018-08-22T09:14:56Z</time>
      </trkpt>
      <trkpt lat="48.07621" lon="6.84902">
        <ele>819.18</ele>
        <time>2018-08-22T09:15:05Z</time>
      </trkpt>
      <trkpt lat="48.0762" lon="6.84905">
        <ele>820.14</ele>
        <time>2018-08-22T09:15:07Z</time>
      </trkpt>
      <trkpt lat="48.07616" lon="6.84909">
        <ele>819.18</ele>
        <time>2018-08-22T09:15:10Z</time>
      </trkpt>
      <trkpt lat="48.07613" lon="6.84912">
        <ele>819.18</ele>
        <time>2018-08-22T09:15:13Z</time>
      </trkpt>
      <trkpt lat="48.07609" lon="6.8492">
        <ele>817.74</ele>
        <time>2018-08-22T09:15:21Z</time>
      </trkpt>
      <trkpt lat="48.07603" lon="6.84932">
        <ele>817.26</ele>
        <time>2018-08-22T09:15:32Z</time>
      </trkpt>
      <trkpt lat="48.07602" lon="6.84934">
        <ele>817.26</ele>
        <time>2018-08-22T09:15:34Z</time>
      </trkpt>
      <trkpt lat="48.07601" lon="6.84945">
        <ele>816.3</ele>
        <time>2018-08-22T09:15:48Z</time>
      </trkpt>
      <trkpt lat="48.07604" lon="6.84949">
        <ele>815.82</ele>
        <time>2018-08-22T09:16:11Z</time>
      </trkpt>
      <trkpt lat="48.07607" lon="6.84953">
        <ele>815.82</ele>
        <time>2018-08-22T09:16:37Z</time>
      </trkpt>
      <trkpt lat="48.07605" lon="6.84955">
        <ele>816.3</ele>
        <time>2018-08-22T09:17:10Z</time>
      </trkpt>
      <trkpt lat="48.07605" lon="6.84955">
        <ele>816.3</ele>
        <time>2018-08-22T09:17:28Z</time>
      </trkpt>
      <trkpt lat="48.07603" lon="6.84955">
        <ele>816.3</ele>
        <time>2018-08-22T09:17:51Z</time>
      </trkpt>
      <trkpt lat="48.07604" lon="6.84962">
        <ele>816.3</ele>
        <time>2018-08-22T09:18:08Z</time>
      </trkpt>
      <trkpt lat="48.07603" lon="6.84965">
        <ele>815.82</ele>
        <time>2018-08-22T09:18:11Z</time>
      </trkpt>
      <trkpt lat="48.07594" lon="6.84988">
        <ele>813.89</ele>
        <time>2018-08-22T09:18:27Z</time>
      </trkpt>
      <trkpt lat="48.07594" lon="6.8499">
        <ele>813.89</ele>
        <time>2018-08-22T09:18:28Z</time>
      </trkpt>
      <trkpt lat="48.07591" lon="6.85005">
        <ele>813.41</ele>
        <time>2018-08-22T09:18:37Z</time>
      </trkpt>
      <trkpt lat="48.07586" lon="6.85031">
        <ele>811.49</ele>
        <time>2018-08-22T09:18:53Z</time>
      </trkpt>
      <trkpt lat="48.07584" lon="6.85042">
        <ele>810.53</ele>
        <time>2018-08-22T09:19:02Z</time>
      </trkpt>
      <trkpt lat="48.07575" lon="6.85071">
        <ele>809.09</ele>
        <time>2018-08-22T09:19:22Z</time>
      </trkpt>
      <trkpt lat="48.07568" lon="6.85097">
        <ele>806.68</ele>
        <time>2018-08-22T09:19:35Z</time>
      </trkpt>
      <trkpt lat="48.07559" lon="6.85121">
        <ele>805.72</ele>
        <time>2018-08-22T09:19:51Z</time>
      </trkpt>
      <trkpt lat="48.0755" lon="6.85145">
        <ele>804.28</ele>
        <time>2018-08-22T09:20:06Z</time>
      </trkpt>
      <trkpt lat="48.07546" lon="6.85165">
        <ele>803.32</ele>
        <time>2018-08-22T09:20:18Z</time>
      </trkpt>
      <trkpt lat="48.0754" lon="6.85179">
        <ele>801.4</ele>
        <time>2018-08-22T09:20:28Z</time>
      </trkpt>
      <trkpt lat="48.07539" lon="6.85188">
        <ele>800.92</ele>
        <time>2018-08-22T09:20:34Z</time>
      </trkpt>
      <trkpt lat="48.07539" lon="6.85189">
        <ele>800.92</ele>
        <time>2018-08-22T09:20:35Z</time>
      </trkpt>
      <trkpt lat="48.07538" lon="6.85192">
        <ele>800.92</ele>
        <time>2018-08-22T09:20:37Z</time>
      </trkpt>
      <trkpt lat="48.07537" lon="6.85203">
        <ele>799.95</ele>
        <time>2018-08-22T09:20:42Z</time>
      </trkpt>
      <trkpt lat="48.07534" lon="6.85231">
        <ele>798.51</ele>
        <time>2018-08-22T09:20:59Z</time>
      </trkpt>
      <trkpt lat="48.07532" lon="6.85257">
        <ele>796.11</ele>
        <time>2018-08-22T09:21:15Z</time>
      </trkpt>
      <trkpt lat="48.07531" lon="6.85264">
        <ele>795.63</ele>
        <time>2018-08-22T09:21:18Z</time>
      </trkpt>
      <trkpt lat="48.07529" lon="6.8528">
        <ele>794.67</ele>
        <time>2018-08-22T09:21:28Z</time>
      </trkpt>
      <trkpt lat="48.07535" lon="6.85297">
        <ele>795.63</ele>
        <time>2018-08-22T09:21:39Z</time>
      </trkpt>
      <trkpt lat="48.07536" lon="6.853">
        <ele>794.19</ele>
        <time>2018-08-22T09:21:41Z</time>
      </trkpt>
      <trkpt lat="48.07543" lon="6.85315">
        <ele>797.07</ele>
        <time>2018-08-22T09:21:55Z</time>
      </trkpt>
      <trkpt lat="48.07544" lon="6.85318">
        <ele>799.47</ele>
        <time>2018-08-22T09:21:58Z</time>
      </trkpt>
      <trkpt lat="48.07552" lon="6.85337">
        <ele>800.44</ele>
        <time>2018-08-22T09:22:13Z</time>
      </trkpt>
      <trkpt lat="48.07565" lon="6.85359">
        <ele>801.88</ele>
        <time>2018-08-22T09:22:30Z</time>
      </trkpt>
      <trkpt lat="48.07566" lon="6.8536">
        <ele>803.8</ele>
        <time>2018-08-22T09:22:32Z</time>
      </trkpt>
      <trkpt lat="48.07573" lon="6.8538">
        <ele>804.28</ele>
        <time>2018-08-22T09:22:46Z</time>
      </trkpt>
      <trkpt lat="48.07576" lon="6.85387">
        <ele>806.2</ele>
        <time>2018-08-22T09:22:51Z</time>
      </trkpt>
      <trkpt lat="48.07584" lon="6.85405">
        <ele>808.13</ele>
        <time>2018-08-22T09:23:07Z</time>
      </trkpt>
      <trkpt lat="48.07593" lon="6.8542">
        <ele>809.57</ele>
        <time>2018-08-22T09:23:21Z</time>
      </trkpt>
      <trkpt lat="48.07605" lon="6.85438">
        <ele>810.53</ele>
        <time>2018-08-22T09:23:38Z</time>
      </trkpt>
      <trkpt lat="48.07607" lon="6.85441">
        <ele>811.97</ele>
        <time>2018-08-22T09:23:40Z</time>
      </trkpt>
      <trkpt lat="48.07608" lon="6.85443">
        <ele>810.53</ele>
        <time>2018-08-22T09:23:42Z</time>
      </trkpt>
      <trkpt lat="48.0761" lon="6.85446">
        <ele>811.97</ele>
        <time>2018-08-22T09:23:44Z</time>
      </trkpt>
      <trkpt lat="48.07614" lon="6.85451">
        <ele>812.93</ele>
        <time>2018-08-22T09:23:50Z</time>
      </trkpt>
      <trkpt lat="48.07625" lon="6.85469">
        <ele>815.34</ele>
        <time>2018-08-22T09:24:05Z</time>
      </trkpt>
      <trkpt lat="48.07626" lon="6.85469">
        <ele>815.34</ele>
        <time>2018-08-22T09:24:06Z</time>
      </trkpt>
      <trkpt lat="48.07643" lon="6.85484">
        <ele>818.7</ele>
        <time>2018-08-22T09:24:26Z</time>
      </trkpt>
      <trkpt lat="48.07645" lon="6.85485">
        <ele>819.66</ele>
        <time>2018-08-22T09:24:28Z</time>
      </trkpt>
      <trkpt lat="48.07654" lon="6.85494">
        <ele>821.1</ele>
        <time>2018-08-22T09:24:38Z</time>
      </trkpt>
      <trkpt lat="48.07656" lon="6.85496">
        <ele>822.55</ele>
        <time>2018-08-22T09:24:41Z</time>
      </trkpt>
      <trkpt lat="48.0767" lon="6.85504">
        <ele>823.51</ele>
        <time>2018-08-22T09:24:56Z</time>
      </trkpt>
      <trkpt lat="48.07672" lon="6.85506">
        <ele>822.55</ele>
        <time>2018-08-22T09:24:59Z</time>
      </trkpt>
      <trkpt lat="48.07676" lon="6.85511">
        <ele>823.99</ele>
        <time>2018-08-22T09:25:05Z</time>
      </trkpt>
      <trkpt lat="48.07681" lon="6.85517">
        <ele>823.51</ele>
        <time>2018-08-22T09:25:11Z</time>
      </trkpt>
      <trkpt lat="48.07692" lon="6.85524">
        <ele>823.99</ele>
        <time>2018-08-22T09:25:23Z</time>
      </trkpt>
      <trkpt lat="48.07695" lon="6.85527">
        <ele>825.43</ele>
        <time>2018-08-22T09:25:26Z</time>
      </trkpt>
      <trkpt lat="48.07704" lon="6.85529">
        <ele>825.91</ele>
        <time>2018-08-22T09:25:34Z</time>
      </trkpt>
      <trkpt lat="48.07712" lon="6.85531">
        <ele>825.91</ele>
        <time>2018-08-22T09:25:42Z</time>
      </trkpt>
      <trkpt lat="48.07724" lon="6.8553">
        <ele>825.43</ele>
        <time>2018-08-22T09:25:56Z</time>
      </trkpt>
      <trkpt lat="48.07725" lon="6.85526">
        <ele>825.43</ele>
        <time>2018-08-22T09:26:13Z</time>
      </trkpt>
      <trkpt lat="48.07733" lon="6.85523">
        <ele>825.43</ele>
        <time>2018-08-22T09:26:29Z</time>
      </trkpt>
      <trkpt lat="48.07735" lon="6.85523">
        <ele>826.39</ele>
        <time>2018-08-22T09:26:31Z</time>
      </trkpt>
      <trkpt lat="48.07746" lon="6.85519">
        <ele>827.83</ele>
        <time>2018-08-22T09:26:47Z</time>
      </trkpt>
      <trkpt lat="48.07755" lon="6.85513">
        <ele>827.35</ele>
        <time>2018-08-22T09:26:57Z</time>
      </trkpt>
      <trkpt lat="48.0776" lon="6.85509">
        <ele>828.31</ele>
        <time>2018-08-22T09:27:02Z</time>
      </trkpt>
      <trkpt lat="48.07762" lon="6.85509">
        <ele>828.31</ele>
        <time>2018-08-22T09:27:04Z</time>
      </trkpt>
      <trkpt lat="48.07777" lon="6.85503">
        <ele>828.31</ele>
        <time>2018-08-22T09:27:17Z</time>
      </trkpt>
      <trkpt lat="48.07783" lon="6.85501">
        <ele>828.79</ele>
        <time>2018-08-22T09:27:23Z</time>
      </trkpt>
      <trkpt lat="48.07794" lon="6.85497">
        <ele>830.72</ele>
        <time>2018-08-22T09:27:36Z</time>
      </trkpt>
      <trkpt lat="48.078" lon="6.85495">
        <ele>830.72</ele>
        <time>2018-08-22T09:27:42Z</time>
      </trkpt>
      <trkpt lat="48.07809" lon="6.85495">
        <ele>829.76</ele>
        <time>2018-08-22T09:27:51Z</time>
      </trkpt>
      <trkpt lat="48.07818" lon="6.85496">
        <ele>831.68</ele>
        <time>2018-08-22T09:28:00Z</time>
      </trkpt>
      <trkpt lat="48.07827" lon="6.85494">
        <ele>830.24</ele>
        <time>2018-08-22T09:28:10Z</time>
      </trkpt>
      <trkpt lat="48.0783" lon="6.85494">
        <ele>831.68</ele>
        <time>2018-08-22T09:28:12Z</time>
      </trkpt>
      <trkpt lat="48.07833" lon="6.85494">
        <ele>831.68</ele>
        <time>2018-08-22T09:28:15Z</time>
      </trkpt>
      <trkpt lat="48.07838" lon="6.85493">
        <ele>832.64</ele>
        <time>2018-08-22T09:28:19Z</time>
      </trkpt>
      <trkpt lat="48.0784" lon="6.85494">
        <ele>831.68</ele>
        <time>2018-08-22T09:28:21Z</time>
      </trkpt>
      <trkpt lat="48.07842" lon="6.85496">
        <ele>832.64</ele>
        <time>2018-08-22T09:28:23Z</time>
      </trkpt>
      <trkpt lat="48.07853" lon="6.85494">
        <ele>835.04</ele>
        <time>2018-08-22T09:28:38Z</time>
      </trkpt>
      <trkpt lat="48.07863" lon="6.85494">
        <ele>837.45</ele>
        <time>2018-08-22T09:28:50Z</time>
      </trkpt>
      <trkpt lat="48.07863" lon="6.85494">
        <ele>836</ele>
        <time>2018-08-22T09:28:51Z</time>
      </trkpt>
      <trkpt lat="48.07868" lon="6.8549">
        <ele>837.45</ele>
        <time>2018-08-22T09:28:58Z</time>
      </trkpt>
      <trkpt lat="48.07877" lon="6.8549">
        <ele>838.41</ele>
        <time>2018-08-22T09:29:10Z</time>
      </trkpt>
      <trkpt lat="48.07893" lon="6.85481">
        <ele>839.37</ele>
        <time>2018-08-22T09:29:24Z</time>
      </trkpt>
      <trkpt lat="48.07894" lon="6.85481">
        <ele>839.37</ele>
        <time>2018-08-22T09:29:25Z</time>
      </trkpt>
      <trkpt lat="48.07907" lon="6.85479">
        <ele>841.77</ele>
        <time>2018-08-22T09:29:42Z</time>
      </trkpt>
      <trkpt lat="48.07914" lon="6.85481">
        <ele>842.25</ele>
        <time>2018-08-22T09:29:49Z</time>
      </trkpt>
      <trkpt lat="48.07931" lon="6.8548">
        <ele>844.18</ele>
        <time>2018-08-22T09:30:06Z</time>
      </trkpt>
      <trkpt lat="48.0795" lon="6.85479">
        <ele>846.58</ele>
        <time>2018-08-22T09:30:23Z</time>
      </trkpt>
      <trkpt lat="48.07961" lon="6.85475">
        <ele>847.06</ele>
        <time>2018-08-22T09:30:41Z</time>
      </trkpt>
      <trkpt lat="48.07962" lon="6.85474">
        <ele>847.06</ele>
        <time>2018-08-22T09:30:59Z</time>
      </trkpt>
      <trkpt lat="48.0796" lon="6.85476">
        <ele>847.06</ele>
        <time>2018-08-22T09:31:18Z</time>
      </trkpt>
      <trkpt lat="48.07967" lon="6.85473">
        <ele>847.54</ele>
        <time>2018-08-22T09:31:44Z</time>
      </trkpt>
      <trkpt lat="48.07968" lon="6.85471">
        <ele>847.54</ele>
        <time>2018-08-22T09:32:04Z</time>
      </trkpt>
      <trkpt lat="48.07965" lon="6.85475">
        <ele>847.54</ele>
        <time>2018-08-22T09:32:24Z</time>
      </trkpt>
      <trkpt lat="48.07961" lon="6.85474">
        <ele>847.54</ele>
        <time>2018-08-22T09:32:48Z</time>
      </trkpt>
      <trkpt lat="48.0796" lon="6.85475">
        <ele>847.54</ele>
        <time>2018-08-22T09:33:07Z</time>
      </trkpt>
      <trkpt lat="48.07962" lon="6.85473">
        <ele>847.06</ele>
        <time>2018-08-22T09:33:28Z</time>
      </trkpt>
      <trkpt lat="48.07963" lon="6.85468">
        <ele>848.02</ele>
        <time>2018-08-22T09:33:49Z</time>
      </trkpt>
      <trkpt lat="48.07956" lon="6.85466">
        <ele>848.02</ele>
        <time>2018-08-22T09:34:12Z</time>
      </trkpt>
      <trkpt lat="48.07958" lon="6.85468">
        <ele>848.98</ele>
        <time>2018-08-22T09:34:18Z</time>
      </trkpt>
      <trkpt lat="48.07957" lon="6.85468">
        <ele>847.54</ele>
        <time>2018-08-22T09:34:42Z</time>
      </trkpt>
      <trkpt lat="48.07959" lon="6.85469">
        <ele>847.54</ele>
        <time>2018-08-22T09:35:07Z</time>
      </trkpt>
      <trkpt lat="48.07958" lon="6.85472">
        <ele>847.54</ele>
        <time>2018-08-22T09:35:31Z</time>
      </trkpt>
      <trkpt lat="48.07962" lon="6.85474">
        <ele>848.02</ele>
        <time>2018-08-22T09:36:03Z</time>
      </trkpt>
      <trkpt lat="48.07957" lon="6.85471">
        <ele>848.02</ele>
        <time>2018-08-22T09:36:30Z</time>
      </trkpt>
      <trkpt lat="48.07961" lon="6.85471">
        <ele>848.02</ele>
        <time>2018-08-22T09:37:01Z</time>
      </trkpt>
      <trkpt lat="48.07963" lon="6.85478">
        <ele>848.02</ele>
        <time>2018-08-22T09:37:14Z</time>
      </trkpt>
      <trkpt lat="48.07963" lon="6.85482">
        <ele>848.02</ele>
        <time>2018-08-22T09:37:17Z</time>
      </trkpt>
      <trkpt lat="48.07963" lon="6.85486">
        <ele>846.1</ele>
        <time>2018-08-22T09:37:19Z</time>
      </trkpt>
      <trkpt lat="48.07961" lon="6.85494">
        <ele>844.66</ele>
        <time>2018-08-22T09:37:22Z</time>
      </trkpt>
      <trkpt lat="48.07961" lon="6.85499">
        <ele>845.62</ele>
        <time>2018-08-22T09:37:24Z</time>
      </trkpt>
      <trkpt lat="48.0796" lon="6.85503">
        <ele>842.25</ele>
        <time>2018-08-22T09:37:26Z</time>
      </trkpt>
      <trkpt lat="48.0796" lon="6.85507">
        <ele>841.29</ele>
        <time>2018-08-22T09:37:28Z</time>
      </trkpt>
      <trkpt lat="48.07958" lon="6.85513">
        <ele>842.73</ele>
        <time>2018-08-22T09:37:31Z</time>
      </trkpt>
      <trkpt lat="48.07956" lon="6.85519">
        <ele>839.37</ele>
        <time>2018-08-22T09:37:34Z</time>
      </trkpt>
      <trkpt lat="48.07953" lon="6.8553">
        <ele>838.41</ele>
        <time>2018-08-22T09:37:41Z</time>
      </trkpt>
      <trkpt lat="48.0795" lon="6.85535">
        <ele>837.45</ele>
        <time>2018-08-22T09:37:45Z</time>
      </trkpt>
      <trkpt lat="48.07947" lon="6.85539">
        <ele>836.48</ele>
        <time>2018-08-22T09:37:48Z</time>
      </trkpt>
      <trkpt lat="48.0794" lon="6.85545">
        <ele>835.04</ele>
        <time>2018-08-22T09:37:54Z</time>
      </trkpt>
      <trkpt lat="48.07931" lon="6.85553">
        <ele>832.16</ele>
        <time>2018-08-22T09:38:01Z</time>
      </trkpt>
      <trkpt lat="48.0792" lon="6.85566">
        <ele>829.27</ele>
        <time>2018-08-22T09:38:13Z</time>
      </trkpt>
      <trkpt lat="48.07923" lon="6.85572">
        <ele>828.79</ele>
        <time>2018-08-22T09:38:36Z</time>
      </trkpt>
      <trkpt lat="48.07917" lon="6.85589">
        <ele>826.87</ele>
        <time>2018-08-22T09:38:57Z</time>
      </trkpt>
      <trkpt lat="48.07917" lon="6.85608">
        <ele>823.03</ele>
        <time>2018-08-22T09:39:10Z</time>
      </trkpt>
      <trkpt lat="48.07914" lon="6.85632">
        <ele>820.14</ele>
        <time>2018-08-22T09:39:25Z</time>
      </trkpt>
      <trkpt lat="48.07914" lon="6.85635">
        <ele>820.14</ele>
        <time>2018-08-22T09:39:27Z</time>
      </trkpt>
      <trkpt lat="48.07921" lon="6.85663">
        <ele>816.78</ele>
        <time>2018-08-22T09:39:43Z</time>
      </trkpt>
      <trkpt lat="48.07923" lon="6.85689">
        <ele>815.34</ele>
        <time>2018-08-22T09:39:59Z</time>
      </trkpt>
      <trkpt lat="48.07918" lon="6.8571">
        <ele>811.97</ele>
        <time>2018-08-22T09:40:12Z</time>
      </trkpt>
      <trkpt lat="48.07915" lon="6.85718">
        <ele>811.01</ele>
        <time>2018-08-22T09:40:18Z</time>
      </trkpt>
      <trkpt lat="48.07912" lon="6.85722">
        <ele>810.53</ele>
        <time>2018-08-22T09:40:22Z</time>
      </trkpt>
      <trkpt lat="48.07909" lon="6.85743">
        <ele>807.16</ele>
        <time>2018-08-22T09:40:37Z</time>
      </trkpt>
      <trkpt lat="48.07908" lon="6.85767">
        <ele>804.28</ele>
        <time>2018-08-22T09:40:53Z</time>
      </trkpt>
      <trkpt lat="48.07907" lon="6.85791">
        <ele>801.4</ele>
        <time>2018-08-22T09:41:08Z</time>
      </trkpt>
      <trkpt lat="48.07905" lon="6.85821">
        <ele>798.51</ele>
        <time>2018-08-22T09:41:26Z</time>
      </trkpt>
      <trkpt lat="48.07905" lon="6.85824">
        <ele>797.55</ele>
        <time>2018-08-22T09:41:28Z</time>
      </trkpt>
      <trkpt lat="48.07904" lon="6.85831">
        <ele>797.07</ele>
        <time>2018-08-22T09:41:43Z</time>
      </trkpt>
      <trkpt lat="48.07907" lon="6.85831">
        <ele>796.11</ele>
        <time>2018-08-22T09:42:09Z</time>
      </trkpt>
      <trkpt lat="48.07906" lon="6.85832">
        <ele>796.11</ele>
        <time>2018-08-22T09:42:42Z</time>
      </trkpt>
      <trkpt lat="48.07903" lon="6.85834">
        <ele>796.11</ele>
        <time>2018-08-22T09:43:04Z</time>
      </trkpt>
      <trkpt lat="48.07901" lon="6.85833">
        <ele>796.11</ele>
        <time>2018-08-22T09:43:31Z</time>
      </trkpt>
      <trkpt lat="48.07902" lon="6.85838">
        <ele>796.11</ele>
        <time>2018-08-22T09:43:46Z</time>
      </trkpt>
      <trkpt lat="48.07904" lon="6.85838">
        <ele>796.11</ele>
        <time>2018-08-22T09:44:03Z</time>
      </trkpt>
      <trkpt lat="48.07905" lon="6.85837">
        <ele>796.11</ele>
        <time>2018-08-22T09:44:25Z</time>
      </trkpt>
      <trkpt lat="48.07904" lon="6.85839">
        <ele>796.11</ele>
        <time>2018-08-22T09:44:40Z</time>
      </trkpt>
      <trkpt lat="48.07901" lon="6.85862">
        <ele>793.22</ele>
        <time>2018-08-22T09:44:53Z</time>
      </trkpt>
      <trkpt lat="48.07899" lon="6.85888">
        <ele>789.86</ele>
        <time>2018-08-22T09:45:07Z</time>
      </trkpt>
      <trkpt lat="48.079" lon="6.85893">
        <ele>788.9</ele>
        <time>2018-08-22T09:45:10Z</time>
      </trkpt>
      <trkpt lat="48.07907" lon="6.85903">
        <ele>790.34</ele>
        <time>2018-08-22T09:45:19Z</time>
      </trkpt>
      <trkpt lat="48.07927" lon="6.85922">
        <ele>792.74</ele>
        <time>2018-08-22T09:45:38Z</time>
      </trkpt>
      <trkpt lat="48.07941" lon="6.85938">
        <ele>793.71</ele>
        <time>2018-08-22T09:45:53Z</time>
      </trkpt>
      <trkpt lat="48.07962" lon="6.85955">
        <ele>795.63</ele>
        <time>2018-08-22T09:46:13Z</time>
      </trkpt>
      <trkpt lat="48.07987" lon="6.85971">
        <ele>797.55</ele>
        <time>2018-08-22T09:46:35Z</time>
      </trkpt>
      <trkpt lat="48.08009" lon="6.85984">
        <ele>798.99</ele>
        <time>2018-08-22T09:46:55Z</time>
      </trkpt>
      <trkpt lat="48.08023" lon="6.86007">
        <ele>801.4</ele>
        <time>2018-08-22T09:47:12Z</time>
      </trkpt>
      <trkpt lat="48.08026" lon="6.86037">
        <ele>803.32</ele>
        <time>2018-08-22T09:47:29Z</time>
      </trkpt>
      <trkpt lat="48.0802" lon="6.86064">
        <ele>805.72</ele>
        <time>2018-08-22T09:47:45Z</time>
      </trkpt>
      <trkpt lat="48.08013" lon="6.86095">
        <ele>807.16</ele>
        <time>2018-08-22T09:48:02Z</time>
      </trkpt>
      <trkpt lat="48.0801" lon="6.86129">
        <ele>809.09</ele>
        <time>2018-08-22T09:48:20Z</time>
      </trkpt>
      <trkpt lat="48.08006" lon="6.86163">
        <ele>811.49</ele>
        <time>2018-08-22T09:48:38Z</time>
      </trkpt>
      <trkpt lat="48.08003" lon="6.86196">
        <ele>812.45</ele>
        <time>2018-08-22T09:48:56Z</time>
      </trkpt>
      <trkpt lat="48.07998" lon="6.86237">
        <ele>815.34</ele>
        <time>2018-08-22T09:49:17Z</time>
      </trkpt>
      <trkpt lat="48.07995" lon="6.86269">
        <ele>816.78</ele>
        <time>2018-08-22T09:49:35Z</time>
      </trkpt>
      <trkpt lat="48.0799" lon="6.86304">
        <ele>818.7</ele>
        <time>2018-08-22T09:49:53Z</time>
      </trkpt>
      <trkpt lat="48.07991" lon="6.86344">
        <ele>820.62</ele>
        <time>2018-08-22T09:50:14Z</time>
      </trkpt>
      <trkpt lat="48.07993" lon="6.86351">
        <ele>820.62</ele>
        <time>2018-08-22T09:50:18Z</time>
      </trkpt>
      <trkpt lat="48.08003" lon="6.86388">
        <ele>822.55</ele>
        <time>2018-08-22T09:50:37Z</time>
      </trkpt>
      <trkpt lat="48.08008" lon="6.86408">
        <ele>823.51</ele>
        <time>2018-08-22T09:50:48Z</time>
      </trkpt>
      <trkpt lat="48.08016" lon="6.86432">
        <ele>824.95</ele>
        <time>2018-08-22T09:51:02Z</time>
      </trkpt>
      <trkpt lat="48.08026" lon="6.86441">
        <ele>825.43</ele>
        <time>2018-08-22T09:51:15Z</time>
      </trkpt>
      <trkpt lat="48.08042" lon="6.86429">
        <ele>828.31</ele>
        <time>2018-08-22T09:51:31Z</time>
      </trkpt>
      <trkpt lat="48.0805" lon="6.86424">
        <ele>830.24</ele>
        <time>2018-08-22T09:51:40Z</time>
      </trkpt>
      <trkpt lat="48.08052" lon="6.86424">
        <ele>830.72</ele>
        <time>2018-08-22T09:51:42Z</time>
      </trkpt>
      <trkpt lat="48.08055" lon="6.86425">
        <ele>831.2</ele>
        <time>2018-08-22T09:51:45Z</time>
      </trkpt>
      <trkpt lat="48.08057" lon="6.86428">
        <ele>832.16</ele>
        <time>2018-08-22T09:51:48Z</time>
      </trkpt>
      <trkpt lat="48.08057" lon="6.86438">
        <ele>832.16</ele>
        <time>2018-08-22T09:51:54Z</time>
      </trkpt>
      <trkpt lat="48.08055" lon="6.8645">
        <ele>831.2</ele>
        <time>2018-08-22T09:52:02Z</time>
      </trkpt>
      <trkpt lat="48.08053" lon="6.86462">
        <ele>830.24</ele>
        <time>2018-08-22T09:52:14Z</time>
      </trkpt>
      <trkpt lat="48.08051" lon="6.86473">
        <ele>828.79</ele>
        <time>2018-08-22T09:52:23Z</time>
      </trkpt>
      <trkpt lat="48.08047" lon="6.86497">
        <ele>827.83</ele>
        <time>2018-08-22T09:52:39Z</time>
      </trkpt>
      <trkpt lat="48.08041" lon="6.86527">
        <ele>825.43</ele>
        <time>2018-08-22T09:52:57Z</time>
      </trkpt>
      <trkpt lat="48.0804" lon="6.86545">
        <ele>824.47</ele>
        <time>2018-08-22T09:53:11Z</time>
      </trkpt>
      <trkpt lat="48.08039" lon="6.86567">
        <ele>823.03</ele>
        <time>2018-08-22T09:53:25Z</time>
      </trkpt>
      <trkpt lat="48.08044" lon="6.86597">
        <ele>820.62</ele>
        <time>2018-08-22T09:53:44Z</time>
      </trkpt>
      <trkpt lat="48.08049" lon="6.86629">
        <ele>818.7</ele>
        <time>2018-08-22T09:54:03Z</time>
      </trkpt>
      <trkpt lat="48.0806" lon="6.86658">
        <ele>818.22</ele>
        <time>2018-08-22T09:54:22Z</time>
      </trkpt>
      <trkpt lat="48.08063" lon="6.8669">
        <ele>817.26</ele>
        <time>2018-08-22T09:54:40Z</time>
      </trkpt>
      <trkpt lat="48.08064" lon="6.86725">
        <ele>817.26</ele>
        <time>2018-08-22T09:55:00Z</time>
      </trkpt>
      <trkpt lat="48.08066" lon="6.86743">
        <ele>817.26</ele>
        <time>2018-08-22T09:55:14Z</time>
      </trkpt>
      <trkpt lat="48.08067" lon="6.86754">
        <ele>817.26</ele>
        <time>2018-08-22T09:55:21Z</time>
      </trkpt>
      <trkpt lat="48.08071" lon="6.8677">
        <ele>816.78</ele>
        <time>2018-08-22T09:55:34Z</time>
      </trkpt>
      <trkpt lat="48.08076" lon="6.86797">
        <ele>815.82</ele>
        <time>2018-08-22T09:55:51Z</time>
      </trkpt>
      <trkpt lat="48.08078" lon="6.86805">
        <ele>815.82</ele>
        <time>2018-08-22T09:55:56Z</time>
      </trkpt>
      <trkpt lat="48.08077" lon="6.86838">
        <ele>813.41</ele>
        <time>2018-08-22T09:56:14Z</time>
      </trkpt>
      <trkpt lat="48.08076" lon="6.86856">
        <ele>812.93</ele>
        <time>2018-08-22T09:56:24Z</time>
      </trkpt>
      <trkpt lat="48.08079" lon="6.86869">
        <ele>812.45</ele>
        <time>2018-08-22T09:56:32Z</time>
      </trkpt>
      <trkpt lat="48.08087" lon="6.8691">
        <ele>810.53</ele>
        <time>2018-08-22T09:56:55Z</time>
      </trkpt>
      <trkpt lat="48.08098" lon="6.86943">
        <ele>807.64</ele>
        <time>2018-08-22T09:57:15Z</time>
      </trkpt>
      <trkpt lat="48.08103" lon="6.8698">
        <ele>806.2</ele>
        <time>2018-08-22T09:57:37Z</time>
      </trkpt>
      <trkpt lat="48.08107" lon="6.87014">
        <ele>803.8</ele>
        <time>2018-08-22T09:57:56Z</time>
      </trkpt>
      <trkpt lat="48.08116" lon="6.87043">
        <ele>801.88</ele>
        <time>2018-08-22T09:58:14Z</time>
      </trkpt>
      <trkpt lat="48.08123" lon="6.87076">
        <ele>800.44</ele>
        <time>2018-08-22T09:58:33Z</time>
      </trkpt>
      <trkpt lat="48.08131" lon="6.87109">
        <ele>799.95</ele>
        <time>2018-08-22T09:58:54Z</time>
      </trkpt>
      <trkpt lat="48.08131" lon="6.87109">
        <ele>798.99</ele>
        <time>2018-08-22T09:59:00Z</time>
      </trkpt>
      <trkpt lat="48.08136" lon="6.87122">
        <ele>798.99</ele>
        <time>2018-08-22T09:59:08Z</time>
      </trkpt>
      <trkpt lat="48.08144" lon="6.87142">
        <ele>799.95</ele>
        <time>2018-08-22T09:59:26Z</time>
      </trkpt>
      <trkpt lat="48.08149" lon="6.87162">
        <ele>799.95</ele>
        <time>2018-08-22T09:59:39Z</time>
      </trkpt>
      <trkpt lat="48.08152" lon="6.87173">
        <ele>799.95</ele>
        <time>2018-08-22T09:59:53Z</time>
      </trkpt>
      <trkpt lat="48.08153" lon="6.87176">
        <ele>798.51</ele>
        <time>2018-08-22T09:59:55Z</time>
      </trkpt>
      <trkpt lat="48.08163" lon="6.87211">
        <ele>797.55</ele>
        <time>2018-08-22T10:00:16Z</time>
      </trkpt>
      <trkpt lat="48.08179" lon="6.87247">
        <ele>797.55</ele>
        <time>2018-08-22T10:00:38Z</time>
      </trkpt>
      <trkpt lat="48.08192" lon="6.87285">
        <ele>794.67</ele>
        <time>2018-08-22T10:01:00Z</time>
      </trkpt>
      <trkpt lat="48.08203" lon="6.87307">
        <ele>793.71</ele>
        <time>2018-08-22T10:01:15Z</time>
      </trkpt>
      <trkpt lat="48.08212" lon="6.87337">
        <ele>792.26</ele>
        <time>2018-08-22T10:01:32Z</time>
      </trkpt>
      <trkpt lat="48.08227" lon="6.87373">
        <ele>791.3</ele>
        <time>2018-08-22T10:01:55Z</time>
      </trkpt>
      <trkpt lat="48.08241" lon="6.87397">
        <ele>790.34</ele>
        <time>2018-08-22T10:02:12Z</time>
      </trkpt>
      <trkpt lat="48.0825" lon="6.87417">
        <ele>789.86</ele>
        <time>2018-08-22T10:02:27Z</time>
      </trkpt>
      <trkpt lat="48.08251" lon="6.8742">
        <ele>791.3</ele>
        <time>2018-08-22T10:02:29Z</time>
      </trkpt>
      <trkpt lat="48.08266" lon="6.87446">
        <ele>791.3</ele>
        <time>2018-08-22T10:02:48Z</time>
      </trkpt>
      <trkpt lat="48.08272" lon="6.87461">
        <ele>789.86</ele>
        <time>2018-08-22T10:02:58Z</time>
      </trkpt>
      <trkpt lat="48.08286" lon="6.87491">
        <ele>788.9</ele>
        <time>2018-08-22T10:03:18Z</time>
      </trkpt>
      <trkpt lat="48.08301" lon="6.87512">
        <ele>787.94</ele>
        <time>2018-08-22T10:03:35Z</time>
      </trkpt>
      <trkpt lat="48.08313" lon="6.8754">
        <ele>787.46</ele>
        <time>2018-08-22T10:03:53Z</time>
      </trkpt>
      <trkpt lat="48.08319" lon="6.8757">
        <ele>786.98</ele>
        <time>2018-08-22T10:04:11Z</time>
      </trkpt>
      <trkpt lat="48.08325" lon="6.87589">
        <ele>786.02</ele>
        <time>2018-08-22T10:04:26Z</time>
      </trkpt>
      <trkpt lat="48.08334" lon="6.87607">
        <ele>785.05</ele>
        <time>2018-08-22T10:04:41Z</time>
      </trkpt>
      <trkpt lat="48.08348" lon="6.87634">
        <ele>783.61</ele>
        <time>2018-08-22T10:05:00Z</time>
      </trkpt>
      <trkpt lat="48.08363" lon="6.8766">
        <ele>781.69</ele>
        <time>2018-08-22T10:05:18Z</time>
      </trkpt>
      <trkpt lat="48.08371" lon="6.8768">
        <ele>780.25</ele>
        <time>2018-08-22T10:05:32Z</time>
      </trkpt>
      <trkpt lat="48.08378" lon="6.87711">
        <ele>778.81</ele>
        <time>2018-08-22T10:05:51Z</time>
      </trkpt>
      <trkpt lat="48.08388" lon="6.87743">
        <ele>776.4</ele>
        <time>2018-08-22T10:06:10Z</time>
      </trkpt>
      <trkpt lat="48.08394" lon="6.87765">
        <ele>774.96</ele>
        <time>2018-08-22T10:06:25Z</time>
      </trkpt>
      <trkpt lat="48.08392" lon="6.87766">
        <ele>774.96</ele>
        <time>2018-08-22T10:06:42Z</time>
      </trkpt>
      <trkpt lat="48.08391" lon="6.87764">
        <ele>774.96</ele>
        <time>2018-08-22T10:07:09Z</time>
      </trkpt>
      <trkpt lat="48.08394" lon="6.87764">
        <ele>774.96</ele>
        <time>2018-08-22T10:07:37Z</time>
      </trkpt>
      <trkpt lat="48.08394" lon="6.87769">
        <ele>774.96</ele>
        <time>2018-08-22T10:07:58Z</time>
      </trkpt>
      <trkpt lat="48.08396" lon="6.87771">
        <ele>774.96</ele>
        <time>2018-08-22T10:08:01Z</time>
      </trkpt>
      <trkpt lat="48.08401" lon="6.87781">
        <ele>774.96</ele>
        <time>2018-08-22T10:08:09Z</time>
      </trkpt>
      <trkpt lat="48.0841" lon="6.87804">
        <ele>774</ele>
        <time>2018-08-22T10:08:25Z</time>
      </trkpt>
      <trkpt lat="48.08421" lon="6.87834">
        <ele>772.56</ele>
        <time>2018-08-22T10:08:44Z</time>
      </trkpt>
      <trkpt lat="48.0843" lon="6.87861">
        <ele>771.11</ele>
        <time>2018-08-22T10:09:01Z</time>
      </trkpt>
      <trkpt lat="48.08442" lon="6.87895">
        <ele>769.19</ele>
        <time>2018-08-22T10:09:22Z</time>
      </trkpt>
      <trkpt lat="48.08457" lon="6.87923">
        <ele>767.75</ele>
        <time>2018-08-22T10:09:41Z</time>
      </trkpt>
      <trkpt lat="48.08474" lon="6.87945">
        <ele>765.83</ele>
        <time>2018-08-22T10:09:59Z</time>
      </trkpt>
      <trkpt lat="48.08485" lon="6.87959">
        <ele>763.9</ele>
        <time>2018-08-22T10:10:10Z</time>
      </trkpt>
      <trkpt lat="48.085" lon="6.8798">
        <ele>762.46</ele>
        <time>2018-08-22T10:10:27Z</time>
      </trkpt>
      <trkpt lat="48.08516" lon="6.8799">
        <ele>760.54</ele>
        <time>2018-08-22T10:10:43Z</time>
      </trkpt>
      <trkpt lat="48.08538" lon="6.87999">
        <ele>758.14</ele>
        <time>2018-08-22T10:11:01Z</time>
      </trkpt>
      <trkpt lat="48.0856" lon="6.88005">
        <ele>757.18</ele>
        <time>2018-08-22T10:11:19Z</time>
      </trkpt>
      <trkpt lat="48.08579" lon="6.88011">
        <ele>756.21</ele>
        <time>2018-08-22T10:11:35Z</time>
      </trkpt>
      <trkpt lat="48.08599" lon="6.88017">
        <ele>755.73</ele>
        <time>2018-08-22T10:11:51Z</time>
      </trkpt>
      <trkpt lat="48.0861" lon="6.8803">
        <ele>755.73</ele>
        <time>2018-08-22T10:12:03Z</time>
      </trkpt>
      <trkpt lat="48.08617" lon="6.88052">
        <ele>755.25</ele>
        <time>2018-08-22T10:12:19Z</time>
      </trkpt>
      <trkpt lat="48.0862" lon="6.88049">
        <ele>755.73</ele>
        <time>2018-08-22T10:12:39Z</time>
      </trkpt>
      <trkpt lat="48.08625" lon="6.88052">
        <ele>756.21</ele>
        <time>2018-08-22T10:12:57Z</time>
      </trkpt>
      <trkpt lat="48.08625" lon="6.88057">
        <ele>756.21</ele>
        <time>2018-08-22T10:13:17Z</time>
      </trkpt>
      <trkpt lat="48.08623" lon="6.88068">
        <ele>756.21</ele>
        <time>2018-08-22T10:13:37Z</time>
      </trkpt>
      <trkpt lat="48.08624" lon="6.88062">
        <ele>755.25</ele>
        <time>2018-08-22T10:14:01Z</time>
      </trkpt>
      <trkpt lat="48.08618" lon="6.88054">
        <ele>756.21</ele>
        <time>2018-08-22T10:14:27Z</time>
      </trkpt>
      <trkpt lat="48.08619" lon="6.88053">
        <ele>754.77</ele>
        <time>2018-08-22T10:14:56Z</time>
      </trkpt>
      <trkpt lat="48.08621" lon="6.88056">
        <ele>756.21</ele>
        <time>2018-08-22T10:15:20Z</time>
      </trkpt>
      <trkpt lat="48.08624" lon="6.88053">
        <ele>756.21</ele>
        <time>2018-08-22T10:15:47Z</time>
      </trkpt>
      <trkpt lat="48.08618" lon="6.88051">
        <ele>756.21</ele>
        <time>2018-08-22T10:16:05Z</time>
      </trkpt>
      <trkpt lat="48.08619" lon="6.88034">
        <ele>756.21</ele>
        <time>2018-08-22T10:16:19Z</time>
      </trkpt>
      <trkpt lat="48.08621" lon="6.88028">
        <ele>756.21</ele>
        <time>2018-08-22T10:16:28Z</time>
      </trkpt>
      <trkpt lat="48.08624" lon="6.88025">
        <ele>756.21</ele>
        <time>2018-08-22T10:16:32Z</time>
      </trkpt>
      <trkpt lat="48.0863" lon="6.88024">
        <ele>757.18</ele>
        <time>2018-08-22T10:16:37Z</time>
      </trkpt>
      <trkpt lat="48.08642" lon="6.8802">
        <ele>758.62</ele>
        <time>2018-08-22T10:16:48Z</time>
      </trkpt>
      <trkpt lat="48.0866" lon="6.88019">
        <ele>760.06</ele>
        <time>2018-08-22T10:17:05Z</time>
      </trkpt>
      <trkpt lat="48.08663" lon="6.8802">
        <ele>760.54</ele>
        <time>2018-08-22T10:17:08Z</time>
      </trkpt>
      <trkpt lat="48.0868" lon="6.88028">
        <ele>763.42</ele>
        <time>2018-08-22T10:17:27Z</time>
      </trkpt>
      <trkpt lat="48.08692" lon="6.88035">
        <ele>765.35</ele>
        <time>2018-08-22T10:17:41Z</time>
      </trkpt>
      <trkpt lat="48.08694" lon="6.88037">
        <ele>765.83</ele>
        <time>2018-08-22T10:17:43Z</time>
      </trkpt>
      <trkpt lat="48.08709" lon="6.88047">
        <ele>767.75</ele>
        <time>2018-08-22T10:17:58Z</time>
      </trkpt>
      <trkpt lat="48.08724" lon="6.88056">
        <ele>769.67</ele>
        <time>2018-08-22T10:18:14Z</time>
      </trkpt>
      <trkpt lat="48.08734" lon="6.88062">
        <ele>771.6</ele>
        <time>2018-08-22T10:18:25Z</time>
      </trkpt>
      <trkpt lat="48.08751" lon="6.88074">
        <ele>774</ele>
        <time>2018-08-22T10:18:43Z</time>
      </trkpt>
      <trkpt lat="48.08757" lon="6.88077">
        <ele>775.92</ele>
        <time>2018-08-22T10:18:49Z</time>
      </trkpt>
      <trkpt lat="48.08773" lon="6.88086">
        <ele>778.32</ele>
        <time>2018-08-22T10:19:05Z</time>
      </trkpt>
      <trkpt lat="48.08792" lon="6.88096">
        <ele>781.69</ele>
        <time>2018-08-22T10:19:24Z</time>
      </trkpt>
      <trkpt lat="48.08811" lon="6.88109">
        <ele>784.09</ele>
        <time>2018-08-22T10:19:44Z</time>
      </trkpt>
      <trkpt lat="48.08828" lon="6.88116">
        <ele>786.5</ele>
        <time>2018-08-22T10:20:00Z</time>
      </trkpt>
      <trkpt lat="48.08841" lon="6.88119">
        <ele>788.42</ele>
        <time>2018-08-22T10:20:15Z</time>
      </trkpt>
      <trkpt lat="48.08846" lon="6.88122">
        <ele>789.38</ele>
        <time>2018-08-22T10:20:36Z</time>
      </trkpt>
      <trkpt lat="48.08845" lon="6.88123">
        <ele>789.86</ele>
        <time>2018-08-22T10:20:49Z</time>
      </trkpt>
      <trkpt lat="48.08846" lon="6.88121">
        <ele>789.86</ele>
        <time>2018-08-22T10:21:10Z</time>
      </trkpt>
      <trkpt lat="48.08844" lon="6.88117">
        <ele>789.86</ele>
        <time>2018-08-22T10:21:39Z</time>
      </trkpt>
      <trkpt lat="48.08843" lon="6.88119">
        <ele>788.9</ele>
        <time>2018-08-22T10:22:06Z</time>
      </trkpt>
      <trkpt lat="48.08842" lon="6.8812">
        <ele>788.9</ele>
        <time>2018-08-22T10:22:29Z</time>
      </trkpt>
      <trkpt lat="48.08843" lon="6.88118">
        <ele>788.9</ele>
        <time>2018-08-22T10:22:51Z</time>
      </trkpt>
      <trkpt lat="48.08844" lon="6.88101">
        <ele>791.3</ele>
        <time>2018-08-22T10:23:06Z</time>
      </trkpt>
      <trkpt lat="48.08844" lon="6.88085">
        <ele>793.71</ele>
        <time>2018-08-22T10:23:18Z</time>
      </trkpt>
      <trkpt lat="48.08846" lon="6.88065">
        <ele>795.15</ele>
        <time>2018-08-22T10:23:33Z</time>
      </trkpt>
      <trkpt lat="48.08847" lon="6.88044">
        <ele>798.03</ele>
        <time>2018-08-22T10:23:47Z</time>
      </trkpt>
      <trkpt lat="48.08853" lon="6.8802">
        <ele>799.95</ele>
        <time>2018-08-22T10:24:01Z</time>
      </trkpt>
      <trkpt lat="48.08859" lon="6.87997">
        <ele>802.84</ele>
        <time>2018-08-22T10:24:16Z</time>
      </trkpt>
      <trkpt lat="48.08865" lon="6.87975">
        <ele>805.72</ele>
        <time>2018-08-22T10:24:32Z</time>
      </trkpt>
      <trkpt lat="48.08867" lon="6.87963">
        <ele>807.16</ele>
        <time>2018-08-22T10:24:40Z</time>
      </trkpt>
      <trkpt lat="48.08873" lon="6.87937">
        <ele>809.09</ele>
        <time>2018-08-22T10:24:56Z</time>
      </trkpt>
      <trkpt lat="48.08875" lon="6.87919">
        <ele>811.97</ele>
        <time>2018-08-22T10:25:11Z</time>
      </trkpt>
      <trkpt lat="48.08879" lon="6.87901">
        <ele>813.89</ele>
        <time>2018-08-22T10:25:25Z</time>
      </trkpt>
      <trkpt lat="48.08884" lon="6.8787">
        <ele>816.78</ele>
        <time>2018-08-22T10:25:43Z</time>
      </trkpt>
      <trkpt lat="48.08884" lon="6.87853">
        <ele>818.22</ele>
        <time>2018-08-22T10:25:52Z</time>
      </trkpt>
      <trkpt lat="48.08888" lon="6.87824">
        <ele>820.14</ele>
        <time>2018-08-22T10:26:09Z</time>
      </trkpt>
      <trkpt lat="48.08893" lon="6.87803">
        <ele>822.06</ele>
        <time>2018-08-22T10:26:25Z</time>
      </trkpt>
      <trkpt lat="48.08898" lon="6.8778">
        <ele>824.47</ele>
        <time>2018-08-22T10:26:42Z</time>
      </trkpt>
      <trkpt lat="48.08902" lon="6.87761">
        <ele>826.87</ele>
        <time>2018-08-22T10:26:56Z</time>
      </trkpt>
      <trkpt lat="48.08905" lon="6.87743">
        <ele>828.31</ele>
        <time>2018-08-22T10:27:09Z</time>
      </trkpt>
      <trkpt lat="48.0891" lon="6.87742">
        <ele>831.2</ele>
        <time>2018-08-22T10:27:24Z</time>
      </trkpt>
      <trkpt lat="48.0892" lon="6.87749">
        <ele>833.12</ele>
        <time>2018-08-22T10:27:39Z</time>
      </trkpt>
      <trkpt lat="48.08931" lon="6.87761">
        <ele>835.52</ele>
        <time>2018-08-22T10:27:55Z</time>
      </trkpt>
      <trkpt lat="48.08942" lon="6.87774">
        <ele>837.45</ele>
        <time>2018-08-22T10:28:11Z</time>
      </trkpt>
      <trkpt lat="48.0895" lon="6.87784">
        <ele>840.81</ele>
        <time>2018-08-22T10:28:24Z</time>
      </trkpt>
      <trkpt lat="48.08962" lon="6.87798">
        <ele>842.25</ele>
        <time>2018-08-22T10:28:38Z</time>
      </trkpt>
      <trkpt lat="48.08968" lon="6.87808">
        <ele>844.18</ele>
        <time>2018-08-22T10:28:47Z</time>
      </trkpt>
      <trkpt lat="48.08979" lon="6.8783">
        <ele>845.62</ele>
        <time>2018-08-22T10:29:03Z</time>
      </trkpt>
      <trkpt lat="48.0899" lon="6.87849">
        <ele>846.58</ele>
        <time>2018-08-22T10:29:19Z</time>
      </trkpt>
      <trkpt lat="48.09" lon="6.87863">
        <ele>848.02</ele>
        <time>2018-08-22T10:29:33Z</time>
      </trkpt>
      <trkpt lat="48.09011" lon="6.87877">
        <ele>850.42</ele>
        <time>2018-08-22T10:29:48Z</time>
      </trkpt>
      <trkpt lat="48.09024" lon="6.87897">
        <ele>852.83</ele>
        <time>2018-08-22T10:30:05Z</time>
      </trkpt>
      <trkpt lat="48.09037" lon="6.87905">
        <ele>854.27</ele>
        <time>2018-08-22T10:30:18Z</time>
      </trkpt>
      <trkpt lat="48.09051" lon="6.87908">
        <ele>856.19</ele>
        <time>2018-08-22T10:30:33Z</time>
      </trkpt>
      <trkpt lat="48.0906" lon="6.87906">
        <ele>857.15</ele>
        <time>2018-08-22T10:30:42Z</time>
      </trkpt>
      <trkpt lat="48.09076" lon="6.87894">
        <ele>858.59</ele>
        <time>2018-08-22T10:30:57Z</time>
      </trkpt>
      <trkpt lat="48.09086" lon="6.87879">
        <ele>861</ele>
        <time>2018-08-22T10:31:14Z</time>
      </trkpt>
      <trkpt lat="48.09088" lon="6.87857">
        <ele>863.4</ele>
        <time>2018-08-22T10:31:28Z</time>
      </trkpt>
      <trkpt lat="48.09091" lon="6.87833">
        <ele>866.29</ele>
        <time>2018-08-22T10:31:44Z</time>
      </trkpt>
      <trkpt lat="48.09092" lon="6.8781">
        <ele>868.21</ele>
        <time>2018-08-22T10:32:01Z</time>
      </trkpt>
      <trkpt lat="48.09092" lon="6.87807">
        <ele>869.65</ele>
        <time>2018-08-22T10:32:03Z</time>
      </trkpt>
      <trkpt lat="48.09093" lon="6.87781">
        <ele>871.57</ele>
        <time>2018-08-22T10:32:19Z</time>
      </trkpt>
      <trkpt lat="48.09097" lon="6.87753">
        <ele>873.5</ele>
        <time>2018-08-22T10:32:35Z</time>
      </trkpt>
      <trkpt lat="48.09095" lon="6.8775">
        <ele>874.94</ele>
        <time>2018-08-22T10:32:38Z</time>
      </trkpt>
      <trkpt lat="48.09089" lon="6.87726">
        <ele>875.9</ele>
        <time>2018-08-22T10:32:54Z</time>
      </trkpt>
      <trkpt lat="48.09083" lon="6.87702">
        <ele>877.34</ele>
        <time>2018-08-22T10:33:10Z</time>
      </trkpt>
      <trkpt lat="48.09079" lon="6.87678">
        <ele>878.78</ele>
        <time>2018-08-22T10:33:25Z</time>
      </trkpt>
      <trkpt lat="48.09076" lon="6.87658">
        <ele>880.71</ele>
        <time>2018-08-22T10:33:39Z</time>
      </trkpt>
      <trkpt lat="48.09073" lon="6.8764">
        <ele>881.67</ele>
        <time>2018-08-22T10:33:52Z</time>
      </trkpt>
      <trkpt lat="48.09068" lon="6.87615">
        <ele>883.11</ele>
        <time>2018-08-22T10:34:07Z</time>
      </trkpt>
      <trkpt lat="48.09068" lon="6.87609">
        <ele>884.07</ele>
        <time>2018-08-22T10:34:11Z</time>
      </trkpt>
      <trkpt lat="48.09065" lon="6.87573">
        <ele>885.03</ele>
        <time>2018-08-22T10:34:29Z</time>
      </trkpt>
      <trkpt lat="48.09063" lon="6.87548">
        <ele>885.99</ele>
        <time>2018-08-22T10:34:43Z</time>
      </trkpt>
      <trkpt lat="48.09064" lon="6.87518">
        <ele>886.95</ele>
        <time>2018-08-22T10:35:00Z</time>
      </trkpt>
      <trkpt lat="48.09067" lon="6.87495">
        <ele>887.43</ele>
        <time>2018-08-22T10:35:13Z</time>
      </trkpt>
      <trkpt lat="48.09068" lon="6.87471">
        <ele>888.88</ele>
        <time>2018-08-22T10:35:28Z</time>
      </trkpt>
      <trkpt lat="48.0907" lon="6.87432">
        <ele>890.32</ele>
        <time>2018-08-22T10:35:45Z</time>
      </trkpt>
      <trkpt lat="48.09068" lon="6.87407">
        <ele>890.32</ele>
        <time>2018-08-22T10:35:59Z</time>
      </trkpt>
      <trkpt lat="48.09069" lon="6.87388">
        <ele>890.8</ele>
        <time>2018-08-22T10:36:13Z</time>
      </trkpt>
      <trkpt lat="48.09065" lon="6.87385">
        <ele>891.28</ele>
        <time>2018-08-22T10:36:33Z</time>
      </trkpt>
      <trkpt lat="48.0906" lon="6.87382">
        <ele>891.28</ele>
        <time>2018-08-22T10:36:58Z</time>
      </trkpt>
      <trkpt lat="48.09061" lon="6.87384">
        <ele>890.8</ele>
        <time>2018-08-22T10:37:19Z</time>
      </trkpt>
      <trkpt lat="48.09063" lon="6.87385">
        <ele>890.8</ele>
        <time>2018-08-22T10:37:43Z</time>
      </trkpt>
      <trkpt lat="48.09066" lon="6.87394">
        <ele>890.8</ele>
        <time>2018-08-22T10:37:59Z</time>
      </trkpt>
      <trkpt lat="48.09065" lon="6.87391">
        <ele>889.36</ele>
        <time>2018-08-22T10:38:13Z</time>
      </trkpt>
      <trkpt lat="48.09062" lon="6.87386">
        <ele>889.36</ele>
        <time>2018-08-22T10:38:27Z</time>
      </trkpt>
      <trkpt lat="48.09059" lon="6.87385">
        <ele>889.36</ele>
        <time>2018-08-22T10:38:53Z</time>
      </trkpt>
      <trkpt lat="48.09064" lon="6.87386">
        <ele>890.8</ele>
        <time>2018-08-22T10:39:21Z</time>
      </trkpt>
      <trkpt lat="48.09063" lon="6.87386">
        <ele>890.8</ele>
        <time>2018-08-22T10:39:42Z</time>
      </trkpt>
      <trkpt lat="48.09061" lon="6.87384">
        <ele>889.84</ele>
        <time>2018-08-22T10:40:08Z</time>
      </trkpt>
      <trkpt lat="48.09055" lon="6.87388">
        <ele>889.84</ele>
        <time>2018-08-22T10:40:41Z</time>
      </trkpt>
      <trkpt lat="48.09054" lon="6.87384">
        <ele>889.84</ele>
        <time>2018-08-22T10:41:02Z</time>
      </trkpt>
      <trkpt lat="48.09057" lon="6.87377">
        <ele>889.84</ele>
        <time>2018-08-22T10:41:32Z</time>
      </trkpt>
      <trkpt lat="48.09058" lon="6.87382">
        <ele>889.84</ele>
        <time>2018-08-22T10:41:54Z</time>
      </trkpt>
      <trkpt lat="48.09058" lon="6.87381">
        <ele>889.84</ele>
        <time>2018-08-22T10:42:26Z</time>
      </trkpt>
      <trkpt lat="48.09057" lon="6.87388">
        <ele>889.84</ele>
        <time>2018-08-22T10:42:45Z</time>
      </trkpt>
      <trkpt lat="48.09054" lon="6.87399">
        <ele>889.84</ele>
        <time>2018-08-22T10:43:19Z</time>
      </trkpt>
      <trkpt lat="48.09055" lon="6.87401">
        <ele>890.32</ele>
        <time>2018-08-22T10:43:42Z</time>
      </trkpt>
      <trkpt lat="48.0906" lon="6.87392">
        <ele>891.28</ele>
        <time>2018-08-22T10:44:05Z</time>
      </trkpt>
      <trkpt lat="48.09058" lon="6.87386">
        <ele>891.76</ele>
        <time>2018-08-22T10:44:20Z</time>
      </trkpt>
      <trkpt lat="48.09058" lon="6.87377">
        <ele>891.76</ele>
        <time>2018-08-22T10:44:32Z</time>
      </trkpt>
      <trkpt lat="48.09057" lon="6.87369">
        <ele>893.2</ele>
        <time>2018-08-22T10:44:40Z</time>
      </trkpt>
      <trkpt lat="48.09057" lon="6.87354">
        <ele>895.61</ele>
        <time>2018-08-22T10:44:51Z</time>
      </trkpt>
      <trkpt lat="48.09052" lon="6.87335">
        <ele>897.05</ele>
        <time>2018-08-22T10:45:06Z</time>
      </trkpt>
      <trkpt lat="48.09047" lon="6.8732">
        <ele>899.93</ele>
        <time>2018-08-22T10:45:20Z</time>
      </trkpt>
      <trkpt lat="48.09042" lon="6.87294">
        <ele>901.37</ele>
        <time>2018-08-22T10:45:36Z</time>
      </trkpt>
      <trkpt lat="48.09033" lon="6.87273">
        <ele>903.3</ele>
        <time>2018-08-22T10:45:53Z</time>
      </trkpt>
      <trkpt lat="48.09024" lon="6.87252">
        <ele>905.7</ele>
        <time>2018-08-22T10:46:10Z</time>
      </trkpt>
      <trkpt lat="48.09011" lon="6.87238">
        <ele>908.1</ele>
        <time>2018-08-22T10:46:24Z</time>
      </trkpt>
      <trkpt lat="48.09001" lon="6.87227">
        <ele>910.03</ele>
        <time>2018-08-22T10:46:32Z</time>
      </trkpt>
      <trkpt lat="48.08991" lon="6.87214">
        <ele>911.95</ele>
        <time>2018-08-22T10:46:40Z</time>
      </trkpt>
      <trkpt lat="48.08986" lon="6.87207">
        <ele>912.43</ele>
        <time>2018-08-22T10:46:45Z</time>
      </trkpt>
      <trkpt lat="48.08982" lon="6.87203">
        <ele>912.91</ele>
        <time>2018-08-22T10:46:49Z</time>
      </trkpt>
      <trkpt lat="48.08973" lon="6.8718">
        <ele>915.79</ele>
        <time>2018-08-22T10:47:06Z</time>
      </trkpt>
      <trkpt lat="48.08969" lon="6.8716">
        <ele>917.72</ele>
        <time>2018-08-22T10:47:17Z</time>
      </trkpt>
      <trkpt lat="48.08962" lon="6.8713">
        <ele>920.12</ele>
        <time>2018-08-22T10:47:34Z</time>
      </trkpt>
      <trkpt lat="48.08961" lon="6.87118">
        <ele>920.6</ele>
        <time>2018-08-22T10:47:41Z</time>
      </trkpt>
      <trkpt lat="48.08957" lon="6.8709">
        <ele>923</ele>
        <time>2018-08-22T10:47:56Z</time>
      </trkpt>
      <trkpt lat="48.08952" lon="6.87076">
        <ele>923</ele>
        <time>2018-08-22T10:48:04Z</time>
      </trkpt>
      <trkpt lat="48.08937" lon="6.87045">
        <ele>924.45</ele>
        <time>2018-08-22T10:48:22Z</time>
      </trkpt>
      <trkpt lat="48.08926" lon="6.87018">
        <ele>924.93</ele>
        <time>2018-08-22T10:48:39Z</time>
      </trkpt>
      <trkpt lat="48.08917" lon="6.86998">
        <ele>924.93</ele>
        <time>2018-08-22T10:48:54Z</time>
      </trkpt>
      <trkpt lat="48.08911" lon="6.86995">
        <ele>923.96</ele>
        <time>2018-08-22T10:49:04Z</time>
      </trkpt>
      <trkpt lat="48.08908" lon="6.86993">
        <ele>924.93</ele>
        <time>2018-08-22T10:49:15Z</time>
      </trkpt>
      <trkpt lat="48.08909" lon="6.86989">
        <ele>925.89</ele>
        <time>2018-08-22T10:49:39Z</time>
      </trkpt>
      <trkpt lat="48.08908" lon="6.86992">
        <ele>925.89</ele>
        <time>2018-08-22T10:49:57Z</time>
      </trkpt>
      <trkpt lat="48.08906" lon="6.86983">
        <ele>926.37</ele>
        <time>2018-08-22T10:50:13Z</time>
      </trkpt>
      <trkpt lat="48.08906" lon="6.86968">
        <ele>926.85</ele>
        <time>2018-08-22T10:50:30Z</time>
      </trkpt>
      <trkpt lat="48.08909" lon="6.86957">
        <ele>926.85</ele>
        <time>2018-08-22T10:50:53Z</time>
      </trkpt>
      <trkpt lat="48.08904" lon="6.86949">
        <ele>926.85</ele>
        <time>2018-08-22T10:51:11Z</time>
      </trkpt>
      <trkpt lat="48.08904" lon="6.86951">
        <ele>927.33</ele>
        <time>2018-08-22T10:51:26Z</time>
      </trkpt>
      <trkpt lat="48.08906" lon="6.86948">
        <ele>927.33</ele>
        <time>2018-08-22T10:51:44Z</time>
      </trkpt>
      <trkpt lat="48.08906" lon="6.86951">
        <ele>927.81</ele>
        <time>2018-08-22T10:52:28Z</time>
      </trkpt>
      <trkpt lat="48.08904" lon="6.86945">
        <ele>927.81</ele>
        <time>2018-08-22T10:52:35Z</time>
      </trkpt>
      <trkpt lat="48.08901" lon="6.86917">
        <ele>928.77</ele>
        <time>2018-08-22T10:52:51Z</time>
      </trkpt>
      <trkpt lat="48.08896" lon="6.86898">
        <ele>928.77</ele>
        <time>2018-08-22T10:53:05Z</time>
      </trkpt>
      <trkpt lat="48.08891" lon="6.86871">
        <ele>930.21</ele>
        <time>2018-08-22T10:53:21Z</time>
      </trkpt>
      <trkpt lat="48.08889" lon="6.86846">
        <ele>930.21</ele>
        <time>2018-08-22T10:53:37Z</time>
      </trkpt>
      <trkpt lat="48.08889" lon="6.86845">
        <ele>930.21</ele>
        <time>2018-08-22T10:53:38Z</time>
      </trkpt>
      <trkpt lat="48.08889" lon="6.86825">
        <ele>930.21</ele>
        <time>2018-08-22T10:53:53Z</time>
      </trkpt>
      <trkpt lat="48.08891" lon="6.86811">
        <ele>930.21</ele>
        <time>2018-08-22T10:54:03Z</time>
      </trkpt>
      <trkpt lat="48.08893" lon="6.86801">
        <ele>930.21</ele>
        <time>2018-08-22T10:54:08Z</time>
      </trkpt>
      <trkpt lat="48.08892" lon="6.86776">
        <ele>930.21</ele>
        <time>2018-08-22T10:54:24Z</time>
      </trkpt>
      <trkpt lat="48.08892" lon="6.86759">
        <ele>928.77</ele>
        <time>2018-08-22T10:54:33Z</time>
      </trkpt>
      <trkpt lat="48.08893" lon="6.86735">
        <ele>928.29</ele>
        <time>2018-08-22T10:54:47Z</time>
      </trkpt>
      <trkpt lat="48.08891" lon="6.86709">
        <ele>927.33</ele>
        <time>2018-08-22T10:55:03Z</time>
      </trkpt>
      <trkpt lat="48.08888" lon="6.86688">
        <ele>927.33</ele>
        <time>2018-08-22T10:55:16Z</time>
      </trkpt>
      <trkpt lat="48.08888" lon="6.86664">
        <ele>926.85</ele>
        <time>2018-08-22T10:55:29Z</time>
      </trkpt>
      <trkpt lat="48.08885" lon="6.86641">
        <ele>926.37</ele>
        <time>2018-08-22T10:55:44Z</time>
      </trkpt>
      <trkpt lat="48.08885" lon="6.8661">
        <ele>925.41</ele>
        <time>2018-08-22T10:56:01Z</time>
      </trkpt>
      <trkpt lat="48.08885" lon="6.86604">
        <ele>925.41</ele>
        <time>2018-08-22T10:56:05Z</time>
      </trkpt>
      <trkpt lat="48.08883" lon="6.86584">
        <ele>924.45</ele>
        <time>2018-08-22T10:56:20Z</time>
      </trkpt>
      <trkpt lat="48.08871" lon="6.86563">
        <ele>924.45</ele>
        <time>2018-08-22T10:56:37Z</time>
      </trkpt>
      <trkpt lat="48.08857" lon="6.86553">
        <ele>924.45</ele>
        <time>2018-08-22T10:56:50Z</time>
      </trkpt>
      <trkpt lat="48.08841" lon="6.86542">
        <ele>925.41</ele>
        <time>2018-08-22T10:57:07Z</time>
      </trkpt>
      <trkpt lat="48.0884" lon="6.86541">
        <ele>925.41</ele>
        <time>2018-08-22T10:57:08Z</time>
      </trkpt>
      <trkpt lat="48.0883" lon="6.86533">
        <ele>925.41</ele>
        <time>2018-08-22T10:57:17Z</time>
      </trkpt>
      <trkpt lat="48.08829" lon="6.8653">
        <ele>925.89</ele>
        <time>2018-08-22T10:57:19Z</time>
      </trkpt>
      <trkpt lat="48.08816" lon="6.86509">
        <ele>926.37</ele>
        <time>2018-08-22T10:57:37Z</time>
      </trkpt>
      <trkpt lat="48.08807" lon="6.86484">
        <ele>927.81</ele>
        <time>2018-08-22T10:57:54Z</time>
      </trkpt>
      <trkpt lat="48.08798" lon="6.8646">
        <ele>929.25</ele>
        <time>2018-08-22T10:58:12Z</time>
      </trkpt>
      <trkpt lat="48.08787" lon="6.86435">
        <ele>931.17</ele>
        <time>2018-08-22T10:58:29Z</time>
      </trkpt>
      <trkpt lat="48.08777" lon="6.86413">
        <ele>933.1</ele>
        <time>2018-08-22T10:58:45Z</time>
      </trkpt>
      <trkpt lat="48.08769" lon="6.86385">
        <ele>933.58</ele>
        <time>2018-08-22T10:59:01Z</time>
      </trkpt>
      <trkpt lat="48.08761" lon="6.86357">
        <ele>934.06</ele>
        <time>2018-08-22T10:59:15Z</time>
      </trkpt>
      <trkpt lat="48.08755" lon="6.86331">
        <ele>934.06</ele>
        <time>2018-08-22T10:59:33Z</time>
      </trkpt>
      <trkpt lat="48.08743" lon="6.863">
        <ele>934.54</ele>
        <time>2018-08-22T10:59:50Z</time>
      </trkpt>
      <trkpt lat="48.08736" lon="6.86274">
        <ele>933.1</ele>
        <time>2018-08-22T11:00:05Z</time>
      </trkpt>
      <trkpt lat="48.08724" lon="6.8625">
        <ele>932.62</ele>
        <time>2018-08-22T11:00:22Z</time>
      </trkpt>
      <trkpt lat="48.08723" lon="6.86246">
        <ele>932.62</ele>
        <time>2018-08-22T11:00:32Z</time>
      </trkpt>
      <trkpt lat="48.08726" lon="6.86221">
        <ele>933.1</ele>
        <time>2018-08-22T11:00:47Z</time>
      </trkpt>
      <trkpt lat="48.08732" lon="6.86189">
        <ele>934.06</ele>
        <time>2018-08-22T11:01:04Z</time>
      </trkpt>
      <trkpt lat="48.08729" lon="6.86159">
        <ele>935.5</ele>
        <time>2018-08-22T11:01:22Z</time>
      </trkpt>
      <trkpt lat="48.08727" lon="6.86155">
        <ele>934.06</ele>
        <time>2018-08-22T11:01:26Z</time>
      </trkpt>
      <trkpt lat="48.08713" lon="6.86137">
        <ele>933.1</ele>
        <time>2018-08-22T11:01:41Z</time>
      </trkpt>
      <trkpt lat="48.08699" lon="6.8612">
        <ele>932.14</ele>
        <time>2018-08-22T11:01:57Z</time>
      </trkpt>
      <trkpt lat="48.08686" lon="6.86105">
        <ele>932.14</ele>
        <time>2018-08-22T11:02:11Z</time>
      </trkpt>
      <trkpt lat="48.08669" lon="6.86082">
        <ele>930.21</ele>
        <time>2018-08-22T11:02:30Z</time>
      </trkpt>
      <trkpt lat="48.08657" lon="6.86058">
        <ele>927.81</ele>
        <time>2018-08-22T11:02:47Z</time>
      </trkpt>
      <trkpt lat="48.08647" lon="6.86044">
        <ele>926.85</ele>
        <time>2018-08-22T11:02:57Z</time>
      </trkpt>
      <trkpt lat="48.08642" lon="6.86038">
        <ele>926.85</ele>
        <time>2018-08-22T11:03:02Z</time>
      </trkpt>
      <trkpt lat="48.08633" lon="6.86027">
        <ele>924.93</ele>
        <time>2018-08-22T11:03:10Z</time>
      </trkpt>
      <trkpt lat="48.08627" lon="6.86017">
        <ele>924.93</ele>
        <time>2018-08-22T11:03:16Z</time>
      </trkpt>
      <trkpt lat="48.08615" lon="6.85998">
        <ele>923</ele>
        <time>2018-08-22T11:03:31Z</time>
      </trkpt>
      <trkpt lat="48.08597" lon="6.85966">
        <ele>921.08</ele>
        <time>2018-08-22T11:03:49Z</time>
      </trkpt>
      <trkpt lat="48.08586" lon="6.85941">
        <ele>919.16</ele>
        <time>2018-08-22T11:04:04Z</time>
      </trkpt>
      <trkpt lat="48.08574" lon="6.85917">
        <ele>918.2</ele>
        <time>2018-08-22T11:04:19Z</time>
      </trkpt>
      <trkpt lat="48.08563" lon="6.85892">
        <ele>916.27</ele>
        <time>2018-08-22T11:04:36Z</time>
      </trkpt>
      <trkpt lat="48.08561" lon="6.85867">
        <ele>915.79</ele>
        <time>2018-08-22T11:04:50Z</time>
      </trkpt>
      <trkpt lat="48.08557" lon="6.85838">
        <ele>914.83</ele>
        <time>2018-08-22T11:05:05Z</time>
      </trkpt>
      <trkpt lat="48.08554" lon="6.85815">
        <ele>915.31</ele>
        <time>2018-08-22T11:05:20Z</time>
      </trkpt>
      <trkpt lat="48.08552" lon="6.85788">
        <ele>914.35</ele>
        <time>2018-08-22T11:05:35Z</time>
      </trkpt>
      <trkpt lat="48.08548" lon="6.8575">
        <ele>914.35</ele>
        <time>2018-08-22T11:05:52Z</time>
      </trkpt>
      <trkpt lat="48.08543" lon="6.85718">
        <ele>914.35</ele>
        <time>2018-08-22T11:06:08Z</time>
      </trkpt>
      <trkpt lat="48.0854" lon="6.85688">
        <ele>913.87</ele>
        <time>2018-08-22T11:06:24Z</time>
      </trkpt>
      <trkpt lat="48.08539" lon="6.85684">
        <ele>913.87</ele>
        <time>2018-08-22T11:06:26Z</time>
      </trkpt>
      <trkpt lat="48.08533" lon="6.85649">
        <ele>913.39</ele>
        <time>2018-08-22T11:06:43Z</time>
      </trkpt>
      <trkpt lat="48.08533" lon="6.85642">
        <ele>913.39</ele>
        <time>2018-08-22T11:06:46Z</time>
      </trkpt>
      <trkpt lat="48.08532" lon="6.85621">
        <ele>913.87</ele>
        <time>2018-08-22T11:06:57Z</time>
      </trkpt>
      <trkpt lat="48.0853" lon="6.85609">
        <ele>912.43</ele>
        <time>2018-08-22T11:07:02Z</time>
      </trkpt>
      <trkpt lat="48.08526" lon="6.85588">
        <ele>912.43</ele>
        <time>2018-08-22T11:07:13Z</time>
      </trkpt>
      <trkpt lat="48.08517" lon="6.85576">
        <ele>912.43</ele>
        <time>2018-08-22T11:07:28Z</time>
      </trkpt>
      <trkpt lat="48.08511" lon="6.85571">
        <ele>911.95</ele>
        <time>2018-08-22T11:07:49Z</time>
      </trkpt>
      <trkpt lat="48.0851" lon="6.85561">
        <ele>911.95</ele>
        <time>2018-08-22T11:08:24Z</time>
      </trkpt>
      <trkpt lat="48.0851" lon="6.85569">
        <ele>911.47</ele>
        <time>2018-08-22T11:08:40Z</time>
      </trkpt>
      <trkpt lat="48.08507" lon="6.85584">
        <ele>911.47</ele>
        <time>2018-08-22T11:09:07Z</time>
      </trkpt>
      <trkpt lat="48.08508" lon="6.85586">
        <ele>911.47</ele>
        <time>2018-08-22T11:09:35Z</time>
      </trkpt>
      <trkpt lat="48.0851" lon="6.85584">
        <ele>911.47</ele>
        <time>2018-08-22T11:10:04Z</time>
      </trkpt>
      <trkpt lat="48.0851" lon="6.85583">
        <ele>911.47</ele>
        <time>2018-08-22T11:10:33Z</time>
      </trkpt>
      <trkpt lat="48.08513" lon="6.85581">
        <ele>911.95</ele>
        <time>2018-08-22T11:11:03Z</time>
      </trkpt>
      <trkpt lat="48.08521" lon="6.85579">
        <ele>911.95</ele>
        <time>2018-08-22T11:11:36Z</time>
      </trkpt>
      <trkpt lat="48.08523" lon="6.85571">
        <ele>911.95</ele>
        <time>2018-08-22T11:11:59Z</time>
      </trkpt>
      <trkpt lat="48.08513" lon="6.85572">
        <ele>911.95</ele>
        <time>2018-08-22T11:12:32Z</time>
      </trkpt>
      <trkpt lat="48.08511" lon="6.85573">
        <ele>911.95</ele>
        <time>2018-08-22T11:13:07Z</time>
      </trkpt>
      <trkpt lat="48.0851" lon="6.85574">
        <ele>911.95</ele>
        <time>2018-08-22T11:13:32Z</time>
      </trkpt>
      <trkpt lat="48.0851" lon="6.8558">
        <ele>911.95</ele>
        <time>2018-08-22T11:13:55Z</time>
      </trkpt>
      <trkpt lat="48.08506" lon="6.85587">
        <ele>911.95</ele>
        <time>2018-08-22T11:14:29Z</time>
      </trkpt>
      <trkpt lat="48.08507" lon="6.85586">
        <ele>912.43</ele>
        <time>2018-08-22T11:15:04Z</time>
      </trkpt>
      <trkpt lat="48.0851" lon="6.85587">
        <ele>912.91</ele>
        <time>2018-08-22T11:15:37Z</time>
      </trkpt>
      <trkpt lat="48.0851" lon="6.85585">
        <ele>912.91</ele>
        <time>2018-08-22T11:16:05Z</time>
      </trkpt>
      <trkpt lat="48.08507" lon="6.85584">
        <ele>913.39</ele>
        <time>2018-08-22T11:16:37Z</time>
      </trkpt>
      <trkpt lat="48.0851" lon="6.85586">
        <ele>913.39</ele>
        <time>2018-08-22T11:17:11Z</time>
      </trkpt>
      <trkpt lat="48.08509" lon="6.85582">
        <ele>913.87</ele>
        <time>2018-08-22T11:17:51Z</time>
      </trkpt>
      <trkpt lat="48.08511" lon="6.85581">
        <ele>913.87</ele>
        <time>2018-08-22T11:18:18Z</time>
      </trkpt>
      <trkpt lat="48.08513" lon="6.85581">
        <ele>913.87</ele>
        <time>2018-08-22T11:18:46Z</time>
      </trkpt>
      <trkpt lat="48.08515" lon="6.85581">
        <ele>913.87</ele>
        <time>2018-08-22T11:19:18Z</time>
      </trkpt>
      <trkpt lat="48.08514" lon="6.85578">
        <ele>913.87</ele>
        <time>2018-08-22T11:19:50Z</time>
      </trkpt>
      <trkpt lat="48.08515" lon="6.85573">
        <ele>913.87</ele>
        <time>2018-08-22T11:20:20Z</time>
      </trkpt>
      <trkpt lat="48.08513" lon="6.85578">
        <ele>913.87</ele>
        <time>2018-08-22T11:20:51Z</time>
      </trkpt>
      <trkpt lat="48.08511" lon="6.85584">
        <ele>914.35</ele>
        <time>2018-08-22T11:21:20Z</time>
      </trkpt>
      <trkpt lat="48.08516" lon="6.85584">
        <ele>915.31</ele>
        <time>2018-08-22T11:21:47Z</time>
      </trkpt>
      <trkpt lat="48.08516" lon="6.85582">
        <ele>915.79</ele>
        <time>2018-08-22T11:22:21Z</time>
      </trkpt>
      <trkpt lat="48.08518" lon="6.85585">
        <ele>915.79</ele>
        <time>2018-08-22T11:22:45Z</time>
      </trkpt>
      <trkpt lat="48.08513" lon="6.85586">
        <ele>915.79</ele>
        <time>2018-08-22T11:23:13Z</time>
      </trkpt>
      <trkpt lat="48.08509" lon="6.85587">
        <ele>915.79</ele>
        <time>2018-08-22T11:23:51Z</time>
      </trkpt>
      <trkpt lat="48.0851" lon="6.85584">
        <ele>915.79</ele>
        <time>2018-08-22T11:24:23Z</time>
      </trkpt>
      <trkpt lat="48.08511" lon="6.85583">
        <ele>915.79</ele>
        <time>2018-08-22T11:24:49Z</time>
      </trkpt>
      <trkpt lat="48.08512" lon="6.85581">
        <ele>915.79</ele>
        <time>2018-08-22T11:25:10Z</time>
      </trkpt>
      <trkpt lat="48.0851" lon="6.85583">
        <ele>915.79</ele>
        <time>2018-08-22T11:25:36Z</time>
      </trkpt>
      <trkpt lat="48.0851" lon="6.85582">
        <ele>915.79</ele>
        <time>2018-08-22T11:26:07Z</time>
      </trkpt>
      <trkpt lat="48.08508" lon="6.85585">
        <ele>916.27</ele>
        <time>2018-08-22T11:26:40Z</time>
      </trkpt>
      <trkpt lat="48.08509" lon="6.85584">
        <ele>916.27</ele>
        <time>2018-08-22T11:27:12Z</time>
      </trkpt>
      <trkpt lat="48.08509" lon="6.85582">
        <ele>916.27</ele>
        <time>2018-08-22T11:27:44Z</time>
      </trkpt>
      <trkpt lat="48.08509" lon="6.85581">
        <ele>916.27</ele>
        <time>2018-08-22T11:28:16Z</time>
      </trkpt>
      <trkpt lat="48.08509" lon="6.85583">
        <ele>916.27</ele>
        <time>2018-08-22T11:28:47Z</time>
      </trkpt>
      <trkpt lat="48.08511" lon="6.85586">
        <ele>916.27</ele>
        <time>2018-08-22T11:29:22Z</time>
      </trkpt>
      <trkpt lat="48.08514" lon="6.85584">
        <ele>916.27</ele>
        <time>2018-08-22T11:29:52Z</time>
      </trkpt>
      <trkpt lat="48.08512" lon="6.85584">
        <ele>916.27</ele>
        <time>2018-08-22T11:30:21Z</time>
      </trkpt>
      <trkpt lat="48.08515" lon="6.85582">
        <ele>916.27</ele>
        <time>2018-08-22T11:30:45Z</time>
      </trkpt>
      <trkpt lat="48.08514" lon="6.8558">
        <ele>916.27</ele>
        <time>2018-08-22T11:31:03Z</time>
      </trkpt>
      <trkpt lat="48.08516" lon="6.85575">
        <ele>916.27</ele>
        <time>2018-08-22T11:31:31Z</time>
      </trkpt>
      <trkpt lat="48.08516" lon="6.85578">
        <ele>916.27</ele>
        <time>2018-08-22T11:31:52Z</time>
      </trkpt>
      <trkpt lat="48.08516" lon="6.85587">
        <ele>916.27</ele>
        <time>2018-08-22T11:32:28Z</time>
      </trkpt>
      <trkpt lat="48.08513" lon="6.85583">
        <ele>916.27</ele>
        <time>2018-08-22T11:32:56Z</time>
      </trkpt>
      <trkpt lat="48.08511" lon="6.85581">
        <ele>916.27</ele>
        <time>2018-08-22T11:33:26Z</time>
      </trkpt>
      <trkpt lat="48.08514" lon="6.85581">
        <ele>916.75</ele>
        <time>2018-08-22T11:34:01Z</time>
      </trkpt>
      <trkpt lat="48.08512" lon="6.85585">
        <ele>916.75</ele>
        <time>2018-08-22T11:34:35Z</time>
      </trkpt>
      <trkpt lat="48.08512" lon="6.85579">
        <ele>916.75</ele>
        <time>2018-08-22T11:35:02Z</time>
      </trkpt>
      <trkpt lat="48.08516" lon="6.8558">
        <ele>916.75</ele>
        <time>2018-08-22T11:35:22Z</time>
      </trkpt>
      <trkpt lat="48.08519" lon="6.85579">
        <ele>916.75</ele>
        <time>2018-08-22T11:35:43Z</time>
      </trkpt>
      <trkpt lat="48.08516" lon="6.85575">
        <ele>916.75</ele>
        <time>2018-08-22T11:36:08Z</time>
      </trkpt>
      <trkpt lat="48.08517" lon="6.85579">
        <ele>916.75</ele>
        <time>2018-08-22T11:36:34Z</time>
      </trkpt>
      <trkpt lat="48.08515" lon="6.85582">
        <ele>916.75</ele>
        <time>2018-08-22T11:37:11Z</time>
      </trkpt>
      <trkpt lat="48.08514" lon="6.8558">
        <ele>916.75</ele>
        <time>2018-08-22T11:37:39Z</time>
      </trkpt>
      <trkpt lat="48.08512" lon="6.85587">
        <ele>916.75</ele>
        <time>2018-08-22T11:38:13Z</time>
      </trkpt>
      <trkpt lat="48.08511" lon="6.85585">
        <ele>917.24</ele>
        <time>2018-08-22T11:38:42Z</time>
      </trkpt>
      <trkpt lat="48.08513" lon="6.85588">
        <ele>917.24</ele>
        <time>2018-08-22T11:39:12Z</time>
      </trkpt>
      <trkpt lat="48.08514" lon="6.85587">
        <ele>917.24</ele>
        <time>2018-08-22T11:39:34Z</time>
      </trkpt>
      <trkpt lat="48.08517" lon="6.85585">
        <ele>917.24</ele>
        <time>2018-08-22T11:40:10Z</time>
      </trkpt>
      <trkpt lat="48.08512" lon="6.85587">
        <ele>917.24</ele>
        <time>2018-08-22T11:40:48Z</time>
      </trkpt>
      <trkpt lat="48.08517" lon="6.85581">
        <ele>917.24</ele>
        <time>2018-08-22T11:41:24Z</time>
      </trkpt>
      <trkpt lat="48.08513" lon="6.85586">
        <ele>917.24</ele>
        <time>2018-08-22T11:42:03Z</time>
      </trkpt>
      <trkpt lat="48.08514" lon="6.85577">
        <ele>916.75</ele>
        <time>2018-08-22T11:42:41Z</time>
      </trkpt>
      <trkpt lat="48.08514" lon="6.85577">
        <ele>916.75</ele>
        <time>2018-08-22T11:43:08Z</time>
      </trkpt>
      <trkpt lat="48.08519" lon="6.85581">
        <ele>916.75</ele>
        <time>2018-08-22T11:43:43Z</time>
      </trkpt>
      <trkpt lat="48.08515" lon="6.85571">
        <ele>916.75</ele>
        <time>2018-08-22T11:44:14Z</time>
      </trkpt>
      <trkpt lat="48.08518" lon="6.85576">
        <ele>916.75</ele>
        <time>2018-08-22T11:44:50Z</time>
      </trkpt>
      <trkpt lat="48.08518" lon="6.85569">
        <ele>917.24</ele>
        <time>2018-08-22T11:45:16Z</time>
      </trkpt>
      <trkpt lat="48.08515" lon="6.85566">
        <ele>916.75</ele>
        <time>2018-08-22T11:45:36Z</time>
      </trkpt>
      <trkpt lat="48.08514" lon="6.85565">
        <ele>916.75</ele>
        <time>2018-08-22T11:46:13Z</time>
      </trkpt>
      <trkpt lat="48.08513" lon="6.85566">
        <ele>916.27</ele>
        <time>2018-08-22T11:46:44Z</time>
      </trkpt>
      <trkpt lat="48.08519" lon="6.85566">
        <ele>916.27</ele>
        <time>2018-08-22T11:47:18Z</time>
      </trkpt>
      <trkpt lat="48.08518" lon="6.85572">
        <ele>916.27</ele>
        <time>2018-08-22T11:47:58Z</time>
      </trkpt>
      <trkpt lat="48.08507" lon="6.85573">
        <ele>915.79</ele>
        <time>2018-08-22T11:48:31Z</time>
      </trkpt>
      <trkpt lat="48.08509" lon="6.85566">
        <ele>915.79</ele>
        <time>2018-08-22T11:49:00Z</time>
      </trkpt>
      <trkpt lat="48.08514" lon="6.85568">
        <ele>915.79</ele>
        <time>2018-08-22T11:49:22Z</time>
      </trkpt>
      <trkpt lat="48.08498" lon="6.85567">
        <ele>914.83</ele>
        <time>2018-08-22T11:49:39Z</time>
      </trkpt>
      <trkpt lat="48.08495" lon="6.8557">
        <ele>914.83</ele>
        <time>2018-08-22T11:49:57Z</time>
      </trkpt>
      <trkpt lat="48.08499" lon="6.85564">
        <ele>914.83</ele>
        <time>2018-08-22T11:50:13Z</time>
      </trkpt>
      <trkpt lat="48.08498" lon="6.85564">
        <ele>914.83</ele>
        <time>2018-08-22T11:50:30Z</time>
      </trkpt>
      <trkpt lat="48.08493" lon="6.85559">
        <ele>914.35</ele>
        <time>2018-08-22T11:50:54Z</time>
      </trkpt>
      <trkpt lat="48.08493" lon="6.85549">
        <ele>914.35</ele>
        <time>2018-08-22T11:51:15Z</time>
      </trkpt>
      <trkpt lat="48.08495" lon="6.85553">
        <ele>914.35</ele>
        <time>2018-08-22T11:51:35Z</time>
      </trkpt>
      <trkpt lat="48.08491" lon="6.85557">
        <ele>913.87</ele>
        <time>2018-08-22T11:52:04Z</time>
      </trkpt>
      <trkpt lat="48.08498" lon="6.85558">
        <ele>913.87</ele>
        <time>2018-08-22T11:52:38Z</time>
      </trkpt>
      <trkpt lat="48.08499" lon="6.85562">
        <ele>913.87</ele>
        <time>2018-08-22T11:53:06Z</time>
      </trkpt>
      <trkpt lat="48.085" lon="6.85557">
        <ele>913.39</ele>
        <time>2018-08-22T11:53:30Z</time>
      </trkpt>
      <trkpt lat="48.085" lon="6.85553">
        <ele>913.39</ele>
        <time>2018-08-22T11:54:03Z</time>
      </trkpt>
      <trkpt lat="48.08499" lon="6.85556">
        <ele>913.39</ele>
        <time>2018-08-22T11:54:33Z</time>
      </trkpt>
      <trkpt lat="48.08503" lon="6.85557">
        <ele>913.39</ele>
        <time>2018-08-22T11:54:56Z</time>
      </trkpt>
      <trkpt lat="48.08505" lon="6.85541">
        <ele>914.35</ele>
        <time>2018-08-22T11:55:13Z</time>
      </trkpt>
      <trkpt lat="48.08509" lon="6.85532">
        <ele>914.35</ele>
        <time>2018-08-22T11:55:30Z</time>
      </trkpt>
      <trkpt lat="48.08518" lon="6.85525">
        <ele>914.35</ele>
        <time>2018-08-22T11:55:44Z</time>
      </trkpt>
      <trkpt lat="48.08529" lon="6.85518">
        <ele>912.91</ele>
        <time>2018-08-22T11:56:01Z</time>
      </trkpt>
      <trkpt lat="48.08546" lon="6.85508">
        <ele>912.91</ele>
        <time>2018-08-22T11:56:20Z</time>
      </trkpt>
      <trkpt lat="48.08561" lon="6.85498">
        <ele>912.43</ele>
        <time>2018-08-22T11:56:37Z</time>
      </trkpt>
      <trkpt lat="48.08566" lon="6.85495">
        <ele>912.43</ele>
        <time>2018-08-22T11:56:42Z</time>
      </trkpt>
      <trkpt lat="48.08576" lon="6.85486">
        <ele>912.43</ele>
        <time>2018-08-22T11:56:55Z</time>
      </trkpt>
      <trkpt lat="48.08595" lon="6.85472">
        <ele>911.95</ele>
        <time>2018-08-22T11:57:12Z</time>
      </trkpt>
      <trkpt lat="48.08614" lon="6.85463">
        <ele>911.47</ele>
        <time>2018-08-22T11:57:28Z</time>
      </trkpt>
      <trkpt lat="48.08637" lon="6.85452">
        <ele>910.99</ele>
        <time>2018-08-22T11:57:47Z</time>
      </trkpt>
      <trkpt lat="48.08646" lon="6.85446">
        <ele>910.99</ele>
        <time>2018-08-22T11:58:00Z</time>
      </trkpt>
      <trkpt lat="48.08662" lon="6.85446">
        <ele>910.99</ele>
        <time>2018-08-22T11:58:15Z</time>
      </trkpt>
      <trkpt lat="48.08677" lon="6.85448">
        <ele>910.99</ele>
        <time>2018-08-22T11:58:31Z</time>
      </trkpt>
      <trkpt lat="48.08693" lon="6.85454">
        <ele>910.51</ele>
        <time>2018-08-22T11:58:47Z</time>
      </trkpt>
      <trkpt lat="48.08713" lon="6.85462">
        <ele>909.54</ele>
        <time>2018-08-22T11:59:04Z</time>
      </trkpt>
      <trkpt lat="48.08726" lon="6.85465">
        <ele>910.03</ele>
        <time>2018-08-22T11:59:15Z</time>
      </trkpt>
      <trkpt lat="48.0875" lon="6.85476">
        <ele>910.03</ele>
        <time>2018-08-22T11:59:34Z</time>
      </trkpt>
      <trkpt lat="48.08759" lon="6.85483">
        <ele>910.51</ele>
        <time>2018-08-22T11:59:41Z</time>
      </trkpt>
      <trkpt lat="48.08778" lon="6.85499">
        <ele>910.51</ele>
        <time>2018-08-22T11:59:55Z</time>
      </trkpt>
      <trkpt lat="48.08784" lon="6.85507">
        <ele>909.06</ele>
        <time>2018-08-22T12:00:01Z</time>
      </trkpt>
      <trkpt lat="48.08799" lon="6.85528">
        <ele>909.06</ele>
        <time>2018-08-22T12:00:17Z</time>
      </trkpt>
      <trkpt lat="48.08816" lon="6.85539">
        <ele>909.06</ele>
        <time>2018-08-22T12:00:33Z</time>
      </trkpt>
      <trkpt lat="48.08835" lon="6.85543">
        <ele>908.58</ele>
        <time>2018-08-22T12:00:52Z</time>
      </trkpt>
      <trkpt lat="48.08844" lon="6.85538">
        <ele>909.54</ele>
        <time>2018-08-22T12:01:01Z</time>
      </trkpt>
      <trkpt lat="48.08861" lon="6.85515">
        <ele>909.54</ele>
        <time>2018-08-22T12:01:16Z</time>
      </trkpt>
      <trkpt lat="48.08867" lon="6.85508">
        <ele>908.1</ele>
        <time>2018-08-22T12:01:22Z</time>
      </trkpt>
      <trkpt lat="48.08881" lon="6.85494">
        <ele>907.62</ele>
        <time>2018-08-22T12:01:36Z</time>
      </trkpt>
      <trkpt lat="48.08895" lon="6.85477">
        <ele>907.62</ele>
        <time>2018-08-22T12:01:51Z</time>
      </trkpt>
      <trkpt lat="48.08912" lon="6.8546">
        <ele>907.62</ele>
        <time>2018-08-22T12:02:07Z</time>
      </trkpt>
      <trkpt lat="48.08923" lon="6.85446">
        <ele>907.62</ele>
        <time>2018-08-22T12:02:18Z</time>
      </trkpt>
      <trkpt lat="48.08936" lon="6.85433">
        <ele>907.14</ele>
        <time>2018-08-22T12:02:32Z</time>
      </trkpt>
      <trkpt lat="48.08949" lon="6.85421">
        <ele>907.14</ele>
        <time>2018-08-22T12:02:47Z</time>
      </trkpt>
      <trkpt lat="48.0895" lon="6.8542">
        <ele>907.14</ele>
        <time>2018-08-22T12:02:48Z</time>
      </trkpt>
      <trkpt lat="48.08954" lon="6.85415">
        <ele>907.14</ele>
        <time>2018-08-22T12:02:52Z</time>
      </trkpt>
      <trkpt lat="48.08972" lon="6.85396">
        <ele>906.66</ele>
        <time>2018-08-22T12:03:09Z</time>
      </trkpt>
      <trkpt lat="48.08986" lon="6.85381">
        <ele>906.66</ele>
        <time>2018-08-22T12:03:24Z</time>
      </trkpt>
      <trkpt lat="48.08997" lon="6.85368">
        <ele>906.66</ele>
        <time>2018-08-22T12:03:39Z</time>
      </trkpt>
      <trkpt lat="48.09" lon="6.85366">
        <ele>906.66</ele>
        <time>2018-08-22T12:03:42Z</time>
      </trkpt>
      <trkpt lat="48.09017" lon="6.8534">
        <ele>906.66</ele>
        <time>2018-08-22T12:03:58Z</time>
      </trkpt>
      <trkpt lat="48.09031" lon="6.85326">
        <ele>906.66</ele>
        <time>2018-08-22T12:04:12Z</time>
      </trkpt>
      <trkpt lat="48.09049" lon="6.8531">
        <ele>906.66</ele>
        <time>2018-08-22T12:04:28Z</time>
      </trkpt>
      <trkpt lat="48.09068" lon="6.85289">
        <ele>906.66</ele>
        <time>2018-08-22T12:04:48Z</time>
      </trkpt>
      <trkpt lat="48.09085" lon="6.8527">
        <ele>906.66</ele>
        <time>2018-08-22T12:05:05Z</time>
      </trkpt>
      <trkpt lat="48.09105" lon="6.85252">
        <ele>906.66</ele>
        <time>2018-08-22T12:05:24Z</time>
      </trkpt>
      <trkpt lat="48.09121" lon="6.85236">
        <ele>907.62</ele>
        <time>2018-08-22T12:05:41Z</time>
      </trkpt>
      <trkpt lat="48.09133" lon="6.85223">
        <ele>906.18</ele>
        <time>2018-08-22T12:05:53Z</time>
      </trkpt>
      <trkpt lat="48.09153" lon="6.85204">
        <ele>906.18</ele>
        <time>2018-08-22T12:06:12Z</time>
      </trkpt>
      <trkpt lat="48.09156" lon="6.85201">
        <ele>907.62</ele>
        <time>2018-08-22T12:06:15Z</time>
      </trkpt>
      <trkpt lat="48.09159" lon="6.85198">
        <ele>906.18</ele>
        <time>2018-08-22T12:06:18Z</time>
      </trkpt>
      <trkpt lat="48.09177" lon="6.8518">
        <ele>906.18</ele>
        <time>2018-08-22T12:06:36Z</time>
      </trkpt>
      <trkpt lat="48.09195" lon="6.85164">
        <ele>906.66</ele>
        <time>2018-08-22T12:06:53Z</time>
      </trkpt>
      <trkpt lat="48.09213" lon="6.85146">
        <ele>906.66</ele>
        <time>2018-08-22T12:07:11Z</time>
      </trkpt>
      <trkpt lat="48.09215" lon="6.85144">
        <ele>907.62</ele>
        <time>2018-08-22T12:07:13Z</time>
      </trkpt>
      <trkpt lat="48.09235" lon="6.85127">
        <ele>907.62</ele>
        <time>2018-08-22T12:07:32Z</time>
      </trkpt>
      <trkpt lat="48.09243" lon="6.85119">
        <ele>907.62</ele>
        <time>2018-08-22T12:07:42Z</time>
      </trkpt>
      <trkpt lat="48.09256" lon="6.85105">
        <ele>908.1</ele>
        <time>2018-08-22T12:07:56Z</time>
      </trkpt>
      <trkpt lat="48.09273" lon="6.85088">
        <ele>908.1</ele>
        <time>2018-08-22T12:08:14Z</time>
      </trkpt>
      <trkpt lat="48.0929" lon="6.85069">
        <ele>908.1</ele>
        <time>2018-08-22T12:08:31Z</time>
      </trkpt>
      <trkpt lat="48.09302" lon="6.85052">
        <ele>908.1</ele>
        <time>2018-08-22T12:08:47Z</time>
      </trkpt>
      <trkpt lat="48.09307" lon="6.85047">
        <ele>908.1</ele>
        <time>2018-08-22T12:08:53Z</time>
      </trkpt>
      <trkpt lat="48.0932" lon="6.85027">
        <ele>908.1</ele>
        <time>2018-08-22T12:09:09Z</time>
      </trkpt>
      <trkpt lat="48.09335" lon="6.85013">
        <ele>908.58</ele>
        <time>2018-08-22T12:09:27Z</time>
      </trkpt>
      <trkpt lat="48.09346" lon="6.84999">
        <ele>908.58</ele>
        <time>2018-08-22T12:09:40Z</time>
      </trkpt>
      <trkpt lat="48.09363" lon="6.84979">
        <ele>908.58</ele>
        <time>2018-08-22T12:09:56Z</time>
      </trkpt>
      <trkpt lat="48.09377" lon="6.8496">
        <ele>908.58</ele>
        <time>2018-08-22T12:10:11Z</time>
      </trkpt>
      <trkpt lat="48.09394" lon="6.84943">
        <ele>909.06</ele>
        <time>2018-08-22T12:10:28Z</time>
      </trkpt>
      <trkpt lat="48.09404" lon="6.84932">
        <ele>910.03</ele>
        <time>2018-08-22T12:10:37Z</time>
      </trkpt>
      <trkpt lat="48.09416" lon="6.84916">
        <ele>910.03</ele>
        <time>2018-08-22T12:10:52Z</time>
      </trkpt>
      <trkpt lat="48.09428" lon="6.84895">
        <ele>910.51</ele>
        <time>2018-08-22T12:11:07Z</time>
      </trkpt>
      <trkpt lat="48.09432" lon="6.84879">
        <ele>910.51</ele>
        <time>2018-08-22T12:11:16Z</time>
      </trkpt>
      <trkpt lat="48.0943" lon="6.84872">
        <ele>911.47</ele>
        <time>2018-08-22T12:11:20Z</time>
      </trkpt>
      <trkpt lat="48.09425" lon="6.84853">
        <ele>911.47</ele>
        <time>2018-08-22T12:11:33Z</time>
      </trkpt>
      <trkpt lat="48.09421" lon="6.84841">
        <ele>910.51</ele>
        <time>2018-08-22T12:11:42Z</time>
      </trkpt>
      <trkpt lat="48.0942" lon="6.84839">
        <ele>910.51</ele>
        <time>2018-08-22T12:11:44Z</time>
      </trkpt>
      <trkpt lat="48.09409" lon="6.84817">
        <ele>909.06</ele>
        <time>2018-08-22T12:11:59Z</time>
      </trkpt>
      <trkpt lat="48.09405" lon="6.84815">
        <ele>909.06</ele>
        <time>2018-08-22T12:12:17Z</time>
      </trkpt>
      <trkpt lat="48.09404" lon="6.8481">
        <ele>909.06</ele>
        <time>2018-08-22T12:12:26Z</time>
      </trkpt>
      <trkpt lat="48.09402" lon="6.84798">
        <ele>910.51</ele>
        <time>2018-08-22T12:12:32Z</time>
      </trkpt>
      <trkpt lat="48.09399" lon="6.84766">
        <ele>910.51</ele>
        <time>2018-08-22T12:12:48Z</time>
      </trkpt>
      <trkpt lat="48.09399" lon="6.8475">
        <ele>910.99</ele>
        <time>2018-08-22T12:12:57Z</time>
      </trkpt>
      <trkpt lat="48.09402" lon="6.84712">
        <ele>911.47</ele>
        <time>2018-08-22T12:13:16Z</time>
      </trkpt>
      <trkpt lat="48.09403" lon="6.84687">
        <ele>912.43</ele>
        <time>2018-08-22T12:13:30Z</time>
      </trkpt>
      <trkpt lat="48.09404" lon="6.84682">
        <ele>912.43</ele>
        <time>2018-08-22T12:13:33Z</time>
      </trkpt>
      <trkpt lat="48.09406" lon="6.84653">
        <ele>913.39</ele>
        <time>2018-08-22T12:13:50Z</time>
      </trkpt>
      <trkpt lat="48.09406" lon="6.84648">
        <ele>913.39</ele>
        <time>2018-08-22T12:13:53Z</time>
      </trkpt>
      <trkpt lat="48.09406" lon="6.84617">
        <ele>913.87</ele>
        <time>2018-08-22T12:14:10Z</time>
      </trkpt>
      <trkpt lat="48.09406" lon="6.84598">
        <ele>914.35</ele>
        <time>2018-08-22T12:14:20Z</time>
      </trkpt>
      <trkpt lat="48.09405" lon="6.84571">
        <ele>914.35</ele>
        <time>2018-08-22T12:14:35Z</time>
      </trkpt>
      <trkpt lat="48.09406" lon="6.84545">
        <ele>914.35</ele>
        <time>2018-08-22T12:14:49Z</time>
      </trkpt>
      <trkpt lat="48.09407" lon="6.84541">
        <ele>914.35</ele>
        <time>2018-08-22T12:14:51Z</time>
      </trkpt>
      <trkpt lat="48.09406" lon="6.84532">
        <ele>914.35</ele>
        <time>2018-08-22T12:14:56Z</time>
      </trkpt>
      <trkpt lat="48.0941" lon="6.84508">
        <ele>914.83</ele>
        <time>2018-08-22T12:15:10Z</time>
      </trkpt>
      <trkpt lat="48.09421" lon="6.84479">
        <ele>915.31</ele>
        <time>2018-08-22T12:15:27Z</time>
      </trkpt>
      <trkpt lat="48.09422" lon="6.84473">
        <ele>915.31</ele>
        <time>2018-08-22T12:15:30Z</time>
      </trkpt>
      <trkpt lat="48.09427" lon="6.8445">
        <ele>915.31</ele>
        <time>2018-08-22T12:15:44Z</time>
      </trkpt>
      <trkpt lat="48.09432" lon="6.84434">
        <ele>914.83</ele>
        <time>2018-08-22T12:15:55Z</time>
      </trkpt>
      <trkpt lat="48.09438" lon="6.84415">
        <ele>914.83</ele>
        <time>2018-08-22T12:16:08Z</time>
      </trkpt>
      <trkpt lat="48.09444" lon="6.84387">
        <ele>914.83</ele>
        <time>2018-08-22T12:16:24Z</time>
      </trkpt>
      <trkpt lat="48.09457" lon="6.84354">
        <ele>914.83</ele>
        <time>2018-08-22T12:16:43Z</time>
      </trkpt>
      <trkpt lat="48.09458" lon="6.84352">
        <ele>914.83</ele>
        <time>2018-08-22T12:16:44Z</time>
      </trkpt>
      <trkpt lat="48.09462" lon="6.84346">
        <ele>915.79</ele>
        <time>2018-08-22T12:16:48Z</time>
      </trkpt>
      <trkpt lat="48.09474" lon="6.84323">
        <ele>915.79</ele>
        <time>2018-08-22T12:17:04Z</time>
      </trkpt>
      <trkpt lat="48.09481" lon="6.84312">
        <ele>914.35</ele>
        <time>2018-08-22T12:17:15Z</time>
      </trkpt>
      <trkpt lat="48.09485" lon="6.84305">
        <ele>913.87</ele>
        <time>2018-08-22T12:17:21Z</time>
      </trkpt>
      <trkpt lat="48.09493" lon="6.84293">
        <ele>913.87</ele>
        <time>2018-08-22T12:17:30Z</time>
      </trkpt>
      <trkpt lat="48.09503" lon="6.84273">
        <ele>912.91</ele>
        <time>2018-08-22T12:17:42Z</time>
      </trkpt>
      <trkpt lat="48.09518" lon="6.8425">
        <ele>912.43</ele>
        <time>2018-08-22T12:17:59Z</time>
      </trkpt>
      <trkpt lat="48.09533" lon="6.84226">
        <ele>911.47</ele>
        <time>2018-08-22T12:18:17Z</time>
      </trkpt>
      <trkpt lat="48.09537" lon="6.84218">
        <ele>911.47</ele>
        <time>2018-08-22T12:18:23Z</time>
      </trkpt>
      <trkpt lat="48.09539" lon="6.84216">
        <ele>911.47</ele>
        <time>2018-08-22T12:18:25Z</time>
      </trkpt>
      <trkpt lat="48.09542" lon="6.84211">
        <ele>911.47</ele>
        <time>2018-08-22T12:18:29Z</time>
      </trkpt>
      <trkpt lat="48.09547" lon="6.84198">
        <ele>910.51</ele>
        <time>2018-08-22T12:18:38Z</time>
      </trkpt>
      <trkpt lat="48.09549" lon="6.84196">
        <ele>910.51</ele>
        <time>2018-08-22T12:18:40Z</time>
      </trkpt>
      <trkpt lat="48.09555" lon="6.84179">
        <ele>909.06</ele>
        <time>2018-08-22T12:18:52Z</time>
      </trkpt>
      <trkpt lat="48.09561" lon="6.84166">
        <ele>908.58</ele>
        <time>2018-08-22T12:19:00Z</time>
      </trkpt>
      <trkpt lat="48.09573" lon="6.84143">
        <ele>907.62</ele>
        <time>2018-08-22T12:19:15Z</time>
      </trkpt>
      <trkpt lat="48.09574" lon="6.84141">
        <ele>907.62</ele>
        <time>2018-08-22T12:19:17Z</time>
      </trkpt>
      <trkpt lat="48.09587" lon="6.84116">
        <ele>907.14</ele>
        <time>2018-08-22T12:19:34Z</time>
      </trkpt>
      <trkpt lat="48.09589" lon="6.84109">
        <ele>907.14</ele>
        <time>2018-08-22T12:19:39Z</time>
      </trkpt>
      <trkpt lat="48.09594" lon="6.84086">
        <ele>906.18</ele>
        <time>2018-08-22T12:19:51Z</time>
      </trkpt>
      <trkpt lat="48.09597" lon="6.84056">
        <ele>906.18</ele>
        <time>2018-08-22T12:20:07Z</time>
      </trkpt>
      <trkpt lat="48.09598" lon="6.84045">
        <ele>906.18</ele>
        <time>2018-08-22T12:20:13Z</time>
      </trkpt>
      <trkpt lat="48.09601" lon="6.84027">
        <ele>906.18</ele>
        <time>2018-08-22T12:20:23Z</time>
      </trkpt>
      <trkpt lat="48.09604" lon="6.84008">
        <ele>906.18</ele>
        <time>2018-08-22T12:20:35Z</time>
      </trkpt>
      <trkpt lat="48.09606" lon="6.83979">
        <ele>906.18</ele>
        <time>2018-08-22T12:20:51Z</time>
      </trkpt>
      <trkpt lat="48.09606" lon="6.83969">
        <ele>906.18</ele>
        <time>2018-08-22T12:20:57Z</time>
      </trkpt>
      <trkpt lat="48.09612" lon="6.83943">
        <ele>905.7</ele>
        <time>2018-08-22T12:21:14Z</time>
      </trkpt>
      <trkpt lat="48.09614" lon="6.83936">
        <ele>906.66</ele>
        <time>2018-08-22T12:21:18Z</time>
      </trkpt>
      <trkpt lat="48.0962" lon="6.83912">
        <ele>905.22</ele>
        <time>2018-08-22T12:21:33Z</time>
      </trkpt>
      <trkpt lat="48.09621" lon="6.83911">
        <ele>905.22</ele>
        <time>2018-08-22T12:21:34Z</time>
      </trkpt>
      <trkpt lat="48.09629" lon="6.8389">
        <ele>905.7</ele>
        <time>2018-08-22T12:21:47Z</time>
      </trkpt>
      <trkpt lat="48.09636" lon="6.8387">
        <ele>905.7</ele>
        <time>2018-08-22T12:21:59Z</time>
      </trkpt>
      <trkpt lat="48.0964" lon="6.83858">
        <ele>904.26</ele>
        <time>2018-08-22T12:22:05Z</time>
      </trkpt>
      <trkpt lat="48.09644" lon="6.83851">
        <ele>905.7</ele>
        <time>2018-08-22T12:22:10Z</time>
      </trkpt>
      <trkpt lat="48.09647" lon="6.83826">
        <ele>903.78</ele>
        <time>2018-08-22T12:22:25Z</time>
      </trkpt>
      <trkpt lat="48.09647" lon="6.83825">
        <ele>903.78</ele>
        <time>2018-08-22T12:22:26Z</time>
      </trkpt>
      <trkpt lat="48.09648" lon="6.8382">
        <ele>905.22</ele>
        <time>2018-08-22T12:22:29Z</time>
      </trkpt>
      <trkpt lat="48.09648" lon="6.83819">
        <ele>905.22</ele>
        <time>2018-08-22T12:22:30Z</time>
      </trkpt>
      <trkpt lat="48.09648" lon="6.83802">
        <ele>903.78</ele>
        <time>2018-08-22T12:22:40Z</time>
      </trkpt>
      <trkpt lat="48.09649" lon="6.83798">
        <ele>904.74</ele>
        <time>2018-08-22T12:22:42Z</time>
      </trkpt>
      <trkpt lat="48.09649" lon="6.83789">
        <ele>903.78</ele>
        <time>2018-08-22T12:22:47Z</time>
      </trkpt>
      <trkpt lat="48.09648" lon="6.8377">
        <ele>903.78</ele>
        <time>2018-08-22T12:22:58Z</time>
      </trkpt>
      <trkpt lat="48.09649" lon="6.83753">
        <ele>904.74</ele>
        <time>2018-08-22T12:23:08Z</time>
      </trkpt>
      <trkpt lat="48.0965" lon="6.83744">
        <ele>903.78</ele>
        <time>2018-08-22T12:23:13Z</time>
      </trkpt>
      <trkpt lat="48.09655" lon="6.83715">
        <ele>902.82</ele>
        <time>2018-08-22T12:23:28Z</time>
      </trkpt>
      <trkpt lat="48.09657" lon="6.83687">
        <ele>901.85</ele>
        <time>2018-08-22T12:23:43Z</time>
      </trkpt>
      <trkpt lat="48.09656" lon="6.83676">
        <ele>900.41</ele>
        <time>2018-08-22T12:23:50Z</time>
      </trkpt>
      <trkpt lat="48.09655" lon="6.83666">
        <ele>900.89</ele>
        <time>2018-08-22T12:23:55Z</time>
      </trkpt>
      <trkpt lat="48.09654" lon="6.83652">
        <ele>898.97</ele>
        <time>2018-08-22T12:24:02Z</time>
      </trkpt>
      <trkpt lat="48.09653" lon="6.83629">
        <ele>898.49</ele>
        <time>2018-08-22T12:24:17Z</time>
      </trkpt>
      <trkpt lat="48.09648" lon="6.83616">
        <ele>898.01</ele>
        <time>2018-08-22T12:24:33Z</time>
      </trkpt>
      <trkpt lat="48.0965" lon="6.83597">
        <ele>896.09</ele>
        <time>2018-08-22T12:24:47Z</time>
      </trkpt>
      <trkpt lat="48.09654" lon="6.83581">
        <ele>895.61</ele>
        <time>2018-08-22T12:25:03Z</time>
      </trkpt>
      <trkpt lat="48.09652" lon="6.83578">
        <ele>895.12</ele>
        <time>2018-08-22T12:25:19Z</time>
      </trkpt>
      <trkpt lat="48.09644" lon="6.8358">
        <ele>894.64</ele>
        <time>2018-08-22T12:25:39Z</time>
      </trkpt>
      <trkpt lat="48.09648" lon="6.83577">
        <ele>896.09</ele>
        <time>2018-08-22T12:25:52Z</time>
      </trkpt>
      <trkpt lat="48.09649" lon="6.83576">
        <ele>895.61</ele>
        <time>2018-08-22T12:26:10Z</time>
      </trkpt>
      <trkpt lat="48.09649" lon="6.83577">
        <ele>895.61</ele>
        <time>2018-08-22T12:26:11Z</time>
      </trkpt>
      <trkpt lat="48.09652" lon="6.8358">
        <ele>895.61</ele>
        <time>2018-08-22T12:26:34Z</time>
      </trkpt>
      <trkpt lat="48.09653" lon="6.83574">
        <ele>895.61</ele>
        <time>2018-08-22T12:26:55Z</time>
      </trkpt>
      <trkpt lat="48.09653" lon="6.83573">
        <ele>894.64</ele>
        <time>2018-08-22T12:26:56Z</time>
      </trkpt>
      <trkpt lat="48.09651" lon="6.83565">
        <ele>894.16</ele>
        <time>2018-08-22T12:27:03Z</time>
      </trkpt>
      <trkpt lat="48.09651" lon="6.8356">
        <ele>894.16</ele>
        <time>2018-08-22T12:27:06Z</time>
      </trkpt>
      <trkpt lat="48.09655" lon="6.83538">
        <ele>892.24</ele>
        <time>2018-08-22T12:27:21Z</time>
      </trkpt>
      <trkpt lat="48.09658" lon="6.83515">
        <ele>891.76</ele>
        <time>2018-08-22T12:27:35Z</time>
      </trkpt>
      <trkpt lat="48.09665" lon="6.83485">
        <ele>889.36</ele>
        <time>2018-08-22T12:27:52Z</time>
      </trkpt>
      <trkpt lat="48.09666" lon="6.83481">
        <ele>889.84</ele>
        <time>2018-08-22T12:27:54Z</time>
      </trkpt>
      <trkpt lat="48.09668" lon="6.83469">
        <ele>888.88</ele>
        <time>2018-08-22T12:28:00Z</time>
      </trkpt>
      <trkpt lat="48.09675" lon="6.8344">
        <ele>888.88</ele>
        <time>2018-08-22T12:28:16Z</time>
      </trkpt>
      <trkpt lat="48.09676" lon="6.83417">
        <ele>888.88</ele>
        <time>2018-08-22T12:28:28Z</time>
      </trkpt>
      <trkpt lat="48.09672" lon="6.83394">
        <ele>887.91</ele>
        <time>2018-08-22T12:28:44Z</time>
      </trkpt>
      <trkpt lat="48.09672" lon="6.83386">
        <ele>887.91</ele>
        <time>2018-08-22T12:28:49Z</time>
      </trkpt>
      <trkpt lat="48.09672" lon="6.83382">
        <ele>886.95</ele>
        <time>2018-08-22T12:28:51Z</time>
      </trkpt>
      <trkpt lat="48.09676" lon="6.83365">
        <ele>885.51</ele>
        <time>2018-08-22T12:29:01Z</time>
      </trkpt>
      <trkpt lat="48.09679" lon="6.83343">
        <ele>885.51</ele>
        <time>2018-08-22T12:29:14Z</time>
      </trkpt>
      <trkpt lat="48.0969" lon="6.83323">
        <ele>884.55</ele>
        <time>2018-08-22T12:29:29Z</time>
      </trkpt>
      <trkpt lat="48.09699" lon="6.83313">
        <ele>884.55</ele>
        <time>2018-08-22T12:29:42Z</time>
      </trkpt>
      <trkpt lat="48.09707" lon="6.833">
        <ele>884.55</ele>
        <time>2018-08-22T12:29:56Z</time>
      </trkpt>
      <trkpt lat="48.09714" lon="6.83289">
        <ele>886.95</ele>
        <time>2018-08-22T12:30:08Z</time>
      </trkpt>
      <trkpt lat="48.09715" lon="6.83287">
        <ele>885.51</ele>
        <time>2018-08-22T12:30:10Z</time>
      </trkpt>
      <trkpt lat="48.09716" lon="6.8328">
        <ele>887.43</ele>
        <time>2018-08-22T12:30:16Z</time>
      </trkpt>
      <trkpt lat="48.09727" lon="6.83257">
        <ele>887.43</ele>
        <time>2018-08-22T12:30:35Z</time>
      </trkpt>
      <trkpt lat="48.09732" lon="6.83231">
        <ele>887.91</ele>
        <time>2018-08-22T12:30:48Z</time>
      </trkpt>
      <trkpt lat="48.09735" lon="6.83213">
        <ele>888.88</ele>
        <time>2018-08-22T12:31:01Z</time>
      </trkpt>
      <trkpt lat="48.09738" lon="6.83209">
        <ele>888.88</ele>
        <time>2018-08-22T12:31:05Z</time>
      </trkpt>
      <trkpt lat="48.09739" lon="6.83206">
        <ele>888.88</ele>
        <time>2018-08-22T12:31:07Z</time>
      </trkpt>
      <trkpt lat="48.09748" lon="6.8319">
        <ele>889.36</ele>
        <time>2018-08-22T12:31:22Z</time>
      </trkpt>
      <trkpt lat="48.09758" lon="6.83178">
        <ele>890.32</ele>
        <time>2018-08-22T12:31:35Z</time>
      </trkpt>
      <trkpt lat="48.09775" lon="6.83156">
        <ele>892.24</ele>
        <time>2018-08-22T12:31:51Z</time>
      </trkpt>
      <trkpt lat="48.0978" lon="6.8315">
        <ele>890.8</ele>
        <time>2018-08-22T12:31:56Z</time>
      </trkpt>
      <trkpt lat="48.09793" lon="6.83122">
        <ele>892.24</ele>
        <time>2018-08-22T12:32:13Z</time>
      </trkpt>
      <trkpt lat="48.09802" lon="6.83102">
        <ele>892.24</ele>
        <time>2018-08-22T12:32:26Z</time>
      </trkpt>
      <trkpt lat="48.09813" lon="6.83086">
        <ele>891.76</ele>
        <time>2018-08-22T12:32:39Z</time>
      </trkpt>
      <trkpt lat="48.09827" lon="6.83068">
        <ele>892.24</ele>
        <time>2018-08-22T12:32:53Z</time>
      </trkpt>
      <trkpt lat="48.09835" lon="6.83055">
        <ele>892.24</ele>
        <time>2018-08-22T12:33:05Z</time>
      </trkpt>
      <trkpt lat="48.09848" lon="6.83033">
        <ele>890.8</ele>
        <time>2018-08-22T12:33:22Z</time>
      </trkpt>
      <trkpt lat="48.09863" lon="6.83012">
        <ele>891.28</ele>
        <time>2018-08-22T12:33:38Z</time>
      </trkpt>
      <trkpt lat="48.09868" lon="6.83001">
        <ele>890.32</ele>
        <time>2018-08-22T12:33:46Z</time>
      </trkpt>
      <trkpt lat="48.0988" lon="6.82979">
        <ele>890.32</ele>
        <time>2018-08-22T12:34:02Z</time>
      </trkpt>
      <trkpt lat="48.0989" lon="6.82964">
        <ele>891.76</ele>
        <time>2018-08-22T12:34:14Z</time>
      </trkpt>
      <trkpt lat="48.09899" lon="6.82942">
        <ele>891.76</ele>
        <time>2018-08-22T12:34:27Z</time>
      </trkpt>
      <trkpt lat="48.09904" lon="6.82917">
        <ele>891.76</ele>
        <time>2018-08-22T12:34:43Z</time>
      </trkpt>
      <trkpt lat="48.09907" lon="6.82911">
        <ele>892.72</ele>
        <time>2018-08-22T12:34:48Z</time>
      </trkpt>
      <trkpt lat="48.09911" lon="6.8289">
        <ele>893.2</ele>
        <time>2018-08-22T12:35:01Z</time>
      </trkpt>
      <trkpt lat="48.09915" lon="6.82865">
        <ele>893.2</ele>
        <time>2018-08-22T12:35:15Z</time>
      </trkpt>
      <trkpt lat="48.0992" lon="6.82837">
        <ele>894.16</ele>
        <time>2018-08-22T12:35:30Z</time>
      </trkpt>
      <trkpt lat="48.09927" lon="6.82804">
        <ele>894.16</ele>
        <time>2018-08-22T12:35:48Z</time>
      </trkpt>
      <trkpt lat="48.09931" lon="6.82773">
        <ele>894.64</ele>
        <time>2018-08-22T12:36:01Z</time>
      </trkpt>
      <trkpt lat="48.09933" lon="6.82766">
        <ele>894.64</ele>
        <time>2018-08-22T12:36:05Z</time>
      </trkpt>
      <trkpt lat="48.09939" lon="6.82742">
        <ele>894.64</ele>
        <time>2018-08-22T12:36:17Z</time>
      </trkpt>
      <trkpt lat="48.0994" lon="6.82738">
        <ele>893.68</ele>
        <time>2018-08-22T12:36:22Z</time>
      </trkpt>
      <trkpt lat="48.09939" lon="6.82729">
        <ele>893.68</ele>
        <time>2018-08-22T12:36:40Z</time>
      </trkpt>
      <trkpt lat="48.09941" lon="6.82719">
        <ele>893.2</ele>
        <time>2018-08-22T12:36:49Z</time>
      </trkpt>
      <trkpt lat="48.09943" lon="6.82705">
        <ele>893.2</ele>
        <time>2018-08-22T12:37:03Z</time>
      </trkpt>
      <trkpt lat="48.09945" lon="6.8268">
        <ele>892.72</ele>
        <time>2018-08-22T12:37:18Z</time>
      </trkpt>
      <trkpt lat="48.09953" lon="6.82654">
        <ele>892.24</ele>
        <time>2018-08-22T12:37:34Z</time>
      </trkpt>
      <trkpt lat="48.09954" lon="6.82646">
        <ele>892.24</ele>
        <time>2018-08-22T12:37:39Z</time>
      </trkpt>
      <trkpt lat="48.09959" lon="6.82633">
        <ele>891.28</ele>
        <time>2018-08-22T12:37:48Z</time>
      </trkpt>
      <trkpt lat="48.09961" lon="6.82627">
        <ele>891.28</ele>
        <time>2018-08-22T12:37:51Z</time>
      </trkpt>
      <trkpt lat="48.09967" lon="6.826">
        <ele>889.84</ele>
        <time>2018-08-22T12:38:06Z</time>
      </trkpt>
      <trkpt lat="48.0997" lon="6.82588">
        <ele>889.36</ele>
        <time>2018-08-22T12:38:13Z</time>
      </trkpt>
      <trkpt lat="48.09977" lon="6.82563">
        <ele>887.91</ele>
        <time>2018-08-22T12:38:28Z</time>
      </trkpt>
      <trkpt lat="48.09985" lon="6.82544">
        <ele>886.47</ele>
        <time>2018-08-22T12:38:40Z</time>
      </trkpt>
      <trkpt lat="48.0999" lon="6.8252">
        <ele>885.03</ele>
        <time>2018-08-22T12:38:54Z</time>
      </trkpt>
      <trkpt lat="48.09992" lon="6.82508">
        <ele>884.07</ele>
        <time>2018-08-22T12:38:59Z</time>
      </trkpt>
      <trkpt lat="48.09999" lon="6.82485">
        <ele>882.63</ele>
        <time>2018-08-22T12:39:12Z</time>
      </trkpt>
      <trkpt lat="48.09999" lon="6.82481">
        <ele>882.15</ele>
        <time>2018-08-22T12:39:14Z</time>
      </trkpt>
      <trkpt lat="48.10006" lon="6.82458">
        <ele>881.19</ele>
        <time>2018-08-22T12:39:28Z</time>
      </trkpt>
      <trkpt lat="48.10009" lon="6.82435">
        <ele>880.71</ele>
        <time>2018-08-22T12:39:42Z</time>
      </trkpt>
      <trkpt lat="48.10009" lon="6.82432">
        <ele>879.74</ele>
        <time>2018-08-22T12:39:44Z</time>
      </trkpt>
      <trkpt lat="48.10012" lon="6.82406">
        <ele>879.26</ele>
        <time>2018-08-22T12:39:59Z</time>
      </trkpt>
      <trkpt lat="48.10013" lon="6.82403">
        <ele>879.26</ele>
        <time>2018-08-22T12:40:01Z</time>
      </trkpt>
      <trkpt lat="48.10017" lon="6.82384">
        <ele>878.78</ele>
        <time>2018-08-22T12:40:12Z</time>
      </trkpt>
      <trkpt lat="48.1002" lon="6.82376">
        <ele>877.82</ele>
        <time>2018-08-22T12:40:16Z</time>
      </trkpt>
      <trkpt lat="48.10026" lon="6.82347">
        <ele>876.38</ele>
        <time>2018-08-22T12:40:33Z</time>
      </trkpt>
      <trkpt lat="48.10032" lon="6.82328">
        <ele>874.94</ele>
        <time>2018-08-22T12:40:46Z</time>
      </trkpt>
      <trkpt lat="48.10034" lon="6.82304">
        <ele>873.98</ele>
        <time>2018-08-22T12:41:00Z</time>
      </trkpt>
      <trkpt lat="48.10033" lon="6.82295">
        <ele>873.98</ele>
        <time>2018-08-22T12:41:05Z</time>
      </trkpt>
      <trkpt lat="48.10037" lon="6.82271">
        <ele>872.05</ele>
        <time>2018-08-22T12:41:20Z</time>
      </trkpt>
      <trkpt lat="48.10038" lon="6.82269">
        <ele>872.05</ele>
        <time>2018-08-22T12:41:22Z</time>
      </trkpt>
      <trkpt lat="48.1004" lon="6.82263">
        <ele>870.61</ele>
        <time>2018-08-22T12:41:26Z</time>
      </trkpt>
      <trkpt lat="48.10049" lon="6.82233">
        <ele>869.65</ele>
        <time>2018-08-22T12:41:40Z</time>
      </trkpt>
      <trkpt lat="48.10052" lon="6.82216">
        <ele>870.61</ele>
        <time>2018-08-22T12:41:48Z</time>
      </trkpt>
      <trkpt lat="48.10059" lon="6.82193">
        <ele>868.69</ele>
        <time>2018-08-22T12:42:01Z</time>
      </trkpt>
      <trkpt lat="48.10062" lon="6.8219">
        <ele>868.69</ele>
        <time>2018-08-22T12:42:05Z</time>
      </trkpt>
      <trkpt lat="48.10068" lon="6.82175">
        <ele>867.73</ele>
        <time>2018-08-22T12:42:20Z</time>
      </trkpt>
      <trkpt lat="48.10068" lon="6.82168">
        <ele>867.73</ele>
        <time>2018-08-22T12:42:35Z</time>
      </trkpt>
      <trkpt lat="48.10068" lon="6.82165">
        <ele>867.73</ele>
        <time>2018-08-22T12:42:39Z</time>
      </trkpt>
      <trkpt lat="48.10068" lon="6.82162">
        <ele>867.73</ele>
        <time>2018-08-22T12:42:41Z</time>
      </trkpt>
      <trkpt lat="48.10068" lon="6.82157">
        <ele>867.73</ele>
        <time>2018-08-22T12:42:44Z</time>
      </trkpt>
      <trkpt lat="48.1007" lon="6.82141">
        <ele>867.73</ele>
        <time>2018-08-22T12:42:58Z</time>
      </trkpt>
      <trkpt lat="48.1007" lon="6.82137">
        <ele>869.17</ele>
        <time>2018-08-22T12:43:02Z</time>
      </trkpt>
      <trkpt lat="48.10071" lon="6.82131">
        <ele>868.69</ele>
        <time>2018-08-22T12:43:20Z</time>
      </trkpt>
      <trkpt lat="48.1007" lon="6.82128">
        <ele>868.69</ele>
        <time>2018-08-22T12:43:41Z</time>
      </trkpt>
      <trkpt lat="48.10069" lon="6.82129">
        <ele>868.69</ele>
        <time>2018-08-22T12:44:01Z</time>
      </trkpt>
      <trkpt lat="48.10069" lon="6.82128">
        <ele>868.69</ele>
        <time>2018-08-22T12:44:22Z</time>
      </trkpt>
      <trkpt lat="48.10068" lon="6.82127">
        <ele>868.69</ele>
        <time>2018-08-22T12:44:40Z</time>
      </trkpt>
      <trkpt lat="48.10069" lon="6.82131">
        <ele>868.21</ele>
        <time>2018-08-22T12:45:02Z</time>
      </trkpt>
      <trkpt lat="48.10074" lon="6.82132">
        <ele>868.21</ele>
        <time>2018-08-22T12:45:19Z</time>
      </trkpt>
      <trkpt lat="48.10079" lon="6.82132">
        <ele>868.21</ele>
        <time>2018-08-22T12:45:36Z</time>
      </trkpt>
      <trkpt lat="48.1008" lon="6.82133">
        <ele>868.21</ele>
        <time>2018-08-22T12:46:00Z</time>
      </trkpt>
      <trkpt lat="48.10076" lon="6.82132">
        <ele>866.77</ele>
        <time>2018-08-22T12:46:27Z</time>
      </trkpt>
      <trkpt lat="48.10077" lon="6.82131">
        <ele>866.77</ele>
        <time>2018-08-22T12:46:59Z</time>
      </trkpt>
      <trkpt lat="48.10077" lon="6.82133">
        <ele>866.29</ele>
        <time>2018-08-22T12:47:27Z</time>
      </trkpt>
      <trkpt lat="48.1008" lon="6.82134">
        <ele>866.29</ele>
        <time>2018-08-22T12:47:48Z</time>
      </trkpt>
      <trkpt lat="48.1008" lon="6.82134">
        <ele>865.8</ele>
        <time>2018-08-22T12:48:08Z</time>
      </trkpt>
      <trkpt lat="48.10081" lon="6.82133">
        <ele>866.77</ele>
        <time>2018-08-22T12:48:34Z</time>
      </trkpt>
      <trkpt lat="48.10082" lon="6.82133">
        <ele>866.77</ele>
        <time>2018-08-22T12:48:54Z</time>
      </trkpt>
      <trkpt lat="48.10083" lon="6.82126">
        <ele>865.32</ele>
        <time>2018-08-22T12:49:06Z</time>
      </trkpt>
      <trkpt lat="48.10086" lon="6.82105">
        <ele>865.32</ele>
        <time>2018-08-22T12:49:22Z</time>
      </trkpt>
      <trkpt lat="48.10092" lon="6.82079">
        <ele>865.32</ele>
        <time>2018-08-22T12:49:39Z</time>
      </trkpt>
      <trkpt lat="48.10093" lon="6.82068">
        <ele>865.32</ele>
        <time>2018-08-22T12:49:45Z</time>
      </trkpt>
      <trkpt lat="48.10098" lon="6.82049">
        <ele>864.36</ele>
        <time>2018-08-22T12:50:02Z</time>
      </trkpt>
      <trkpt lat="48.10104" lon="6.82036">
        <ele>865.32</ele>
        <time>2018-08-22T12:50:21Z</time>
      </trkpt>
      <trkpt lat="48.10105" lon="6.82017">
        <ele>863.88</ele>
        <time>2018-08-22T12:50:33Z</time>
      </trkpt>
      <trkpt lat="48.10107" lon="6.82006">
        <ele>864.84</ele>
        <time>2018-08-22T12:50:40Z</time>
      </trkpt>
      <trkpt lat="48.10107" lon="6.82002">
        <ele>863.88</ele>
        <time>2018-08-22T12:50:43Z</time>
      </trkpt>
      <trkpt lat="48.10109" lon="6.81998">
        <ele>863.88</ele>
        <time>2018-08-22T12:50:46Z</time>
      </trkpt>
      <trkpt lat="48.10111" lon="6.81992">
        <ele>863.88</ele>
        <time>2018-08-22T12:50:50Z</time>
      </trkpt>
      <trkpt lat="48.10114" lon="6.81971">
        <ele>863.4</ele>
        <time>2018-08-22T12:51:03Z</time>
      </trkpt>
      <trkpt lat="48.10116" lon="6.81965">
        <ele>863.4</ele>
        <time>2018-08-22T12:51:07Z</time>
      </trkpt>
      <trkpt lat="48.10122" lon="6.81952">
        <ele>864.84</ele>
        <time>2018-08-22T12:51:16Z</time>
      </trkpt>
      <trkpt lat="48.10128" lon="6.81933">
        <ele>865.8</ele>
        <time>2018-08-22T12:51:29Z</time>
      </trkpt>
      <trkpt lat="48.10136" lon="6.81912">
        <ele>866.77</ele>
        <time>2018-08-22T12:51:44Z</time>
      </trkpt>
      <trkpt lat="48.10144" lon="6.81888">
        <ele>868.21</ele>
        <time>2018-08-22T12:51:59Z</time>
      </trkpt>
      <trkpt lat="48.10149" lon="6.81861">
        <ele>869.17</ele>
        <time>2018-08-22T12:52:16Z</time>
      </trkpt>
      <trkpt lat="48.10156" lon="6.81835">
        <ele>871.09</ele>
        <time>2018-08-22T12:52:33Z</time>
      </trkpt>
      <trkpt lat="48.1016" lon="6.81812">
        <ele>871.57</ele>
        <time>2018-08-22T12:52:47Z</time>
      </trkpt>
      <trkpt lat="48.10167" lon="6.81788">
        <ele>873.5</ele>
        <time>2018-08-22T12:53:02Z</time>
      </trkpt>
      <trkpt lat="48.10178" lon="6.81762">
        <ele>874.46</ele>
        <time>2018-08-22T12:53:16Z</time>
      </trkpt>
      <trkpt lat="48.10179" lon="6.8175">
        <ele>874.94</ele>
        <time>2018-08-22T12:53:23Z</time>
      </trkpt>
      <trkpt lat="48.10187" lon="6.81726">
        <ele>875.9</ele>
        <time>2018-08-22T12:53:39Z</time>
      </trkpt>
      <trkpt lat="48.10195" lon="6.81699">
        <ele>876.38</ele>
        <time>2018-08-22T12:53:47Z</time>
      </trkpt>
      <trkpt lat="48.10197" lon="6.81665">
        <ele>877.34</ele>
        <time>2018-08-22T12:54:01Z</time>
      </trkpt>
      <trkpt lat="48.102" lon="6.81641">
        <ele>877.82</ele>
        <time>2018-08-22T12:54:17Z</time>
      </trkpt>
      <trkpt lat="48.10203" lon="6.81617">
        <ele>878.3</ele>
        <time>2018-08-22T12:54:31Z</time>
      </trkpt>
      <trkpt lat="48.10201" lon="6.81604">
        <ele>878.3</ele>
        <time>2018-08-22T12:54:39Z</time>
      </trkpt>
      <trkpt lat="48.10195" lon="6.8158">
        <ele>877.34</ele>
        <time>2018-08-22T12:54:50Z</time>
      </trkpt>
      <trkpt lat="48.10191" lon="6.81565">
        <ele>877.34</ele>
        <time>2018-08-22T12:54:59Z</time>
      </trkpt>
      <trkpt lat="48.10186" lon="6.81537">
        <ele>876.86</ele>
        <time>2018-08-22T12:55:18Z</time>
      </trkpt>
      <trkpt lat="48.10186" lon="6.81531">
        <ele>876.86</ele>
        <time>2018-08-22T12:55:21Z</time>
      </trkpt>
      <trkpt lat="48.1018" lon="6.81495">
        <ele>877.82</ele>
        <time>2018-08-22T12:55:41Z</time>
      </trkpt>
      <trkpt lat="48.10186" lon="6.81474">
        <ele>878.3</ele>
        <time>2018-08-22T12:55:56Z</time>
      </trkpt>
      <trkpt lat="48.10187" lon="6.8147">
        <ele>876.86</ele>
        <time>2018-08-22T12:55:58Z</time>
      </trkpt>
      <trkpt lat="48.10191" lon="6.81458">
        <ele>877.82</ele>
        <time>2018-08-22T12:56:06Z</time>
      </trkpt>
      <trkpt lat="48.10199" lon="6.81439">
        <ele>878.78</ele>
        <time>2018-08-22T12:56:21Z</time>
      </trkpt>
      <trkpt lat="48.1021" lon="6.81413">
        <ele>878.78</ele>
        <time>2018-08-22T12:56:38Z</time>
      </trkpt>
      <trkpt lat="48.10219" lon="6.81386">
        <ele>877.82</ele>
        <time>2018-08-22T12:56:54Z</time>
      </trkpt>
      <trkpt lat="48.10227" lon="6.81356">
        <ele>877.82</ele>
        <time>2018-08-22T12:57:12Z</time>
      </trkpt>
      <trkpt lat="48.10233" lon="6.81329">
        <ele>877.34</ele>
        <time>2018-08-22T12:57:27Z</time>
      </trkpt>
      <trkpt lat="48.10238" lon="6.81306">
        <ele>877.34</ele>
        <time>2018-08-22T12:57:44Z</time>
      </trkpt>
      <trkpt lat="48.10249" lon="6.81277">
        <ele>876.38</ele>
        <time>2018-08-22T12:57:59Z</time>
      </trkpt>
      <trkpt lat="48.10254" lon="6.81267">
        <ele>876.38</ele>
        <time>2018-08-22T12:58:04Z</time>
      </trkpt>
      <trkpt lat="48.10257" lon="6.81254">
        <ele>876.38</ele>
        <time>2018-08-22T12:58:06Z</time>
      </trkpt>
      <trkpt lat="48.10259" lon="6.81226">
        <ele>875.42</ele>
        <time>2018-08-22T12:58:21Z</time>
      </trkpt>
      <trkpt lat="48.10264" lon="6.81207">
        <ele>874.46</ele>
        <time>2018-08-22T12:58:32Z</time>
      </trkpt>
      <trkpt lat="48.10274" lon="6.81188">
        <ele>872.53</ele>
        <time>2018-08-22T12:58:50Z</time>
      </trkpt>
      <trkpt lat="48.10286" lon="6.81162">
        <ele>869.65</ele>
        <time>2018-08-22T12:59:08Z</time>
      </trkpt>
      <trkpt lat="48.10299" lon="6.8115">
        <ele>866.77</ele>
        <time>2018-08-22T12:59:24Z</time>
      </trkpt>
      <trkpt lat="48.10306" lon="6.8113">
        <ele>864.84</ele>
        <time>2018-08-22T12:59:37Z</time>
      </trkpt>
      <trkpt lat="48.10318" lon="6.81112">
        <ele>862.44</ele>
        <time>2018-08-22T12:59:53Z</time>
      </trkpt>
      <trkpt lat="48.10318" lon="6.81111">
        <ele>862.44</ele>
        <time>2018-08-22T12:59:54Z</time>
      </trkpt>
      <trkpt lat="48.10321" lon="6.81102">
        <ele>860.52</ele>
        <time>2018-08-22T13:00:02Z</time>
      </trkpt>
      <trkpt lat="48.10332" lon="6.81082">
        <ele>857.63</ele>
        <time>2018-08-22T13:00:18Z</time>
      </trkpt>
      <trkpt lat="48.10345" lon="6.81067">
        <ele>854.27</ele>
        <time>2018-08-22T13:00:34Z</time>
      </trkpt>
      <trkpt lat="48.10356" lon="6.81054">
        <ele>852.83</ele>
        <time>2018-08-22T13:00:48Z</time>
      </trkpt>
      <trkpt lat="48.1037" lon="6.8104">
        <ele>850.9</ele>
        <time>2018-08-22T13:01:04Z</time>
      </trkpt>
      <trkpt lat="48.10374" lon="6.81034">
        <ele>850.42</ele>
        <time>2018-08-22T13:01:10Z</time>
      </trkpt>
      <trkpt lat="48.10384" lon="6.81013">
        <ele>847.06</ele>
        <time>2018-08-22T13:01:25Z</time>
      </trkpt>
      <trkpt lat="48.10393" lon="6.80991">
        <ele>844.18</ele>
        <time>2018-08-22T13:01:39Z</time>
      </trkpt>
      <trkpt lat="48.10395" lon="6.80986">
        <ele>844.66</ele>
        <time>2018-08-22T13:01:54Z</time>
      </trkpt>
      <trkpt lat="48.10397" lon="6.80986">
        <ele>844.66</ele>
        <time>2018-08-22T13:01:57Z</time>
      </trkpt>
      <trkpt lat="48.104" lon="6.80984">
        <ele>842.73</ele>
        <time>2018-08-22T13:02:03Z</time>
      </trkpt>
      <trkpt lat="48.104" lon="6.80984">
        <ele>844.66</ele>
        <time>2018-08-22T13:02:22Z</time>
      </trkpt>
      <trkpt lat="48.10397" lon="6.80981">
        <ele>844.66</ele>
        <time>2018-08-22T13:02:49Z</time>
      </trkpt>
      <trkpt lat="48.10396" lon="6.8098">
        <ele>845.14</ele>
        <time>2018-08-22T13:03:06Z</time>
      </trkpt>
      <trkpt lat="48.10397" lon="6.8098">
        <ele>845.14</ele>
        <time>2018-08-22T13:03:36Z</time>
      </trkpt>
      <trkpt lat="48.104" lon="6.80986">
        <ele>845.14</ele>
        <time>2018-08-22T13:04:02Z</time>
      </trkpt>
      <trkpt lat="48.10398" lon="6.80983">
        <ele>845.14</ele>
        <time>2018-08-22T13:04:28Z</time>
      </trkpt>
      <trkpt lat="48.10399" lon="6.80982">
        <ele>845.14</ele>
        <time>2018-08-22T13:04:50Z</time>
      </trkpt>
      <trkpt lat="48.10399" lon="6.80986">
        <ele>846.58</ele>
        <time>2018-08-22T13:05:05Z</time>
      </trkpt>
      <trkpt lat="48.10395" lon="6.80997">
        <ele>849.46</ele>
        <time>2018-08-22T13:05:19Z</time>
      </trkpt>
      <trkpt lat="48.10387" lon="6.81004">
        <ele>850.42</ele>
        <time>2018-08-22T13:05:34Z</time>
      </trkpt>
      <trkpt lat="48.10383" lon="6.81007">
        <ele>850.42</ele>
        <time>2018-08-22T13:05:52Z</time>
      </trkpt>
      <trkpt lat="48.10385" lon="6.81014">
        <ele>850.9</ele>
        <time>2018-08-22T13:06:29Z</time>
      </trkpt>
      <trkpt lat="48.10385" lon="6.8102">
        <ele>850.9</ele>
        <time>2018-08-22T13:07:06Z</time>
      </trkpt>
      <trkpt lat="48.10385" lon="6.81016">
        <ele>850.9</ele>
        <time>2018-08-22T13:07:43Z</time>
      </trkpt>
      <trkpt lat="48.10394" lon="6.81006">
        <ele>848.5</ele>
        <time>2018-08-22T13:07:59Z</time>
      </trkpt>
      <trkpt lat="48.10396" lon="6.81">
        <ele>847.06</ele>
        <time>2018-08-22T13:08:04Z</time>
      </trkpt>
      <trkpt lat="48.10396" lon="6.80982">
        <ele>844.66</ele>
        <time>2018-08-22T13:08:20Z</time>
      </trkpt>
      <trkpt lat="48.1038" lon="6.8098">
        <ele>844.66</ele>
        <time>2018-08-22T13:08:38Z</time>
      </trkpt>
      <trkpt lat="48.10374" lon="6.80976">
        <ele>844.18</ele>
        <time>2018-08-22T13:09:06Z</time>
      </trkpt>
      <trkpt lat="48.10372" lon="6.80974">
        <ele>843.69</ele>
        <time>2018-08-22T13:09:40Z</time>
      </trkpt>
      <trkpt lat="48.10362" lon="6.80972">
        <ele>846.58</ele>
        <time>2018-08-22T13:09:57Z</time>
      </trkpt>
      <trkpt lat="48.10351" lon="6.80964">
        <ele>848.98</ele>
        <time>2018-08-22T13:10:13Z</time>
      </trkpt>
      <trkpt lat="48.10342" lon="6.80955">
        <ele>850.9</ele>
        <time>2018-08-22T13:10:28Z</time>
      </trkpt>
      <trkpt lat="48.10331" lon="6.80941">
        <ele>852.35</ele>
        <time>2018-08-22T13:10:43Z</time>
      </trkpt>
      <trkpt lat="48.10322" lon="6.8092">
        <ele>852.83</ele>
        <time>2018-08-22T13:10:56Z</time>
      </trkpt>
      <trkpt lat="48.10311" lon="6.80899">
        <ele>852.35</ele>
        <time>2018-08-22T13:11:11Z</time>
      </trkpt>
      <trkpt lat="48.103" lon="6.80885">
        <ele>853.79</ele>
        <time>2018-08-22T13:11:27Z</time>
      </trkpt>
      <trkpt lat="48.10282" lon="6.80873">
        <ele>856.67</ele>
        <time>2018-08-22T13:11:43Z</time>
      </trkpt>
      <trkpt lat="48.10261" lon="6.80864">
        <ele>856.67</ele>
        <time>2018-08-22T13:11:58Z</time>
      </trkpt>
      <trkpt lat="48.10247" lon="6.80857">
        <ele>856.67</ele>
        <time>2018-08-22T13:12:08Z</time>
      </trkpt>
      <trkpt lat="48.1023" lon="6.80846">
        <ele>857.15</ele>
        <time>2018-08-22T13:12:24Z</time>
      </trkpt>
      <trkpt lat="48.10221" lon="6.80842">
        <ele>858.11</ele>
        <time>2018-08-22T13:12:31Z</time>
      </trkpt>
      <trkpt lat="48.10209" lon="6.80837">
        <ele>858.11</ele>
        <time>2018-08-22T13:12:42Z</time>
      </trkpt>
      <trkpt lat="48.10193" lon="6.80836">
        <ele>856.67</ele>
        <time>2018-08-22T13:12:49Z</time>
      </trkpt>
      <trkpt lat="48.10171" lon="6.80827">
        <ele>856.67</ele>
        <time>2018-08-22T13:13:04Z</time>
      </trkpt>
      <trkpt lat="48.10156" lon="6.80817">
        <ele>856.67</ele>
        <time>2018-08-22T13:13:17Z</time>
      </trkpt>
      <trkpt lat="48.10153" lon="6.80815">
        <ele>856.67</ele>
        <time>2018-08-22T13:13:21Z</time>
      </trkpt>
      <trkpt lat="48.10143" lon="6.80805">
        <ele>858.59</ele>
        <time>2018-08-22T13:13:30Z</time>
      </trkpt>
      <trkpt lat="48.10132" lon="6.80791">
        <ele>856.67</ele>
        <time>2018-08-22T13:13:46Z</time>
      </trkpt>
      <trkpt lat="48.10128" lon="6.80788">
        <ele>856.19</ele>
        <time>2018-08-22T13:13:51Z</time>
      </trkpt>
      <trkpt lat="48.10114" lon="6.8078">
        <ele>854.27</ele>
        <time>2018-08-22T13:14:06Z</time>
      </trkpt>
      <trkpt lat="48.10098" lon="6.80771">
        <ele>852.83</ele>
        <time>2018-08-22T13:14:20Z</time>
      </trkpt>
      <trkpt lat="48.10088" lon="6.80768">
        <ele>852.35</ele>
        <time>2018-08-22T13:14:26Z</time>
      </trkpt>
      <trkpt lat="48.10074" lon="6.80756">
        <ele>850.9</ele>
        <time>2018-08-22T13:14:40Z</time>
      </trkpt>
      <trkpt lat="48.10063" lon="6.80751">
        <ele>850.42</ele>
        <time>2018-08-22T13:14:49Z</time>
      </trkpt>
      <trkpt lat="48.10042" lon="6.80748">
        <ele>850.9</ele>
        <time>2018-08-22T13:15:05Z</time>
      </trkpt>
      <trkpt lat="48.10026" lon="6.8075">
        <ele>850.9</ele>
        <time>2018-08-22T13:15:25Z</time>
      </trkpt>
      <trkpt lat="48.1001" lon="6.80753">
        <ele>849.94</ele>
        <time>2018-08-22T13:15:41Z</time>
      </trkpt>
      <trkpt lat="48.09991" lon="6.80768">
        <ele>847.54</ele>
        <time>2018-08-22T13:15:59Z</time>
      </trkpt>
      <trkpt lat="48.09988" lon="6.8077">
        <ele>847.54</ele>
        <time>2018-08-22T13:16:01Z</time>
      </trkpt>
      <trkpt lat="48.0998" lon="6.80779">
        <ele>847.06</ele>
        <time>2018-08-22T13:16:10Z</time>
      </trkpt>
      <trkpt lat="48.0997" lon="6.80788">
        <ele>848.5</ele>
        <time>2018-08-22T13:16:19Z</time>
      </trkpt>
      <trkpt lat="48.09958" lon="6.80798">
        <ele>847.06</ele>
        <time>2018-08-22T13:16:32Z</time>
      </trkpt>
      <trkpt lat="48.09944" lon="6.80814">
        <ele>845.62</ele>
        <time>2018-08-22T13:16:46Z</time>
      </trkpt>
      <trkpt lat="48.09935" lon="6.80832">
        <ele>842.73</ele>
        <time>2018-08-22T13:17:02Z</time>
      </trkpt>
      <trkpt lat="48.09925" lon="6.80855">
        <ele>841.77</ele>
        <time>2018-08-22T13:17:19Z</time>
      </trkpt>
      <trkpt lat="48.09918" lon="6.80876">
        <ele>840.81</ele>
        <time>2018-08-22T13:17:32Z</time>
      </trkpt>
      <trkpt lat="48.09917" lon="6.80877">
        <ele>840.81</ele>
        <time>2018-08-22T13:17:33Z</time>
      </trkpt>
      <trkpt lat="48.09917" lon="6.80887">
        <ele>839.85</ele>
        <time>2018-08-22T13:17:38Z</time>
      </trkpt>
      <trkpt lat="48.09912" lon="6.80913">
        <ele>838.89</ele>
        <time>2018-08-22T13:17:54Z</time>
      </trkpt>
      <trkpt lat="48.09912" lon="6.80914">
        <ele>838.89</ele>
        <time>2018-08-22T13:17:55Z</time>
      </trkpt>
      <trkpt lat="48.0991" lon="6.80926">
        <ele>838.89</ele>
        <time>2018-08-22T13:18:02Z</time>
      </trkpt>
      <trkpt lat="48.09914" lon="6.80975">
        <ele>836.96</ele>
        <time>2018-08-22T13:18:19Z</time>
      </trkpt>
      <trkpt lat="48.09915" lon="6.80984">
        <ele>836.96</ele>
        <time>2018-08-22T13:18:41Z</time>
      </trkpt>
      <trkpt lat="48.09913" lon="6.80984">
        <ele>836.96</ele>
        <time>2018-08-22T13:19:00Z</time>
      </trkpt>
      <trkpt lat="48.09911" lon="6.80977">
        <ele>836.48</ele>
        <time>2018-08-22T13:19:21Z</time>
      </trkpt>
      <trkpt lat="48.09908" lon="6.80971">
        <ele>836</ele>
        <time>2018-08-22T13:19:38Z</time>
      </trkpt>
      <trkpt lat="48.09901" lon="6.80964">
        <ele>834.56</ele>
        <time>2018-08-22T13:19:50Z</time>
      </trkpt>
      <trkpt lat="48.09894" lon="6.8095">
        <ele>833.12</ele>
        <time>2018-08-22T13:20:02Z</time>
      </trkpt>
      <trkpt lat="48.0989" lon="6.80947">
        <ele>832.64</ele>
        <time>2018-08-22T13:20:07Z</time>
      </trkpt>
      <trkpt lat="48.09877" lon="6.80919">
        <ele>830.24</ele>
        <time>2018-08-22T13:20:27Z</time>
      </trkpt>
      <trkpt lat="48.09865" lon="6.80893">
        <ele>828.31</ele>
        <time>2018-08-22T13:20:45Z</time>
      </trkpt>
      <trkpt lat="48.09857" lon="6.80869">
        <ele>827.35</ele>
        <time>2018-08-22T13:21:01Z</time>
      </trkpt>
      <trkpt lat="48.09843" lon="6.80839">
        <ele>824.47</ele>
        <time>2018-08-22T13:21:21Z</time>
      </trkpt>
      <trkpt lat="48.09826" lon="6.80818">
        <ele>822.55</ele>
        <time>2018-08-22T13:21:39Z</time>
      </trkpt>
      <trkpt lat="48.0981" lon="6.80796">
        <ele>819.18</ele>
        <time>2018-08-22T13:21:57Z</time>
      </trkpt>
      <trkpt lat="48.09807" lon="6.80791">
        <ele>819.66</ele>
        <time>2018-08-22T13:22:01Z</time>
      </trkpt>
      <trkpt lat="48.09793" lon="6.80767">
        <ele>816.78</ele>
        <time>2018-08-22T13:22:19Z</time>
      </trkpt>
      <trkpt lat="48.0979" lon="6.8076">
        <ele>815.82</ele>
        <time>2018-08-22T13:22:25Z</time>
      </trkpt>
      <trkpt lat="48.09773" lon="6.8074">
        <ele>813.89</ele>
        <time>2018-08-22T13:22:43Z</time>
      </trkpt>
      <trkpt lat="48.09758" lon="6.80722">
        <ele>811.49</ele>
        <time>2018-08-22T13:23:01Z</time>
      </trkpt>
      <trkpt lat="48.0974" lon="6.80709">
        <ele>808.61</ele>
        <time>2018-08-22T13:23:18Z</time>
      </trkpt>
      <trkpt lat="48.09716" lon="6.80704">
        <ele>805.72</ele>
        <time>2018-08-22T13:23:35Z</time>
      </trkpt>
      <trkpt lat="48.09694" lon="6.80711">
        <ele>803.8</ele>
        <time>2018-08-22T13:23:52Z</time>
      </trkpt>
      <trkpt lat="48.09675" lon="6.80713">
        <ele>802.36</ele>
        <time>2018-08-22T13:24:08Z</time>
      </trkpt>
      <trkpt lat="48.09655" lon="6.80696">
        <ele>800.44</ele>
        <time>2018-08-22T13:24:28Z</time>
      </trkpt>
      <trkpt lat="48.09645" lon="6.80676">
        <ele>798.51</ele>
        <time>2018-08-22T13:24:42Z</time>
      </trkpt>
      <trkpt lat="48.09633" lon="6.80653">
        <ele>798.03</ele>
        <time>2018-08-22T13:24:58Z</time>
      </trkpt>
      <trkpt lat="48.09619" lon="6.80623">
        <ele>796.59</ele>
        <time>2018-08-22T13:25:18Z</time>
      </trkpt>
      <trkpt lat="48.09605" lon="6.80595">
        <ele>795.15</ele>
        <time>2018-08-22T13:25:37Z</time>
      </trkpt>
      <trkpt lat="48.09598" lon="6.80562">
        <ele>794.19</ele>
        <time>2018-08-22T13:25:57Z</time>
      </trkpt>
      <trkpt lat="48.0959" lon="6.80531">
        <ele>791.78</ele>
        <time>2018-08-22T13:26:15Z</time>
      </trkpt>
      <trkpt lat="48.09576" lon="6.80514">
        <ele>788.9</ele>
        <time>2018-08-22T13:26:30Z</time>
      </trkpt>
      <trkpt lat="48.09555" lon="6.80507">
        <ele>785.53</ele>
        <time>2018-08-22T13:26:48Z</time>
      </trkpt>
      <trkpt lat="48.09536" lon="6.8051">
        <ele>783.61</ele>
        <time>2018-08-22T13:27:05Z</time>
      </trkpt>
      <trkpt lat="48.09515" lon="6.80514">
        <ele>781.69</ele>
        <time>2018-08-22T13:27:23Z</time>
      </trkpt>
      <trkpt lat="48.09494" lon="6.8052">
        <ele>778.81</ele>
        <time>2018-08-22T13:27:43Z</time>
      </trkpt>
      <trkpt lat="48.09484" lon="6.80519">
        <ele>778.32</ele>
        <time>2018-08-22T13:27:52Z</time>
      </trkpt>
      <trkpt lat="48.09464" lon="6.80514">
        <ele>776.88</ele>
        <time>2018-08-22T13:28:10Z</time>
      </trkpt>
      <trkpt lat="48.09444" lon="6.80498">
        <ele>774.48</ele>
        <time>2018-08-22T13:28:30Z</time>
      </trkpt>
      <trkpt lat="48.09444" lon="6.80471">
        <ele>772.56</ele>
        <time>2018-08-22T13:28:47Z</time>
      </trkpt>
      <trkpt lat="48.09445" lon="6.80441">
        <ele>771.11</ele>
        <time>2018-08-22T13:29:05Z</time>
      </trkpt>
      <trkpt lat="48.09444" lon="6.80441">
        <ele>771.11</ele>
        <time>2018-08-22T13:29:07Z</time>
      </trkpt>
      <trkpt lat="48.09441" lon="6.80442">
        <ele>771.11</ele>
        <time>2018-08-22T13:29:22Z</time>
      </trkpt>
      <trkpt lat="48.09433" lon="6.80449">
        <ele>771.11</ele>
        <time>2018-08-22T13:29:36Z</time>
      </trkpt>
      <trkpt lat="48.09432" lon="6.80449">
        <ele>772.08</ele>
        <time>2018-08-22T13:29:49Z</time>
      </trkpt>
      <trkpt lat="48.09431" lon="6.8045">
        <ele>771.11</ele>
        <time>2018-08-22T13:30:00Z</time>
      </trkpt>
    </trkseg>
  </trk>
</gpx>